<?xml version="1.0" encoding="UTF-8" standalone="no" ?>
<gpx xmlns="http://www.topografix.com/GPX/1/1" xmlns:xsi="http://www.w3.org/2001/XMLSchema-instance" xsi:schemaLocation="http://www.topografix.com/GPX/1/1 http://www.topografix.com/GPX/1/1/gpx.xsd" version="1.1" creator="VisuGPX - https://www.visugpx.com">
  <metadata>
    <name>Ste Victoire entre Pourrières et Puyloubier</name>
    <desc><![CDATA[Gourd de la Tune, la Blaquière, Grand Vallon, la Pallière, Collet du Pouchon, Plaine des Berges]]></desc>
  </metadata>
  <trk>
    <name><![CDATA[PPOURRIERE 16:07:28]]></name>
    <trkseg>
      <trkpt lat="43.51805" lon="5.72903">
        <ele>338.52</ele>
        <time>2014-03-30T08:12:14Z</time>
      </trkpt>
      <trkpt lat="43.51817" lon="5.72904">
        <ele>339.48</ele>
        <time>2014-03-30T08:12:28Z</time>
      </trkpt>
      <trkpt lat="43.51824" lon="5.72906">
        <ele>339</ele>
        <time>2014-03-30T08:12:34Z</time>
      </trkpt>
      <trkpt lat="43.51834" lon="5.72901">
        <ele>337.08</ele>
        <time>2014-03-30T08:12:44Z</time>
      </trkpt>
      <trkpt lat="43.51837" lon="5.729">
        <ele>336.6</ele>
        <time>2014-03-30T08:12:47Z</time>
      </trkpt>
      <trkpt lat="43.51851" lon="5.72899">
        <ele>337.08</ele>
        <time>2014-03-30T08:13:02Z</time>
      </trkpt>
      <trkpt lat="43.51864" lon="5.72896">
        <ele>337.56</ele>
        <time>2014-03-30T08:13:17Z</time>
      </trkpt>
      <trkpt lat="43.51885" lon="5.72895">
        <ele>337.56</ele>
        <time>2014-03-30T08:13:33Z</time>
      </trkpt>
      <trkpt lat="43.51888" lon="5.72894">
        <ele>336.12</ele>
        <time>2014-03-30T08:13:36Z</time>
      </trkpt>
      <trkpt lat="43.51891" lon="5.72894">
        <ele>337.56</ele>
        <time>2014-03-30T08:13:38Z</time>
      </trkpt>
      <trkpt lat="43.51906" lon="5.72893">
        <ele>339.48</ele>
        <time>2014-03-30T08:13:52Z</time>
      </trkpt>
      <trkpt lat="43.51907" lon="5.72893">
        <ele>339.48</ele>
        <time>2014-03-30T08:13:53Z</time>
      </trkpt>
      <trkpt lat="43.51909" lon="5.72892">
        <ele>339.96</ele>
        <time>2014-03-30T08:13:55Z</time>
      </trkpt>
      <trkpt lat="43.51911" lon="5.72893">
        <ele>339.96</ele>
        <time>2014-03-30T08:13:57Z</time>
      </trkpt>
      <trkpt lat="43.51917" lon="5.72892">
        <ele>339.96</ele>
        <time>2014-03-30T08:14:02Z</time>
      </trkpt>
      <trkpt lat="43.51921" lon="5.72892">
        <ele>339.96</ele>
        <time>2014-03-30T08:14:05Z</time>
      </trkpt>
      <trkpt lat="43.51933" lon="5.72892">
        <ele>342.85</ele>
        <time>2014-03-30T08:14:17Z</time>
      </trkpt>
      <trkpt lat="43.51935" lon="5.72892">
        <ele>341.41</ele>
        <time>2014-03-30T08:14:19Z</time>
      </trkpt>
      <trkpt lat="43.51936" lon="5.72893">
        <ele>341.89</ele>
        <time>2014-03-30T08:14:21Z</time>
      </trkpt>
      <trkpt lat="43.51942" lon="5.72893">
        <ele>342.37</ele>
        <time>2014-03-30T08:14:26Z</time>
      </trkpt>
      <trkpt lat="43.51946" lon="5.72893">
        <ele>342.85</ele>
        <time>2014-03-30T08:14:30Z</time>
      </trkpt>
      <trkpt lat="43.51947" lon="5.72893">
        <ele>342.85</ele>
        <time>2014-03-30T08:14:31Z</time>
      </trkpt>
      <trkpt lat="43.51959" lon="5.7289">
        <ele>345.25</ele>
        <time>2014-03-30T08:14:44Z</time>
      </trkpt>
      <trkpt lat="43.51974" lon="5.72889">
        <ele>347.65</ele>
        <time>2014-03-30T08:14:58Z</time>
      </trkpt>
      <trkpt lat="43.51985" lon="5.72888">
        <ele>349.1</ele>
        <time>2014-03-30T08:15:09Z</time>
      </trkpt>
      <trkpt lat="43.51998" lon="5.72887">
        <ele>351.02</ele>
        <time>2014-03-30T08:15:23Z</time>
      </trkpt>
      <trkpt lat="43.52007" lon="5.72886">
        <ele>351.98</ele>
        <time>2014-03-30T08:15:32Z</time>
      </trkpt>
      <trkpt lat="43.52015" lon="5.72884">
        <ele>352.94</ele>
        <time>2014-03-30T08:15:40Z</time>
      </trkpt>
      <trkpt lat="43.52029" lon="5.72885">
        <ele>354.86</ele>
        <time>2014-03-30T08:15:54Z</time>
      </trkpt>
      <trkpt lat="43.52043" lon="5.72887">
        <ele>356.31</ele>
        <time>2014-03-30T08:16:08Z</time>
      </trkpt>
      <trkpt lat="43.52055" lon="5.7289">
        <ele>357.27</ele>
        <time>2014-03-30T08:16:20Z</time>
      </trkpt>
      <trkpt lat="43.52059" lon="5.72893">
        <ele>357.27</ele>
        <time>2014-03-30T08:16:25Z</time>
      </trkpt>
      <trkpt lat="43.52061" lon="5.72895">
        <ele>357.75</ele>
        <time>2014-03-30T08:16:27Z</time>
      </trkpt>
      <trkpt lat="43.52064" lon="5.72898">
        <ele>358.71</ele>
        <time>2014-03-30T08:16:31Z</time>
      </trkpt>
      <trkpt lat="43.52066" lon="5.729">
        <ele>358.71</ele>
        <time>2014-03-30T08:16:33Z</time>
      </trkpt>
      <trkpt lat="43.52076" lon="5.72911">
        <ele>360.15</ele>
        <time>2014-03-30T08:16:45Z</time>
      </trkpt>
      <trkpt lat="43.52084" lon="5.72923">
        <ele>361.59</ele>
        <time>2014-03-30T08:16:58Z</time>
      </trkpt>
      <trkpt lat="43.52092" lon="5.72932">
        <ele>363.04</ele>
        <time>2014-03-30T08:17:12Z</time>
      </trkpt>
      <trkpt lat="43.521" lon="5.72938">
        <ele>363.52</ele>
        <time>2014-03-30T08:17:21Z</time>
      </trkpt>
      <trkpt lat="43.52113" lon="5.72942">
        <ele>366.88</ele>
        <time>2014-03-30T08:17:35Z</time>
      </trkpt>
      <trkpt lat="43.52117" lon="5.7294">
        <ele>367.84</ele>
        <time>2014-03-30T08:17:41Z</time>
      </trkpt>
      <trkpt lat="43.52125" lon="5.72937">
        <ele>368.32</ele>
        <time>2014-03-30T08:17:49Z</time>
      </trkpt>
      <trkpt lat="43.52132" lon="5.72933">
        <ele>369.76</ele>
        <time>2014-03-30T08:17:59Z</time>
      </trkpt>
      <trkpt lat="43.52146" lon="5.72928">
        <ele>372.65</ele>
        <time>2014-03-30T08:18:16Z</time>
      </trkpt>
      <trkpt lat="43.52149" lon="5.72927">
        <ele>373.13</ele>
        <time>2014-03-30T08:18:19Z</time>
      </trkpt>
      <trkpt lat="43.52163" lon="5.72921">
        <ele>374.57</ele>
        <time>2014-03-30T08:18:35Z</time>
      </trkpt>
      <trkpt lat="43.52166" lon="5.7292">
        <ele>376.01</ele>
        <time>2014-03-30T08:18:39Z</time>
      </trkpt>
      <trkpt lat="43.52177" lon="5.72916">
        <ele>376.97</ele>
        <time>2014-03-30T08:18:52Z</time>
      </trkpt>
      <trkpt lat="43.52187" lon="5.72911">
        <ele>378.9</ele>
        <time>2014-03-30T08:19:06Z</time>
      </trkpt>
      <trkpt lat="43.52198" lon="5.7291">
        <ele>381.3</ele>
        <time>2014-03-30T08:19:20Z</time>
      </trkpt>
      <trkpt lat="43.52211" lon="5.72913">
        <ele>384.18</ele>
        <time>2014-03-30T08:19:35Z</time>
      </trkpt>
      <trkpt lat="43.52218" lon="5.72914">
        <ele>386.11</ele>
        <time>2014-03-30T08:19:45Z</time>
      </trkpt>
      <trkpt lat="43.52221" lon="5.72915">
        <ele>386.59</ele>
        <time>2014-03-30T08:19:48Z</time>
      </trkpt>
      <trkpt lat="43.52225" lon="5.72914">
        <ele>386.11</ele>
        <time>2014-03-30T08:19:54Z</time>
      </trkpt>
      <trkpt lat="43.52234" lon="5.72916">
        <ele>387.55</ele>
        <time>2014-03-30T08:20:08Z</time>
      </trkpt>
      <trkpt lat="43.52245" lon="5.72912">
        <ele>388.99</ele>
        <time>2014-03-30T08:20:21Z</time>
      </trkpt>
      <trkpt lat="43.52247" lon="5.72912">
        <ele>388.99</ele>
        <time>2014-03-30T08:20:24Z</time>
      </trkpt>
      <trkpt lat="43.5226" lon="5.72909">
        <ele>390.91</ele>
        <time>2014-03-30T08:20:39Z</time>
      </trkpt>
      <trkpt lat="43.52261" lon="5.72909">
        <ele>390.91</ele>
        <time>2014-03-30T08:20:41Z</time>
      </trkpt>
      <trkpt lat="43.52272" lon="5.72908">
        <ele>393.32</ele>
        <time>2014-03-30T08:20:53Z</time>
      </trkpt>
      <trkpt lat="43.52282" lon="5.72908">
        <ele>394.28</ele>
        <time>2014-03-30T08:21:03Z</time>
      </trkpt>
      <trkpt lat="43.52284" lon="5.72908">
        <ele>394.28</ele>
        <time>2014-03-30T08:21:05Z</time>
      </trkpt>
      <trkpt lat="43.52292" lon="5.72909">
        <ele>394.28</ele>
        <time>2014-03-30T08:21:14Z</time>
      </trkpt>
      <trkpt lat="43.52299" lon="5.7291">
        <ele>395.24</ele>
        <time>2014-03-30T08:21:21Z</time>
      </trkpt>
      <trkpt lat="43.52304" lon="5.72908">
        <ele>395.72</ele>
        <time>2014-03-30T08:21:26Z</time>
      </trkpt>
      <trkpt lat="43.52306" lon="5.72909">
        <ele>395.72</ele>
        <time>2014-03-30T08:21:28Z</time>
      </trkpt>
      <trkpt lat="43.52309" lon="5.72908">
        <ele>396.68</ele>
        <time>2014-03-30T08:21:31Z</time>
      </trkpt>
      <trkpt lat="43.52316" lon="5.72908">
        <ele>397.16</ele>
        <time>2014-03-30T08:21:38Z</time>
      </trkpt>
      <trkpt lat="43.52327" lon="5.72905">
        <ele>397.64</ele>
        <time>2014-03-30T08:21:48Z</time>
      </trkpt>
      <trkpt lat="43.52331" lon="5.72905">
        <ele>397.16</ele>
        <time>2014-03-30T08:21:51Z</time>
      </trkpt>
      <trkpt lat="43.5235" lon="5.72901">
        <ele>398.12</ele>
        <time>2014-03-30T08:22:07Z</time>
      </trkpt>
      <trkpt lat="43.52369" lon="5.72901">
        <ele>399.57</ele>
        <time>2014-03-30T08:22:20Z</time>
      </trkpt>
      <trkpt lat="43.52371" lon="5.72901">
        <ele>398.6</ele>
        <time>2014-03-30T08:22:21Z</time>
      </trkpt>
      <trkpt lat="43.52379" lon="5.72901">
        <ele>398.6</ele>
        <time>2014-03-30T08:22:27Z</time>
      </trkpt>
      <trkpt lat="43.52384" lon="5.72901">
        <ele>396.68</ele>
        <time>2014-03-30T08:22:31Z</time>
      </trkpt>
      <trkpt lat="43.52385" lon="5.72901">
        <ele>397.16</ele>
        <time>2014-03-30T08:22:32Z</time>
      </trkpt>
      <trkpt lat="43.52392" lon="5.72899">
        <ele>398.6</ele>
        <time>2014-03-30T08:22:37Z</time>
      </trkpt>
      <trkpt lat="43.52393" lon="5.72899">
        <ele>398.6</ele>
        <time>2014-03-30T08:22:38Z</time>
      </trkpt>
      <trkpt lat="43.52412" lon="5.72898">
        <ele>397.16</ele>
        <time>2014-03-30T08:22:52Z</time>
      </trkpt>
      <trkpt lat="43.52431" lon="5.72903">
        <ele>398.6</ele>
        <time>2014-03-30T08:23:07Z</time>
      </trkpt>
      <trkpt lat="43.52444" lon="5.72909">
        <ele>399.08</ele>
        <time>2014-03-30T08:23:20Z</time>
      </trkpt>
      <trkpt lat="43.52457" lon="5.72916">
        <ele>401.01</ele>
        <time>2014-03-30T08:23:35Z</time>
      </trkpt>
      <trkpt lat="43.52461" lon="5.72917">
        <ele>402.93</ele>
        <time>2014-03-30T08:23:41Z</time>
      </trkpt>
      <trkpt lat="43.52471" lon="5.72918">
        <ele>405.33</ele>
        <time>2014-03-30T08:23:55Z</time>
      </trkpt>
      <trkpt lat="43.52475" lon="5.72919">
        <ele>406.29</ele>
        <time>2014-03-30T08:23:59Z</time>
      </trkpt>
      <trkpt lat="43.52488" lon="5.72923">
        <ele>408.22</ele>
        <time>2014-03-30T08:24:13Z</time>
      </trkpt>
      <trkpt lat="43.52496" lon="5.72924">
        <ele>409.18</ele>
        <time>2014-03-30T08:24:23Z</time>
      </trkpt>
      <trkpt lat="43.525" lon="5.72924">
        <ele>409.66</ele>
        <time>2014-03-30T08:24:27Z</time>
      </trkpt>
      <trkpt lat="43.52505" lon="5.72923">
        <ele>410.62</ele>
        <time>2014-03-30T08:24:32Z</time>
      </trkpt>
      <trkpt lat="43.52518" lon="5.72924">
        <ele>411.58</ele>
        <time>2014-03-30T08:24:46Z</time>
      </trkpt>
      <trkpt lat="43.52519" lon="5.72925">
        <ele>413.5</ele>
        <time>2014-03-30T08:24:58Z</time>
      </trkpt>
      <trkpt lat="43.52518" lon="5.72922">
        <ele>413.02</ele>
        <time>2014-03-30T08:25:14Z</time>
      </trkpt>
      <trkpt lat="43.52519" lon="5.72922">
        <ele>412.54</ele>
        <time>2014-03-30T08:25:33Z</time>
      </trkpt>
      <trkpt lat="43.52518" lon="5.72922">
        <ele>412.54</ele>
        <time>2014-03-30T08:25:50Z</time>
      </trkpt>
      <trkpt lat="43.52519" lon="5.72922">
        <ele>413.5</ele>
        <time>2014-03-30T08:25:55Z</time>
      </trkpt>
      <trkpt lat="43.5252" lon="5.72926">
        <ele>413.98</ele>
        <time>2014-03-30T08:26:13Z</time>
      </trkpt>
      <trkpt lat="43.52523" lon="5.72942">
        <ele>414.47</ele>
        <time>2014-03-30T08:26:28Z</time>
      </trkpt>
      <trkpt lat="43.52522" lon="5.72948">
        <ele>415.91</ele>
        <time>2014-03-30T08:26:34Z</time>
      </trkpt>
      <trkpt lat="43.52522" lon="5.72967">
        <ele>417.83</ele>
        <time>2014-03-30T08:26:48Z</time>
      </trkpt>
      <trkpt lat="43.52522" lon="5.72976">
        <ele>420.23</ele>
        <time>2014-03-30T08:26:55Z</time>
      </trkpt>
      <trkpt lat="43.52523" lon="5.72979">
        <ele>419.27</ele>
        <time>2014-03-30T08:26:57Z</time>
      </trkpt>
      <trkpt lat="43.52524" lon="5.72994">
        <ele>420.71</ele>
        <time>2014-03-30T08:27:10Z</time>
      </trkpt>
      <trkpt lat="43.52524" lon="5.73002">
        <ele>421.19</ele>
        <time>2014-03-30T08:27:16Z</time>
      </trkpt>
      <trkpt lat="43.52524" lon="5.73011">
        <ele>424.08</ele>
        <time>2014-03-30T08:27:23Z</time>
      </trkpt>
      <trkpt lat="43.52525" lon="5.73015">
        <ele>422.64</ele>
        <time>2014-03-30T08:27:27Z</time>
      </trkpt>
      <trkpt lat="43.52524" lon="5.73025">
        <ele>424.08</ele>
        <time>2014-03-30T08:27:36Z</time>
      </trkpt>
      <trkpt lat="43.52524" lon="5.73034">
        <ele>425.04</ele>
        <time>2014-03-30T08:27:42Z</time>
      </trkpt>
      <trkpt lat="43.52523" lon="5.73041">
        <ele>426</ele>
        <time>2014-03-30T08:27:48Z</time>
      </trkpt>
      <trkpt lat="43.52523" lon="5.73045">
        <ele>426.96</ele>
        <time>2014-03-30T08:27:52Z</time>
      </trkpt>
      <trkpt lat="43.52522" lon="5.73063">
        <ele>429.37</ele>
        <time>2014-03-30T08:28:07Z</time>
      </trkpt>
      <trkpt lat="43.52522" lon="5.73072">
        <ele>429.85</ele>
        <time>2014-03-30T08:28:16Z</time>
      </trkpt>
      <trkpt lat="43.52521" lon="5.73089">
        <ele>431.77</ele>
        <time>2014-03-30T08:28:29Z</time>
      </trkpt>
      <trkpt lat="43.52521" lon="5.73091">
        <ele>430.81</ele>
        <time>2014-03-30T08:28:30Z</time>
      </trkpt>
      <trkpt lat="43.52521" lon="5.73107">
        <ele>432.25</ele>
        <time>2014-03-30T08:28:44Z</time>
      </trkpt>
      <trkpt lat="43.52522" lon="5.73113">
        <ele>433.21</ele>
        <time>2014-03-30T08:28:49Z</time>
      </trkpt>
      <trkpt lat="43.52521" lon="5.73134">
        <ele>436.1</ele>
        <time>2014-03-30T08:29:03Z</time>
      </trkpt>
      <trkpt lat="43.5252" lon="5.73145">
        <ele>436.1</ele>
        <time>2014-03-30T08:29:15Z</time>
      </trkpt>
      <trkpt lat="43.52521" lon="5.73154">
        <ele>436.58</ele>
        <time>2014-03-30T08:29:23Z</time>
      </trkpt>
      <trkpt lat="43.52521" lon="5.73158">
        <ele>436.58</ele>
        <time>2014-03-30T08:29:26Z</time>
      </trkpt>
      <trkpt lat="43.52522" lon="5.7317">
        <ele>437.06</ele>
        <time>2014-03-30T08:29:34Z</time>
      </trkpt>
      <trkpt lat="43.52524" lon="5.73176">
        <ele>439.46</ele>
        <time>2014-03-30T08:29:39Z</time>
      </trkpt>
      <trkpt lat="43.52525" lon="5.73183">
        <ele>439.46</ele>
        <time>2014-03-30T08:29:44Z</time>
      </trkpt>
      <trkpt lat="43.52526" lon="5.73188">
        <ele>439.46</ele>
        <time>2014-03-30T08:29:48Z</time>
      </trkpt>
      <trkpt lat="43.52529" lon="5.73213">
        <ele>441.86</ele>
        <time>2014-03-30T08:30:05Z</time>
      </trkpt>
      <trkpt lat="43.52532" lon="5.73233">
        <ele>444.27</ele>
        <time>2014-03-30T08:30:20Z</time>
      </trkpt>
      <trkpt lat="43.52537" lon="5.73249">
        <ele>446.19</ele>
        <time>2014-03-30T08:30:33Z</time>
      </trkpt>
      <trkpt lat="43.52539" lon="5.73256">
        <ele>447.15</ele>
        <time>2014-03-30T08:30:39Z</time>
      </trkpt>
      <trkpt lat="43.52551" lon="5.73266">
        <ele>449.07</ele>
        <time>2014-03-30T08:30:53Z</time>
      </trkpt>
      <trkpt lat="43.52562" lon="5.73267">
        <ele>451.48</ele>
        <time>2014-03-30T08:31:04Z</time>
      </trkpt>
      <trkpt lat="43.52567" lon="5.73263">
        <ele>451.96</ele>
        <time>2014-03-30T08:31:11Z</time>
      </trkpt>
      <trkpt lat="43.52572" lon="5.73261">
        <ele>452.44</ele>
        <time>2014-03-30T08:31:16Z</time>
      </trkpt>
      <trkpt lat="43.52576" lon="5.73258">
        <ele>453.88</ele>
        <time>2014-03-30T08:31:20Z</time>
      </trkpt>
      <trkpt lat="43.52587" lon="5.73251">
        <ele>454.84</ele>
        <time>2014-03-30T08:31:32Z</time>
      </trkpt>
      <trkpt lat="43.52602" lon="5.73244">
        <ele>455.8</ele>
        <time>2014-03-30T08:31:46Z</time>
      </trkpt>
      <trkpt lat="43.52607" lon="5.73241">
        <ele>456.76</ele>
        <time>2014-03-30T08:31:52Z</time>
      </trkpt>
      <trkpt lat="43.5261" lon="5.73239">
        <ele>457.24</ele>
        <time>2014-03-30T08:31:55Z</time>
      </trkpt>
      <trkpt lat="43.5262" lon="5.7323">
        <ele>457.72</ele>
        <time>2014-03-30T08:32:08Z</time>
      </trkpt>
      <trkpt lat="43.52624" lon="5.73228">
        <ele>458.69</ele>
        <time>2014-03-30T08:32:20Z</time>
      </trkpt>
      <trkpt lat="43.52621" lon="5.73228">
        <ele>458.21</ele>
        <time>2014-03-30T08:32:36Z</time>
      </trkpt>
      <trkpt lat="43.52621" lon="5.73224">
        <ele>457.72</ele>
        <time>2014-03-30T08:32:49Z</time>
      </trkpt>
      <trkpt lat="43.52621" lon="5.73223">
        <ele>458.21</ele>
        <time>2014-03-30T08:33:10Z</time>
      </trkpt>
      <trkpt lat="43.52621" lon="5.73223">
        <ele>458.69</ele>
        <time>2014-03-30T08:33:37Z</time>
      </trkpt>
      <trkpt lat="43.52622" lon="5.73223">
        <ele>458.69</ele>
        <time>2014-03-30T08:33:59Z</time>
      </trkpt>
      <trkpt lat="43.52622" lon="5.73223">
        <ele>459.65</ele>
        <time>2014-03-30T08:34:20Z</time>
      </trkpt>
      <trkpt lat="43.52624" lon="5.73223">
        <ele>460.13</ele>
        <time>2014-03-30T08:34:40Z</time>
      </trkpt>
      <trkpt lat="43.52629" lon="5.73224">
        <ele>460.61</ele>
        <time>2014-03-30T08:34:45Z</time>
      </trkpt>
      <trkpt lat="43.52634" lon="5.73224">
        <ele>460.13</ele>
        <time>2014-03-30T08:34:50Z</time>
      </trkpt>
      <trkpt lat="43.5265" lon="5.73222">
        <ele>460.13</ele>
        <time>2014-03-30T08:35:05Z</time>
      </trkpt>
      <trkpt lat="43.52669" lon="5.73221">
        <ele>459.17</ele>
        <time>2014-03-30T08:35:22Z</time>
      </trkpt>
      <trkpt lat="43.52685" lon="5.73223">
        <ele>460.13</ele>
        <time>2014-03-30T08:35:36Z</time>
      </trkpt>
      <trkpt lat="43.52702" lon="5.73227">
        <ele>460.13</ele>
        <time>2014-03-30T08:35:50Z</time>
      </trkpt>
      <trkpt lat="43.52719" lon="5.73231">
        <ele>458.69</ele>
        <time>2014-03-30T08:36:04Z</time>
      </trkpt>
      <trkpt lat="43.52734" lon="5.73235">
        <ele>457.72</ele>
        <time>2014-03-30T08:36:17Z</time>
      </trkpt>
      <trkpt lat="43.5275" lon="5.73239">
        <ele>458.69</ele>
        <time>2014-03-30T08:36:30Z</time>
      </trkpt>
      <trkpt lat="43.52765" lon="5.73241">
        <ele>456.28</ele>
        <time>2014-03-30T08:36:45Z</time>
      </trkpt>
      <trkpt lat="43.5278" lon="5.73244">
        <ele>457.24</ele>
        <time>2014-03-30T08:36:59Z</time>
      </trkpt>
      <trkpt lat="43.52799" lon="5.73243">
        <ele>457.24</ele>
        <time>2014-03-30T08:37:14Z</time>
      </trkpt>
      <trkpt lat="43.52802" lon="5.73241">
        <ele>456.28</ele>
        <time>2014-03-30T08:37:18Z</time>
      </trkpt>
      <trkpt lat="43.52805" lon="5.73239">
        <ele>456.76</ele>
        <time>2014-03-30T08:37:21Z</time>
      </trkpt>
      <trkpt lat="43.52822" lon="5.73232">
        <ele>455.32</ele>
        <time>2014-03-30T08:37:35Z</time>
      </trkpt>
      <trkpt lat="43.52836" lon="5.73224">
        <ele>455.8</ele>
        <time>2014-03-30T08:37:47Z</time>
      </trkpt>
      <trkpt lat="43.52849" lon="5.73217">
        <ele>455.8</ele>
        <time>2014-03-30T08:37:59Z</time>
      </trkpt>
      <trkpt lat="43.52855" lon="5.73216">
        <ele>455.8</ele>
        <time>2014-03-30T08:38:06Z</time>
      </trkpt>
      <trkpt lat="43.52863" lon="5.73214">
        <ele>456.28</ele>
        <time>2014-03-30T08:38:12Z</time>
      </trkpt>
      <trkpt lat="43.52883" lon="5.73215">
        <ele>455.8</ele>
        <time>2014-03-30T08:38:28Z</time>
      </trkpt>
      <trkpt lat="43.52885" lon="5.73215">
        <ele>455.8</ele>
        <time>2014-03-30T08:38:30Z</time>
      </trkpt>
      <trkpt lat="43.52888" lon="5.73215">
        <ele>455.32</ele>
        <time>2014-03-30T08:38:32Z</time>
      </trkpt>
      <trkpt lat="43.52906" lon="5.73227">
        <ele>454.36</ele>
        <time>2014-03-30T08:38:48Z</time>
      </trkpt>
      <trkpt lat="43.5292" lon="5.73236">
        <ele>455.32</ele>
        <time>2014-03-30T08:39:01Z</time>
      </trkpt>
      <trkpt lat="43.52935" lon="5.73241">
        <ele>456.76</ele>
        <time>2014-03-30T08:39:14Z</time>
      </trkpt>
      <trkpt lat="43.52954" lon="5.73243">
        <ele>457.72</ele>
        <time>2014-03-30T08:39:30Z</time>
      </trkpt>
      <trkpt lat="43.52967" lon="5.73237">
        <ele>458.69</ele>
        <time>2014-03-30T08:39:41Z</time>
      </trkpt>
      <trkpt lat="43.5297" lon="5.73235">
        <ele>459.17</ele>
        <time>2014-03-30T08:39:44Z</time>
      </trkpt>
      <trkpt lat="43.52984" lon="5.73224">
        <ele>459.17</ele>
        <time>2014-03-30T08:39:57Z</time>
      </trkpt>
      <trkpt lat="43.52989" lon="5.73222">
        <ele>458.69</ele>
        <time>2014-03-30T08:40:02Z</time>
      </trkpt>
      <trkpt lat="43.52992" lon="5.73219">
        <ele>459.17</ele>
        <time>2014-03-30T08:40:05Z</time>
      </trkpt>
      <trkpt lat="43.52997" lon="5.73214">
        <ele>459.65</ele>
        <time>2014-03-30T08:40:10Z</time>
      </trkpt>
      <trkpt lat="43.53002" lon="5.7321">
        <ele>459.17</ele>
        <time>2014-03-30T08:40:16Z</time>
      </trkpt>
      <trkpt lat="43.53009" lon="5.732">
        <ele>458.69</ele>
        <time>2014-03-30T08:40:24Z</time>
      </trkpt>
      <trkpt lat="43.53019" lon="5.73176">
        <ele>459.65</ele>
        <time>2014-03-30T08:40:39Z</time>
      </trkpt>
      <trkpt lat="43.53025" lon="5.73155">
        <ele>459.65</ele>
        <time>2014-03-30T08:40:55Z</time>
      </trkpt>
      <trkpt lat="43.53032" lon="5.73126">
        <ele>460.13</ele>
        <time>2014-03-30T08:41:11Z</time>
      </trkpt>
      <trkpt lat="43.53038" lon="5.73106">
        <ele>460.13</ele>
        <time>2014-03-30T08:41:24Z</time>
      </trkpt>
      <trkpt lat="43.53041" lon="5.73096">
        <ele>460.13</ele>
        <time>2014-03-30T08:41:30Z</time>
      </trkpt>
      <trkpt lat="43.53044" lon="5.73085">
        <ele>460.61</ele>
        <time>2014-03-30T08:41:36Z</time>
      </trkpt>
      <trkpt lat="43.53048" lon="5.73073">
        <ele>460.61</ele>
        <time>2014-03-30T08:41:44Z</time>
      </trkpt>
      <trkpt lat="43.53051" lon="5.7307">
        <ele>460.61</ele>
        <time>2014-03-30T08:41:48Z</time>
      </trkpt>
      <trkpt lat="43.53059" lon="5.73047">
        <ele>460.61</ele>
        <time>2014-03-30T08:42:02Z</time>
      </trkpt>
      <trkpt lat="43.53062" lon="5.73042">
        <ele>460.61</ele>
        <time>2014-03-30T08:42:06Z</time>
      </trkpt>
      <trkpt lat="43.53071" lon="5.73022">
        <ele>461.09</ele>
        <time>2014-03-30T08:42:21Z</time>
      </trkpt>
      <trkpt lat="43.53077" lon="5.73002">
        <ele>461.09</ele>
        <time>2014-03-30T08:42:34Z</time>
      </trkpt>
      <trkpt lat="43.53079" lon="5.72998">
        <ele>461.09</ele>
        <time>2014-03-30T08:42:37Z</time>
      </trkpt>
      <trkpt lat="43.53082" lon="5.72991">
        <ele>461.09</ele>
        <time>2014-03-30T08:42:42Z</time>
      </trkpt>
      <trkpt lat="43.53088" lon="5.72971">
        <ele>461.57</ele>
        <time>2014-03-30T08:42:55Z</time>
      </trkpt>
      <trkpt lat="43.5309" lon="5.72969">
        <ele>462.05</ele>
        <time>2014-03-30T08:42:57Z</time>
      </trkpt>
      <trkpt lat="43.53091" lon="5.72965">
        <ele>461.57</ele>
        <time>2014-03-30T08:43:00Z</time>
      </trkpt>
      <trkpt lat="43.53094" lon="5.72959">
        <ele>462.05</ele>
        <time>2014-03-30T08:43:06Z</time>
      </trkpt>
      <trkpt lat="43.53095" lon="5.72952">
        <ele>462.05</ele>
        <time>2014-03-30T08:43:10Z</time>
      </trkpt>
      <trkpt lat="43.53096" lon="5.72929">
        <ele>462.05</ele>
        <time>2014-03-30T08:43:23Z</time>
      </trkpt>
      <trkpt lat="43.53098" lon="5.72909">
        <ele>462.53</ele>
        <time>2014-03-30T08:43:35Z</time>
      </trkpt>
      <trkpt lat="43.53098" lon="5.72887">
        <ele>462.53</ele>
        <time>2014-03-30T08:43:47Z</time>
      </trkpt>
      <trkpt lat="43.53099" lon="5.72862">
        <ele>463.01</ele>
        <time>2014-03-30T08:44:02Z</time>
      </trkpt>
      <trkpt lat="43.53101" lon="5.7284">
        <ele>463.49</ele>
        <time>2014-03-30T08:44:15Z</time>
      </trkpt>
      <trkpt lat="43.53105" lon="5.7282">
        <ele>463.97</ele>
        <time>2014-03-30T08:44:27Z</time>
      </trkpt>
      <trkpt lat="43.53109" lon="5.72801">
        <ele>463.97</ele>
        <time>2014-03-30T08:44:41Z</time>
      </trkpt>
      <trkpt lat="43.53113" lon="5.72778">
        <ele>464.45</ele>
        <time>2014-03-30T08:44:56Z</time>
      </trkpt>
      <trkpt lat="43.53117" lon="5.72755">
        <ele>464.93</ele>
        <time>2014-03-30T08:45:11Z</time>
      </trkpt>
      <trkpt lat="43.53124" lon="5.7274">
        <ele>465.42</ele>
        <time>2014-03-30T08:45:22Z</time>
      </trkpt>
      <trkpt lat="43.53125" lon="5.72737">
        <ele>465.42</ele>
        <time>2014-03-30T08:45:24Z</time>
      </trkpt>
      <trkpt lat="43.53128" lon="5.72731">
        <ele>465.42</ele>
        <time>2014-03-30T08:45:29Z</time>
      </trkpt>
      <trkpt lat="43.53143" lon="5.72719">
        <ele>464.93</ele>
        <time>2014-03-30T08:45:44Z</time>
      </trkpt>
      <trkpt lat="43.53163" lon="5.72708">
        <ele>464.93</ele>
        <time>2014-03-30T08:45:59Z</time>
      </trkpt>
      <trkpt lat="43.53164" lon="5.72707">
        <ele>465.42</ele>
        <time>2014-03-30T08:46:00Z</time>
      </trkpt>
      <trkpt lat="43.53177" lon="5.72701">
        <ele>465.42</ele>
        <time>2014-03-30T08:46:14Z</time>
      </trkpt>
      <trkpt lat="43.53187" lon="5.72695">
        <ele>465.42</ele>
        <time>2014-03-30T08:46:24Z</time>
      </trkpt>
      <trkpt lat="43.53199" lon="5.72686">
        <ele>465.42</ele>
        <time>2014-03-30T08:46:37Z</time>
      </trkpt>
      <trkpt lat="43.53203" lon="5.72683">
        <ele>465.42</ele>
        <time>2014-03-30T08:46:41Z</time>
      </trkpt>
      <trkpt lat="43.5321" lon="5.72673">
        <ele>465.42</ele>
        <time>2014-03-30T08:46:49Z</time>
      </trkpt>
      <trkpt lat="43.53225" lon="5.72646">
        <ele>465.42</ele>
        <time>2014-03-30T08:47:04Z</time>
      </trkpt>
      <trkpt lat="43.53233" lon="5.72637">
        <ele>465.42</ele>
        <time>2014-03-30T08:47:12Z</time>
      </trkpt>
      <trkpt lat="43.53249" lon="5.72626">
        <ele>465.42</ele>
        <time>2014-03-30T08:47:27Z</time>
      </trkpt>
      <trkpt lat="43.53255" lon="5.72618">
        <ele>464.93</ele>
        <time>2014-03-30T08:47:34Z</time>
      </trkpt>
      <trkpt lat="43.53266" lon="5.72607">
        <ele>464.45</ele>
        <time>2014-03-30T08:47:45Z</time>
      </trkpt>
      <trkpt lat="43.53275" lon="5.72598">
        <ele>464.45</ele>
        <time>2014-03-30T08:47:55Z</time>
      </trkpt>
      <trkpt lat="43.53279" lon="5.72595">
        <ele>464.93</ele>
        <time>2014-03-30T08:47:58Z</time>
      </trkpt>
      <trkpt lat="43.53289" lon="5.72586">
        <ele>465.9</ele>
        <time>2014-03-30T08:48:09Z</time>
      </trkpt>
      <trkpt lat="43.5329" lon="5.72585">
        <ele>465.9</ele>
        <time>2014-03-30T08:48:10Z</time>
      </trkpt>
      <trkpt lat="43.53294" lon="5.72581">
        <ele>465.9</ele>
        <time>2014-03-30T08:48:14Z</time>
      </trkpt>
      <trkpt lat="43.53306" lon="5.72565">
        <ele>466.86</ele>
        <time>2014-03-30T08:48:29Z</time>
      </trkpt>
      <trkpt lat="43.53308" lon="5.72561">
        <ele>466.86</ele>
        <time>2014-03-30T08:48:32Z</time>
      </trkpt>
      <trkpt lat="43.53316" lon="5.72539">
        <ele>466.38</ele>
        <time>2014-03-30T08:48:46Z</time>
      </trkpt>
      <trkpt lat="43.5332" lon="5.72535">
        <ele>466.86</ele>
        <time>2014-03-30T08:48:51Z</time>
      </trkpt>
      <trkpt lat="43.53332" lon="5.72521">
        <ele>466.86</ele>
        <time>2014-03-30T08:49:05Z</time>
      </trkpt>
      <trkpt lat="43.53351" lon="5.72507">
        <ele>465.9</ele>
        <time>2014-03-30T08:49:20Z</time>
      </trkpt>
      <trkpt lat="43.53361" lon="5.72503">
        <ele>465.9</ele>
        <time>2014-03-30T08:49:34Z</time>
      </trkpt>
      <trkpt lat="43.53365" lon="5.725">
        <ele>465.42</ele>
        <time>2014-03-30T08:49:39Z</time>
      </trkpt>
      <trkpt lat="43.53367" lon="5.72495">
        <ele>465.42</ele>
        <time>2014-03-30T08:49:42Z</time>
      </trkpt>
      <trkpt lat="43.53371" lon="5.72493">
        <ele>465.42</ele>
        <time>2014-03-30T08:49:46Z</time>
      </trkpt>
      <trkpt lat="43.53377" lon="5.72476">
        <ele>465.42</ele>
        <time>2014-03-30T08:49:58Z</time>
      </trkpt>
      <trkpt lat="43.53382" lon="5.72449">
        <ele>466.86</ele>
        <time>2014-03-30T08:50:13Z</time>
      </trkpt>
      <trkpt lat="43.53379" lon="5.7242">
        <ele>467.34</ele>
        <time>2014-03-30T08:50:27Z</time>
      </trkpt>
      <trkpt lat="43.53374" lon="5.72401">
        <ele>467.34</ele>
        <time>2014-03-30T08:50:40Z</time>
      </trkpt>
      <trkpt lat="43.53369" lon="5.72379">
        <ele>467.82</ele>
        <time>2014-03-30T08:50:55Z</time>
      </trkpt>
      <trkpt lat="43.53368" lon="5.72373">
        <ele>467.82</ele>
        <time>2014-03-30T08:51:00Z</time>
      </trkpt>
      <trkpt lat="43.53365" lon="5.72363">
        <ele>467.34</ele>
        <time>2014-03-30T08:51:06Z</time>
      </trkpt>
      <trkpt lat="43.53358" lon="5.72339">
        <ele>467.82</ele>
        <time>2014-03-30T08:51:20Z</time>
      </trkpt>
      <trkpt lat="43.53356" lon="5.72336">
        <ele>467.34</ele>
        <time>2014-03-30T08:51:23Z</time>
      </trkpt>
      <trkpt lat="43.53352" lon="5.72316">
        <ele>466.86</ele>
        <time>2014-03-30T08:51:38Z</time>
      </trkpt>
      <trkpt lat="43.53342" lon="5.72293">
        <ele>466.86</ele>
        <time>2014-03-30T08:51:52Z</time>
      </trkpt>
      <trkpt lat="43.53337" lon="5.72275">
        <ele>467.82</ele>
        <time>2014-03-30T08:52:04Z</time>
      </trkpt>
      <trkpt lat="43.53333" lon="5.72253">
        <ele>467.82</ele>
        <time>2014-03-30T08:52:17Z</time>
      </trkpt>
      <trkpt lat="43.53331" lon="5.72234">
        <ele>468.3</ele>
        <time>2014-03-30T08:52:28Z</time>
      </trkpt>
      <trkpt lat="43.53327" lon="5.72209">
        <ele>468.78</ele>
        <time>2014-03-30T08:52:44Z</time>
      </trkpt>
      <trkpt lat="43.53323" lon="5.72187">
        <ele>469.74</ele>
        <time>2014-03-30T08:52:58Z</time>
      </trkpt>
      <trkpt lat="43.53321" lon="5.72172">
        <ele>470.22</ele>
        <time>2014-03-30T08:53:09Z</time>
      </trkpt>
      <trkpt lat="43.53321" lon="5.72153">
        <ele>470.7</ele>
        <time>2014-03-30T08:53:22Z</time>
      </trkpt>
      <trkpt lat="43.53322" lon="5.72136">
        <ele>470.7</ele>
        <time>2014-03-30T08:53:33Z</time>
      </trkpt>
      <trkpt lat="43.53322" lon="5.72133">
        <ele>471.18</ele>
        <time>2014-03-30T08:53:35Z</time>
      </trkpt>
      <trkpt lat="43.53321" lon="5.72124">
        <ele>470.7</ele>
        <time>2014-03-30T08:53:40Z</time>
      </trkpt>
      <trkpt lat="43.53319" lon="5.72104">
        <ele>470.7</ele>
        <time>2014-03-30T08:53:52Z</time>
      </trkpt>
      <trkpt lat="43.53325" lon="5.72084">
        <ele>471.66</ele>
        <time>2014-03-30T08:54:05Z</time>
      </trkpt>
      <trkpt lat="43.53327" lon="5.72074">
        <ele>471.18</ele>
        <time>2014-03-30T08:54:13Z</time>
      </trkpt>
      <trkpt lat="43.53329" lon="5.72048">
        <ele>471.18</ele>
        <time>2014-03-30T08:54:27Z</time>
      </trkpt>
      <trkpt lat="43.53333" lon="5.72027">
        <ele>471.18</ele>
        <time>2014-03-30T08:54:41Z</time>
      </trkpt>
      <trkpt lat="43.53336" lon="5.72006">
        <ele>471.18</ele>
        <time>2014-03-30T08:54:54Z</time>
      </trkpt>
      <trkpt lat="43.53339" lon="5.71989">
        <ele>471.66</ele>
        <time>2014-03-30T08:55:07Z</time>
      </trkpt>
      <trkpt lat="43.53343" lon="5.71969">
        <ele>472.63</ele>
        <time>2014-03-30T08:55:19Z</time>
      </trkpt>
      <trkpt lat="43.53346" lon="5.71947">
        <ele>472.14</ele>
        <time>2014-03-30T08:55:31Z</time>
      </trkpt>
      <trkpt lat="43.5335" lon="5.71935">
        <ele>473.11</ele>
        <time>2014-03-30T08:55:43Z</time>
      </trkpt>
      <trkpt lat="43.53352" lon="5.7193">
        <ele>473.59</ele>
        <time>2014-03-30T08:55:48Z</time>
      </trkpt>
      <trkpt lat="43.53359" lon="5.71906">
        <ele>472.14</ele>
        <time>2014-03-30T08:56:01Z</time>
      </trkpt>
      <trkpt lat="43.53361" lon="5.71901">
        <ele>472.14</ele>
        <time>2014-03-30T08:56:04Z</time>
      </trkpt>
      <trkpt lat="43.53365" lon="5.71893">
        <ele>473.11</ele>
        <time>2014-03-30T08:56:12Z</time>
      </trkpt>
      <trkpt lat="43.53371" lon="5.71882">
        <ele>473.59</ele>
        <time>2014-03-30T08:56:20Z</time>
      </trkpt>
      <trkpt lat="43.53375" lon="5.71875">
        <ele>472.63</ele>
        <time>2014-03-30T08:56:25Z</time>
      </trkpt>
      <trkpt lat="43.53379" lon="5.71869">
        <ele>472.63</ele>
        <time>2014-03-30T08:56:31Z</time>
      </trkpt>
      <trkpt lat="43.53387" lon="5.71851">
        <ele>472.63</ele>
        <time>2014-03-30T08:56:44Z</time>
      </trkpt>
      <trkpt lat="43.53389" lon="5.71849">
        <ele>472.63</ele>
        <time>2014-03-30T08:56:46Z</time>
      </trkpt>
      <trkpt lat="43.534" lon="5.71826">
        <ele>473.59</ele>
        <time>2014-03-30T08:57:00Z</time>
      </trkpt>
      <trkpt lat="43.53402" lon="5.71823">
        <ele>473.59</ele>
        <time>2014-03-30T08:57:02Z</time>
      </trkpt>
      <trkpt lat="43.53411" lon="5.71807">
        <ele>474.07</ele>
        <time>2014-03-30T08:57:15Z</time>
      </trkpt>
      <trkpt lat="43.53414" lon="5.71789">
        <ele>474.55</ele>
        <time>2014-03-30T08:57:23Z</time>
      </trkpt>
      <trkpt lat="43.53415" lon="5.71783">
        <ele>474.55</ele>
        <time>2014-03-30T08:57:27Z</time>
      </trkpt>
      <trkpt lat="43.53416" lon="5.7178">
        <ele>474.55</ele>
        <time>2014-03-30T08:57:29Z</time>
      </trkpt>
      <trkpt lat="43.53424" lon="5.71761">
        <ele>475.03</ele>
        <time>2014-03-30T08:57:43Z</time>
      </trkpt>
      <trkpt lat="43.53428" lon="5.71749">
        <ele>475.51</ele>
        <time>2014-03-30T08:57:53Z</time>
      </trkpt>
      <trkpt lat="43.5343" lon="5.71745">
        <ele>475.51</ele>
        <time>2014-03-30T08:57:56Z</time>
      </trkpt>
      <trkpt lat="43.53439" lon="5.71731">
        <ele>475.99</ele>
        <time>2014-03-30T08:58:08Z</time>
      </trkpt>
      <trkpt lat="43.53448" lon="5.71711">
        <ele>475.51</ele>
        <time>2014-03-30T08:58:22Z</time>
      </trkpt>
      <trkpt lat="43.53459" lon="5.71695">
        <ele>476.95</ele>
        <time>2014-03-30T08:58:34Z</time>
      </trkpt>
      <trkpt lat="43.53466" lon="5.71685">
        <ele>476.95</ele>
        <time>2014-03-30T08:58:45Z</time>
      </trkpt>
      <trkpt lat="43.53477" lon="5.71677">
        <ele>476.95</ele>
        <time>2014-03-30T08:58:55Z</time>
      </trkpt>
      <trkpt lat="43.53492" lon="5.71667">
        <ele>477.91</ele>
        <time>2014-03-30T08:59:09Z</time>
      </trkpt>
      <trkpt lat="43.53503" lon="5.71657">
        <ele>478.39</ele>
        <time>2014-03-30T08:59:22Z</time>
      </trkpt>
      <trkpt lat="43.53511" lon="5.7165">
        <ele>478.87</ele>
        <time>2014-03-30T08:59:32Z</time>
      </trkpt>
      <trkpt lat="43.53516" lon="5.71646">
        <ele>478.87</ele>
        <time>2014-03-30T08:59:37Z</time>
      </trkpt>
      <trkpt lat="43.5353" lon="5.7163">
        <ele>479.35</ele>
        <time>2014-03-30T08:59:51Z</time>
      </trkpt>
      <trkpt lat="43.53534" lon="5.71628">
        <ele>479.35</ele>
        <time>2014-03-30T08:59:56Z</time>
      </trkpt>
      <trkpt lat="43.53542" lon="5.71621">
        <ele>479.84</ele>
        <time>2014-03-30T09:00:04Z</time>
      </trkpt>
      <trkpt lat="43.53558" lon="5.71606">
        <ele>480.8</ele>
        <time>2014-03-30T09:00:21Z</time>
      </trkpt>
      <trkpt lat="43.53573" lon="5.71596">
        <ele>480.8</ele>
        <time>2014-03-30T09:00:34Z</time>
      </trkpt>
      <trkpt lat="43.53578" lon="5.71593">
        <ele>480.8</ele>
        <time>2014-03-30T09:00:40Z</time>
      </trkpt>
      <trkpt lat="43.53581" lon="5.71591">
        <ele>480.8</ele>
        <time>2014-03-30T09:00:42Z</time>
      </trkpt>
      <trkpt lat="43.53584" lon="5.7159">
        <ele>481.28</ele>
        <time>2014-03-30T09:00:45Z</time>
      </trkpt>
      <trkpt lat="43.5359" lon="5.71586">
        <ele>481.28</ele>
        <time>2014-03-30T09:00:51Z</time>
      </trkpt>
      <trkpt lat="43.53604" lon="5.71578">
        <ele>482.24</ele>
        <time>2014-03-30T09:01:06Z</time>
      </trkpt>
      <trkpt lat="43.53619" lon="5.71573">
        <ele>483.2</ele>
        <time>2014-03-30T09:01:20Z</time>
      </trkpt>
      <trkpt lat="43.53622" lon="5.71572">
        <ele>483.2</ele>
        <time>2014-03-30T09:01:23Z</time>
      </trkpt>
      <trkpt lat="43.53628" lon="5.71572">
        <ele>484.16</ele>
        <time>2014-03-30T09:01:27Z</time>
      </trkpt>
      <trkpt lat="43.53634" lon="5.71572">
        <ele>484.64</ele>
        <time>2014-03-30T09:01:32Z</time>
      </trkpt>
      <trkpt lat="43.53652" lon="5.71567">
        <ele>486.08</ele>
        <time>2014-03-30T09:01:50Z</time>
      </trkpt>
      <trkpt lat="43.53665" lon="5.71567">
        <ele>486.56</ele>
        <time>2014-03-30T09:02:04Z</time>
      </trkpt>
      <trkpt lat="43.5367" lon="5.71564">
        <ele>487.53</ele>
        <time>2014-03-30T09:02:10Z</time>
      </trkpt>
      <trkpt lat="43.53679" lon="5.71562">
        <ele>488.01</ele>
        <time>2014-03-30T09:02:25Z</time>
      </trkpt>
      <trkpt lat="43.5369" lon="5.71564">
        <ele>488.97</ele>
        <time>2014-03-30T09:02:41Z</time>
      </trkpt>
      <trkpt lat="43.53705" lon="5.71564">
        <ele>489.93</ele>
        <time>2014-03-30T09:02:56Z</time>
      </trkpt>
      <trkpt lat="43.53717" lon="5.71563">
        <ele>490.89</ele>
        <time>2014-03-30T09:03:08Z</time>
      </trkpt>
      <trkpt lat="43.53732" lon="5.71573">
        <ele>491.85</ele>
        <time>2014-03-30T09:03:21Z</time>
      </trkpt>
      <trkpt lat="43.53747" lon="5.71574">
        <ele>493.77</ele>
        <time>2014-03-30T09:03:35Z</time>
      </trkpt>
      <trkpt lat="43.53755" lon="5.7157">
        <ele>493.77</ele>
        <time>2014-03-30T09:03:42Z</time>
      </trkpt>
      <trkpt lat="43.53772" lon="5.71566">
        <ele>495.22</ele>
        <time>2014-03-30T09:03:57Z</time>
      </trkpt>
      <trkpt lat="43.53775" lon="5.71565">
        <ele>495.7</ele>
        <time>2014-03-30T09:04:10Z</time>
      </trkpt>
      <trkpt lat="43.53777" lon="5.71566">
        <ele>495.7</ele>
        <time>2014-03-30T09:04:12Z</time>
      </trkpt>
      <trkpt lat="43.5379" lon="5.71563">
        <ele>496.66</ele>
        <time>2014-03-30T09:04:22Z</time>
      </trkpt>
      <trkpt lat="43.53797" lon="5.71564">
        <ele>497.14</ele>
        <time>2014-03-30T09:04:27Z</time>
      </trkpt>
      <trkpt lat="43.538" lon="5.71564">
        <ele>497.14</ele>
        <time>2014-03-30T09:04:29Z</time>
      </trkpt>
      <trkpt lat="43.53807" lon="5.71563">
        <ele>498.1</ele>
        <time>2014-03-30T09:04:35Z</time>
      </trkpt>
      <trkpt lat="43.53826" lon="5.71559">
        <ele>499.54</ele>
        <time>2014-03-30T09:04:51Z</time>
      </trkpt>
      <trkpt lat="43.53844" lon="5.71556">
        <ele>500.5</ele>
        <time>2014-03-30T09:05:05Z</time>
      </trkpt>
      <trkpt lat="43.53849" lon="5.71556">
        <ele>500.5</ele>
        <time>2014-03-30T09:05:10Z</time>
      </trkpt>
      <trkpt lat="43.53871" lon="5.71553">
        <ele>502.43</ele>
        <time>2014-03-30T09:05:26Z</time>
      </trkpt>
      <trkpt lat="43.53881" lon="5.71552">
        <ele>502.91</ele>
        <time>2014-03-30T09:05:33Z</time>
      </trkpt>
      <trkpt lat="43.53885" lon="5.71552">
        <ele>503.39</ele>
        <time>2014-03-30T09:05:37Z</time>
      </trkpt>
      <trkpt lat="43.53889" lon="5.71549">
        <ele>503.87</ele>
        <time>2014-03-30T09:05:41Z</time>
      </trkpt>
      <trkpt lat="43.53907" lon="5.71546">
        <ele>505.31</ele>
        <time>2014-03-30T09:05:57Z</time>
      </trkpt>
      <trkpt lat="43.53916" lon="5.71545">
        <ele>506.27</ele>
        <time>2014-03-30T09:06:05Z</time>
      </trkpt>
      <trkpt lat="43.53923" lon="5.71546">
        <ele>506.75</ele>
        <time>2014-03-30T09:06:10Z</time>
      </trkpt>
      <trkpt lat="43.53942" lon="5.71543">
        <ele>508.67</ele>
        <time>2014-03-30T09:06:24Z</time>
      </trkpt>
      <trkpt lat="43.53955" lon="5.71549">
        <ele>510.6</ele>
        <time>2014-03-30T09:06:36Z</time>
      </trkpt>
      <trkpt lat="43.53954" lon="5.71549">
        <ele>509.64</ele>
        <time>2014-03-30T09:06:54Z</time>
      </trkpt>
      <trkpt lat="43.53954" lon="5.71548">
        <ele>510.6</ele>
        <time>2014-03-30T09:07:08Z</time>
      </trkpt>
      <trkpt lat="43.53954" lon="5.71548">
        <ele>510.12</ele>
        <time>2014-03-30T09:07:28Z</time>
      </trkpt>
      <trkpt lat="43.53954" lon="5.71549">
        <ele>509.64</ele>
        <time>2014-03-30T09:07:53Z</time>
      </trkpt>
      <trkpt lat="43.53953" lon="5.71549">
        <ele>509.64</ele>
        <time>2014-03-30T09:08:17Z</time>
      </trkpt>
      <trkpt lat="43.53953" lon="5.71548">
        <ele>508.67</ele>
        <time>2014-03-30T09:08:36Z</time>
      </trkpt>
      <trkpt lat="43.53953" lon="5.71547">
        <ele>510.12</ele>
        <time>2014-03-30T09:08:57Z</time>
      </trkpt>
      <trkpt lat="43.53953" lon="5.71547">
        <ele>510.12</ele>
        <time>2014-03-30T09:09:11Z</time>
      </trkpt>
      <trkpt lat="43.53953" lon="5.71547">
        <ele>509.64</ele>
        <time>2014-03-30T09:09:31Z</time>
      </trkpt>
      <trkpt lat="43.53953" lon="5.71548">
        <ele>510.6</ele>
        <time>2014-03-30T09:09:53Z</time>
      </trkpt>
      <trkpt lat="43.53953" lon="5.71548">
        <ele>510.6</ele>
        <time>2014-03-30T09:10:14Z</time>
      </trkpt>
      <trkpt lat="43.53953" lon="5.71548">
        <ele>511.08</ele>
        <time>2014-03-30T09:10:40Z</time>
      </trkpt>
      <trkpt lat="43.53953" lon="5.71548">
        <ele>510.12</ele>
        <time>2014-03-30T09:11:06Z</time>
      </trkpt>
      <trkpt lat="43.53953" lon="5.71548">
        <ele>511.08</ele>
        <time>2014-03-30T09:11:35Z</time>
      </trkpt>
      <trkpt lat="43.53953" lon="5.71547">
        <ele>510.12</ele>
        <time>2014-03-30T09:11:52Z</time>
      </trkpt>
      <trkpt lat="43.53953" lon="5.71546">
        <ele>510.6</ele>
        <time>2014-03-30T09:12:16Z</time>
      </trkpt>
      <trkpt lat="43.53953" lon="5.71546">
        <ele>510.6</ele>
        <time>2014-03-30T09:12:39Z</time>
      </trkpt>
      <trkpt lat="43.53953" lon="5.71546">
        <ele>511.08</ele>
        <time>2014-03-30T09:13:10Z</time>
      </trkpt>
      <trkpt lat="43.53952" lon="5.71547">
        <ele>511.08</ele>
        <time>2014-03-30T09:13:39Z</time>
      </trkpt>
      <trkpt lat="43.53952" lon="5.71547">
        <ele>510.6</ele>
        <time>2014-03-30T09:14:02Z</time>
      </trkpt>
      <trkpt lat="43.53953" lon="5.71546">
        <ele>511.08</ele>
        <time>2014-03-30T09:14:21Z</time>
      </trkpt>
      <trkpt lat="43.53953" lon="5.71546">
        <ele>511.56</ele>
        <time>2014-03-30T09:14:41Z</time>
      </trkpt>
      <trkpt lat="43.53952" lon="5.71542">
        <ele>511.08</ele>
        <time>2014-03-30T09:15:09Z</time>
      </trkpt>
      <trkpt lat="43.53955" lon="5.71542">
        <ele>511.56</ele>
        <time>2014-03-30T09:15:26Z</time>
      </trkpt>
      <trkpt lat="43.5396" lon="5.71529">
        <ele>512.04</ele>
        <time>2014-03-30T09:15:43Z</time>
      </trkpt>
      <trkpt lat="43.53966" lon="5.71512">
        <ele>513.48</ele>
        <time>2014-03-30T09:15:58Z</time>
      </trkpt>
      <trkpt lat="43.53971" lon="5.71502">
        <ele>513.48</ele>
        <time>2014-03-30T09:16:12Z</time>
      </trkpt>
      <trkpt lat="43.53981" lon="5.71495">
        <ele>513.96</ele>
        <time>2014-03-30T09:16:27Z</time>
      </trkpt>
      <trkpt lat="43.53981" lon="5.71484">
        <ele>514.92</ele>
        <time>2014-03-30T09:16:38Z</time>
      </trkpt>
      <trkpt lat="43.53982" lon="5.71477">
        <ele>514.44</ele>
        <time>2014-03-30T09:16:42Z</time>
      </trkpt>
      <trkpt lat="43.53988" lon="5.71459">
        <ele>515.4</ele>
        <time>2014-03-30T09:16:57Z</time>
      </trkpt>
      <trkpt lat="43.53995" lon="5.71449">
        <ele>516.85</ele>
        <time>2014-03-30T09:17:11Z</time>
      </trkpt>
      <trkpt lat="43.54006" lon="5.71434">
        <ele>517.81</ele>
        <time>2014-03-30T09:17:31Z</time>
      </trkpt>
      <trkpt lat="43.54013" lon="5.71417">
        <ele>519.73</ele>
        <time>2014-03-30T09:17:47Z</time>
      </trkpt>
      <trkpt lat="43.54018" lon="5.71406">
        <ele>520.69</ele>
        <time>2014-03-30T09:18:02Z</time>
      </trkpt>
      <trkpt lat="43.54028" lon="5.71393">
        <ele>523.09</ele>
        <time>2014-03-30T09:18:18Z</time>
      </trkpt>
      <trkpt lat="43.54031" lon="5.71386">
        <ele>523.58</ele>
        <time>2014-03-30T09:18:24Z</time>
      </trkpt>
      <trkpt lat="43.54038" lon="5.71367">
        <ele>525.98</ele>
        <time>2014-03-30T09:18:41Z</time>
      </trkpt>
      <trkpt lat="43.54048" lon="5.7135">
        <ele>526.94</ele>
        <time>2014-03-30T09:18:58Z</time>
      </trkpt>
      <trkpt lat="43.54054" lon="5.71332">
        <ele>529.34</ele>
        <time>2014-03-30T09:19:14Z</time>
      </trkpt>
      <trkpt lat="43.54052" lon="5.71324">
        <ele>529.34</ele>
        <time>2014-03-30T09:19:21Z</time>
      </trkpt>
      <trkpt lat="43.54052" lon="5.71305">
        <ele>530.79</ele>
        <time>2014-03-30T09:19:35Z</time>
      </trkpt>
      <trkpt lat="43.54051" lon="5.71299">
        <ele>530.3</ele>
        <time>2014-03-30T09:19:38Z</time>
      </trkpt>
      <trkpt lat="43.54057" lon="5.71278">
        <ele>531.75</ele>
        <time>2014-03-30T09:19:56Z</time>
      </trkpt>
      <trkpt lat="43.54058" lon="5.71265">
        <ele>531.75</ele>
        <time>2014-03-30T09:20:05Z</time>
      </trkpt>
      <trkpt lat="43.54047" lon="5.71242">
        <ele>532.71</ele>
        <time>2014-03-30T09:20:24Z</time>
      </trkpt>
      <trkpt lat="43.54041" lon="5.71229">
        <ele>532.23</ele>
        <time>2014-03-30T09:20:36Z</time>
      </trkpt>
      <trkpt lat="43.5404" lon="5.71226">
        <ele>532.71</ele>
        <time>2014-03-30T09:20:38Z</time>
      </trkpt>
      <trkpt lat="43.54038" lon="5.71208">
        <ele>533.67</ele>
        <time>2014-03-30T09:20:53Z</time>
      </trkpt>
      <trkpt lat="43.5404" lon="5.71194">
        <ele>537.03</ele>
        <time>2014-03-30T09:21:05Z</time>
      </trkpt>
      <trkpt lat="43.5404" lon="5.71193">
        <ele>537.03</ele>
        <time>2014-03-30T09:21:06Z</time>
      </trkpt>
      <trkpt lat="43.54043" lon="5.71182">
        <ele>537.51</ele>
        <time>2014-03-30T09:21:18Z</time>
      </trkpt>
      <trkpt lat="43.54043" lon="5.71172">
        <ele>537.99</ele>
        <time>2014-03-30T09:21:27Z</time>
      </trkpt>
      <trkpt lat="43.5404" lon="5.7115">
        <ele>538.96</ele>
        <time>2014-03-30T09:21:42Z</time>
      </trkpt>
      <trkpt lat="43.54042" lon="5.71139">
        <ele>540.88</ele>
        <time>2014-03-30T09:21:52Z</time>
      </trkpt>
      <trkpt lat="43.54046" lon="5.71125">
        <ele>542.8</ele>
        <time>2014-03-30T09:22:06Z</time>
      </trkpt>
      <trkpt lat="43.54047" lon="5.7111">
        <ele>542.8</ele>
        <time>2014-03-30T09:22:18Z</time>
      </trkpt>
      <trkpt lat="43.54034" lon="5.71096">
        <ele>543.76</ele>
        <time>2014-03-30T09:22:35Z</time>
      </trkpt>
      <trkpt lat="43.54023" lon="5.7109">
        <ele>542.8</ele>
        <time>2014-03-30T09:22:51Z</time>
      </trkpt>
      <trkpt lat="43.5402" lon="5.71081">
        <ele>544.72</ele>
        <time>2014-03-30T09:23:06Z</time>
      </trkpt>
      <trkpt lat="43.54017" lon="5.71061">
        <ele>546.65</ele>
        <time>2014-03-30T09:23:19Z</time>
      </trkpt>
      <trkpt lat="43.54007" lon="5.71046">
        <ele>547.61</ele>
        <time>2014-03-30T09:23:34Z</time>
      </trkpt>
      <trkpt lat="43.53998" lon="5.7103">
        <ele>549.05</ele>
        <time>2014-03-30T09:23:49Z</time>
      </trkpt>
      <trkpt lat="43.53989" lon="5.71022">
        <ele>550.01</ele>
        <time>2014-03-30T09:24:03Z</time>
      </trkpt>
      <trkpt lat="43.53982" lon="5.71017">
        <ele>550.49</ele>
        <time>2014-03-30T09:24:16Z</time>
      </trkpt>
      <trkpt lat="43.53971" lon="5.71014">
        <ele>551.93</ele>
        <time>2014-03-30T09:24:32Z</time>
      </trkpt>
      <trkpt lat="43.53962" lon="5.71003">
        <ele>553.86</ele>
        <time>2014-03-30T09:24:48Z</time>
      </trkpt>
      <trkpt lat="43.53952" lon="5.70991">
        <ele>554.82</ele>
        <time>2014-03-30T09:25:04Z</time>
      </trkpt>
      <trkpt lat="43.53945" lon="5.70989">
        <ele>554.34</ele>
        <time>2014-03-30T09:25:12Z</time>
      </trkpt>
      <trkpt lat="43.53934" lon="5.70984">
        <ele>554.82</ele>
        <time>2014-03-30T09:25:26Z</time>
      </trkpt>
      <trkpt lat="43.53928" lon="5.70972">
        <ele>553.86</ele>
        <time>2014-03-30T09:25:41Z</time>
      </trkpt>
      <trkpt lat="43.53918" lon="5.70966">
        <ele>553.86</ele>
        <time>2014-03-30T09:25:53Z</time>
      </trkpt>
      <trkpt lat="43.53906" lon="5.70953">
        <ele>551.93</ele>
        <time>2014-03-30T09:26:09Z</time>
      </trkpt>
      <trkpt lat="43.53898" lon="5.70951">
        <ele>551.45</ele>
        <time>2014-03-30T09:26:22Z</time>
      </trkpt>
      <trkpt lat="43.53894" lon="5.70935">
        <ele>550.01</ele>
        <time>2014-03-30T09:26:37Z</time>
      </trkpt>
      <trkpt lat="43.53884" lon="5.70927">
        <ele>549.05</ele>
        <time>2014-03-30T09:26:50Z</time>
      </trkpt>
      <trkpt lat="43.53884" lon="5.7091">
        <ele>547.61</ele>
        <time>2014-03-30T09:27:06Z</time>
      </trkpt>
      <trkpt lat="43.53882" lon="5.70895">
        <ele>546.65</ele>
        <time>2014-03-30T09:27:21Z</time>
      </trkpt>
      <trkpt lat="43.53877" lon="5.70879">
        <ele>546.17</ele>
        <time>2014-03-30T09:27:34Z</time>
      </trkpt>
      <trkpt lat="43.53873" lon="5.70869">
        <ele>545.69</ele>
        <time>2014-03-30T09:27:42Z</time>
      </trkpt>
      <trkpt lat="43.5387" lon="5.70846">
        <ele>545.69</ele>
        <time>2014-03-30T09:27:59Z</time>
      </trkpt>
      <trkpt lat="43.5387" lon="5.7083">
        <ele>546.65</ele>
        <time>2014-03-30T09:28:12Z</time>
      </trkpt>
      <trkpt lat="43.53872" lon="5.70815">
        <ele>546.65</ele>
        <time>2014-03-30T09:28:25Z</time>
      </trkpt>
      <trkpt lat="43.5387" lon="5.70801">
        <ele>547.13</ele>
        <time>2014-03-30T09:28:37Z</time>
      </trkpt>
      <trkpt lat="43.53868" lon="5.70787">
        <ele>548.09</ele>
        <time>2014-03-30T09:28:52Z</time>
      </trkpt>
      <trkpt lat="43.53867" lon="5.70773">
        <ele>549.53</ele>
        <time>2014-03-30T09:29:05Z</time>
      </trkpt>
      <trkpt lat="43.53868" lon="5.70756">
        <ele>550.01</ele>
        <time>2014-03-30T09:29:20Z</time>
      </trkpt>
      <trkpt lat="43.53864" lon="5.70738">
        <ele>551.93</ele>
        <time>2014-03-30T09:29:36Z</time>
      </trkpt>
      <trkpt lat="43.53862" lon="5.70723">
        <ele>552.9</ele>
        <time>2014-03-30T09:29:47Z</time>
      </trkpt>
      <trkpt lat="43.53865" lon="5.70716">
        <ele>553.38</ele>
        <time>2014-03-30T09:29:53Z</time>
      </trkpt>
      <trkpt lat="43.53869" lon="5.70698">
        <ele>554.82</ele>
        <time>2014-03-30T09:30:06Z</time>
      </trkpt>
      <trkpt lat="43.53865" lon="5.70682">
        <ele>556.74</ele>
        <time>2014-03-30T09:30:18Z</time>
      </trkpt>
      <trkpt lat="43.53865" lon="5.70678">
        <ele>555.3</ele>
        <time>2014-03-30T09:30:22Z</time>
      </trkpt>
      <trkpt lat="43.53863" lon="5.7066">
        <ele>557.22</ele>
        <time>2014-03-30T09:30:35Z</time>
      </trkpt>
      <trkpt lat="43.53863" lon="5.70646">
        <ele>557.7</ele>
        <time>2014-03-30T09:30:49Z</time>
      </trkpt>
      <trkpt lat="43.5386" lon="5.70629">
        <ele>558.66</ele>
        <time>2014-03-30T09:31:04Z</time>
      </trkpt>
      <trkpt lat="43.53862" lon="5.70623">
        <ele>559.14</ele>
        <time>2014-03-30T09:31:09Z</time>
      </trkpt>
      <trkpt lat="43.5386" lon="5.70605">
        <ele>558.66</ele>
        <time>2014-03-30T09:31:24Z</time>
      </trkpt>
      <trkpt lat="43.53854" lon="5.70584">
        <ele>557.22</ele>
        <time>2014-03-30T09:31:39Z</time>
      </trkpt>
      <trkpt lat="43.53848" lon="5.70566">
        <ele>555.3</ele>
        <time>2014-03-30T09:31:54Z</time>
      </trkpt>
      <trkpt lat="43.53848" lon="5.70564">
        <ele>554.82</ele>
        <time>2014-03-30T09:31:55Z</time>
      </trkpt>
      <trkpt lat="43.53845" lon="5.70546">
        <ele>553.86</ele>
        <time>2014-03-30T09:32:09Z</time>
      </trkpt>
      <trkpt lat="43.53838" lon="5.70533">
        <ele>552.9</ele>
        <time>2014-03-30T09:32:22Z</time>
      </trkpt>
      <trkpt lat="43.53837" lon="5.70517">
        <ele>551.45</ele>
        <time>2014-03-30T09:32:37Z</time>
      </trkpt>
      <trkpt lat="43.5383" lon="5.70499">
        <ele>548.57</ele>
        <time>2014-03-30T09:32:56Z</time>
      </trkpt>
      <trkpt lat="43.53827" lon="5.70495">
        <ele>547.13</ele>
        <time>2014-03-30T09:33:07Z</time>
      </trkpt>
      <trkpt lat="43.53816" lon="5.70487">
        <ele>545.69</ele>
        <time>2014-03-30T09:33:14Z</time>
      </trkpt>
      <trkpt lat="43.53804" lon="5.70469">
        <ele>542.8</ele>
        <time>2014-03-30T09:33:31Z</time>
      </trkpt>
      <trkpt lat="43.53805" lon="5.70458">
        <ele>542.8</ele>
        <time>2014-03-30T09:33:41Z</time>
      </trkpt>
      <trkpt lat="43.53816" lon="5.70437">
        <ele>544.24</ele>
        <time>2014-03-30T09:33:58Z</time>
      </trkpt>
      <trkpt lat="43.53823" lon="5.70425">
        <ele>544.72</ele>
        <time>2014-03-30T09:34:13Z</time>
      </trkpt>
      <trkpt lat="43.53819" lon="5.70407">
        <ele>543.76</ele>
        <time>2014-03-30T09:34:27Z</time>
      </trkpt>
      <trkpt lat="43.53818" lon="5.70402">
        <ele>543.28</ele>
        <time>2014-03-30T09:34:30Z</time>
      </trkpt>
      <trkpt lat="43.53816" lon="5.70381">
        <ele>543.76</ele>
        <time>2014-03-30T09:34:45Z</time>
      </trkpt>
      <trkpt lat="43.53816" lon="5.70373">
        <ele>545.69</ele>
        <time>2014-03-30T09:35:01Z</time>
      </trkpt>
      <trkpt lat="43.53809" lon="5.70368">
        <ele>546.17</ele>
        <time>2014-03-30T09:35:21Z</time>
      </trkpt>
      <trkpt lat="43.53805" lon="5.70352">
        <ele>549.05</ele>
        <time>2014-03-30T09:35:36Z</time>
      </trkpt>
      <trkpt lat="43.53802" lon="5.70342">
        <ele>551.93</ele>
        <time>2014-03-30T09:35:49Z</time>
      </trkpt>
      <trkpt lat="43.53798" lon="5.70328">
        <ele>554.34</ele>
        <time>2014-03-30T09:36:03Z</time>
      </trkpt>
      <trkpt lat="43.53797" lon="5.70323">
        <ele>554.82</ele>
        <time>2014-03-30T09:36:08Z</time>
      </trkpt>
      <trkpt lat="43.53797" lon="5.70318">
        <ele>555.78</ele>
        <time>2014-03-30T09:36:12Z</time>
      </trkpt>
      <trkpt lat="43.53793" lon="5.70306">
        <ele>558.66</ele>
        <time>2014-03-30T09:36:24Z</time>
      </trkpt>
      <trkpt lat="43.53789" lon="5.70299">
        <ele>559.62</ele>
        <time>2014-03-30T09:36:36Z</time>
      </trkpt>
      <trkpt lat="43.53787" lon="5.70291">
        <ele>561.55</ele>
        <time>2014-03-30T09:36:49Z</time>
      </trkpt>
      <trkpt lat="43.53787" lon="5.70285">
        <ele>563.47</ele>
        <time>2014-03-30T09:36:56Z</time>
      </trkpt>
      <trkpt lat="43.53787" lon="5.70275">
        <ele>565.87</ele>
        <time>2014-03-30T09:37:08Z</time>
      </trkpt>
      <trkpt lat="43.53787" lon="5.70262">
        <ele>568.76</ele>
        <time>2014-03-30T09:37:22Z</time>
      </trkpt>
      <trkpt lat="43.53786" lon="5.70249">
        <ele>572.12</ele>
        <time>2014-03-30T09:37:33Z</time>
      </trkpt>
      <trkpt lat="43.53786" lon="5.70247">
        <ele>572.12</ele>
        <time>2014-03-30T09:37:34Z</time>
      </trkpt>
      <trkpt lat="43.53785" lon="5.70246">
        <ele>570.68</ele>
        <time>2014-03-30T09:37:37Z</time>
      </trkpt>
      <trkpt lat="43.53785" lon="5.70234">
        <ele>572.12</ele>
        <time>2014-03-30T09:37:50Z</time>
      </trkpt>
      <trkpt lat="43.53783" lon="5.70214">
        <ele>574.53</ele>
        <time>2014-03-30T09:38:05Z</time>
      </trkpt>
      <trkpt lat="43.53778" lon="5.70201">
        <ele>574.04</ele>
        <time>2014-03-30T09:38:19Z</time>
      </trkpt>
      <trkpt lat="43.53777" lon="5.70191">
        <ele>575.01</ele>
        <time>2014-03-30T09:38:31Z</time>
      </trkpt>
      <trkpt lat="43.53777" lon="5.70187">
        <ele>575.97</ele>
        <time>2014-03-30T09:38:35Z</time>
      </trkpt>
      <trkpt lat="43.53776" lon="5.70167">
        <ele>577.89</ele>
        <time>2014-03-30T09:38:50Z</time>
      </trkpt>
      <trkpt lat="43.53777" lon="5.7016">
        <ele>577.89</ele>
        <time>2014-03-30T09:38:59Z</time>
      </trkpt>
      <trkpt lat="43.53779" lon="5.70148">
        <ele>577.41</ele>
        <time>2014-03-30T09:39:12Z</time>
      </trkpt>
      <trkpt lat="43.53774" lon="5.70132">
        <ele>577.89</ele>
        <time>2014-03-30T09:39:28Z</time>
      </trkpt>
      <trkpt lat="43.5377" lon="5.70117">
        <ele>576.93</ele>
        <time>2014-03-30T09:39:43Z</time>
      </trkpt>
      <trkpt lat="43.53765" lon="5.70107">
        <ele>576.45</ele>
        <time>2014-03-30T09:39:57Z</time>
      </trkpt>
      <trkpt lat="43.5376" lon="5.70092">
        <ele>575.01</ele>
        <time>2014-03-30T09:40:11Z</time>
      </trkpt>
      <trkpt lat="43.53756" lon="5.70081">
        <ele>574.53</ele>
        <time>2014-03-30T09:40:20Z</time>
      </trkpt>
      <trkpt lat="43.53748" lon="5.70061">
        <ele>574.53</ele>
        <time>2014-03-30T09:40:35Z</time>
      </trkpt>
      <trkpt lat="43.53746" lon="5.70046">
        <ele>574.04</ele>
        <time>2014-03-30T09:40:48Z</time>
      </trkpt>
      <trkpt lat="43.5374" lon="5.70023">
        <ele>572.12</ele>
        <time>2014-03-30T09:41:04Z</time>
      </trkpt>
      <trkpt lat="43.53732" lon="5.70016">
        <ele>572.6</ele>
        <time>2014-03-30T09:41:16Z</time>
      </trkpt>
      <trkpt lat="43.53723" lon="5.70014">
        <ele>573.56</ele>
        <time>2014-03-30T09:41:28Z</time>
      </trkpt>
      <trkpt lat="43.5372" lon="5.70009">
        <ele>574.04</ele>
        <time>2014-03-30T09:41:43Z</time>
      </trkpt>
      <trkpt lat="43.53718" lon="5.70009">
        <ele>572.6</ele>
        <time>2014-03-30T09:42:06Z</time>
      </trkpt>
      <trkpt lat="43.53718" lon="5.70009">
        <ele>573.08</ele>
        <time>2014-03-30T09:42:29Z</time>
      </trkpt>
      <trkpt lat="43.53717" lon="5.70009">
        <ele>573.08</ele>
        <time>2014-03-30T09:42:50Z</time>
      </trkpt>
      <trkpt lat="43.53717" lon="5.70008">
        <ele>573.56</ele>
        <time>2014-03-30T09:43:08Z</time>
      </trkpt>
      <trkpt lat="43.53717" lon="5.70008">
        <ele>573.56</ele>
        <time>2014-03-30T09:43:33Z</time>
      </trkpt>
      <trkpt lat="43.53717" lon="5.70008">
        <ele>573.08</ele>
        <time>2014-03-30T09:43:57Z</time>
      </trkpt>
      <trkpt lat="43.53711" lon="5.69989">
        <ele>572.12</ele>
        <time>2014-03-30T09:44:13Z</time>
      </trkpt>
      <trkpt lat="43.53703" lon="5.69974">
        <ele>570.68</ele>
        <time>2014-03-30T09:44:25Z</time>
      </trkpt>
      <trkpt lat="43.53699" lon="5.69953">
        <ele>569.24</ele>
        <time>2014-03-30T09:44:39Z</time>
      </trkpt>
      <trkpt lat="43.53695" lon="5.6994">
        <ele>567.8</ele>
        <time>2014-03-30T09:44:49Z</time>
      </trkpt>
      <trkpt lat="43.53693" lon="5.6993">
        <ele>567.32</ele>
        <time>2014-03-30T09:44:55Z</time>
      </trkpt>
      <trkpt lat="43.53689" lon="5.69919">
        <ele>564.91</ele>
        <time>2014-03-30T09:45:07Z</time>
      </trkpt>
      <trkpt lat="43.53684" lon="5.69911">
        <ele>563.95</ele>
        <time>2014-03-30T09:45:14Z</time>
      </trkpt>
      <trkpt lat="43.53676" lon="5.69901">
        <ele>563.95</ele>
        <time>2014-03-30T09:45:22Z</time>
      </trkpt>
      <trkpt lat="43.53669" lon="5.6988">
        <ele>563.47</ele>
        <time>2014-03-30T09:45:35Z</time>
      </trkpt>
      <trkpt lat="43.53666" lon="5.69865">
        <ele>563.95</ele>
        <time>2014-03-30T09:45:47Z</time>
      </trkpt>
      <trkpt lat="43.53661" lon="5.69852">
        <ele>565.39</ele>
        <time>2014-03-30T09:45:58Z</time>
      </trkpt>
      <trkpt lat="43.53659" lon="5.69843">
        <ele>565.39</ele>
        <time>2014-03-30T09:46:05Z</time>
      </trkpt>
      <trkpt lat="43.53657" lon="5.69829">
        <ele>565.87</ele>
        <time>2014-03-30T09:46:15Z</time>
      </trkpt>
      <trkpt lat="43.53653" lon="5.69809">
        <ele>565.87</ele>
        <time>2014-03-30T09:46:28Z</time>
      </trkpt>
      <trkpt lat="43.53651" lon="5.69803">
        <ele>566.35</ele>
        <time>2014-03-30T09:46:32Z</time>
      </trkpt>
      <trkpt lat="43.53649" lon="5.69782">
        <ele>568.28</ele>
        <time>2014-03-30T09:46:46Z</time>
      </trkpt>
      <trkpt lat="43.53649" lon="5.69781">
        <ele>568.28</ele>
        <time>2014-03-30T09:46:47Z</time>
      </trkpt>
      <trkpt lat="43.53649" lon="5.69775">
        <ele>569.24</ele>
        <time>2014-03-30T09:46:51Z</time>
      </trkpt>
      <trkpt lat="43.53643" lon="5.69758">
        <ele>570.2</ele>
        <time>2014-03-30T09:47:04Z</time>
      </trkpt>
      <trkpt lat="43.53642" lon="5.69743">
        <ele>571.16</ele>
        <time>2014-03-30T09:47:16Z</time>
      </trkpt>
      <trkpt lat="43.53644" lon="5.69733">
        <ele>572.12</ele>
        <time>2014-03-30T09:47:24Z</time>
      </trkpt>
      <trkpt lat="43.53642" lon="5.69721">
        <ele>574.04</ele>
        <time>2014-03-30T09:47:41Z</time>
      </trkpt>
      <trkpt lat="43.53642" lon="5.69718">
        <ele>574.53</ele>
        <time>2014-03-30T09:48:06Z</time>
      </trkpt>
      <trkpt lat="43.53643" lon="5.69705">
        <ele>576.45</ele>
        <time>2014-03-30T09:48:18Z</time>
      </trkpt>
      <trkpt lat="43.53642" lon="5.69694">
        <ele>578.85</ele>
        <time>2014-03-30T09:48:30Z</time>
      </trkpt>
      <trkpt lat="43.53639" lon="5.69685">
        <ele>578.37</ele>
        <time>2014-03-30T09:48:39Z</time>
      </trkpt>
      <trkpt lat="43.53636" lon="5.69677">
        <ele>580.29</ele>
        <time>2014-03-30T09:48:47Z</time>
      </trkpt>
      <trkpt lat="43.53636" lon="5.69672">
        <ele>580.77</ele>
        <time>2014-03-30T09:48:50Z</time>
      </trkpt>
      <trkpt lat="43.53634" lon="5.69656">
        <ele>583.66</ele>
        <time>2014-03-30T09:49:03Z</time>
      </trkpt>
      <trkpt lat="43.53635" lon="5.6964">
        <ele>585.1</ele>
        <time>2014-03-30T09:49:15Z</time>
      </trkpt>
      <trkpt lat="43.53636" lon="5.69638">
        <ele>586.54</ele>
        <time>2014-03-30T09:49:18Z</time>
      </trkpt>
      <trkpt lat="43.53639" lon="5.69625">
        <ele>589.91</ele>
        <time>2014-03-30T09:49:30Z</time>
      </trkpt>
      <trkpt lat="43.53639" lon="5.69622">
        <ele>588.95</ele>
        <time>2014-03-30T09:49:37Z</time>
      </trkpt>
      <trkpt lat="43.53637" lon="5.696">
        <ele>590.39</ele>
        <time>2014-03-30T09:49:50Z</time>
      </trkpt>
      <trkpt lat="43.53637" lon="5.6959">
        <ele>591.35</ele>
        <time>2014-03-30T09:49:56Z</time>
      </trkpt>
      <trkpt lat="43.53636" lon="5.69573">
        <ele>592.79</ele>
        <time>2014-03-30T09:50:09Z</time>
      </trkpt>
      <trkpt lat="43.53635" lon="5.69571">
        <ele>589.91</ele>
        <time>2014-03-30T09:50:13Z</time>
      </trkpt>
      <trkpt lat="43.53635" lon="5.69571">
        <ele>589.43</ele>
        <time>2014-03-30T09:50:14Z</time>
      </trkpt>
      <trkpt lat="43.53635" lon="5.6957">
        <ele>592.79</ele>
        <time>2014-03-30T09:50:15Z</time>
      </trkpt>
      <trkpt lat="43.53634" lon="5.69569">
        <ele>592.31</ele>
        <time>2014-03-30T09:50:16Z</time>
      </trkpt>
      <trkpt lat="43.53634" lon="5.69559">
        <ele>592.79</ele>
        <time>2014-03-30T09:50:25Z</time>
      </trkpt>
      <trkpt lat="43.53635" lon="5.69543">
        <ele>592.79</ele>
        <time>2014-03-30T09:50:38Z</time>
      </trkpt>
      <trkpt lat="43.53634" lon="5.69538">
        <ele>593.75</ele>
        <time>2014-03-30T09:50:52Z</time>
      </trkpt>
      <trkpt lat="43.53631" lon="5.6953">
        <ele>593.75</ele>
        <time>2014-03-30T09:51:04Z</time>
      </trkpt>
      <trkpt lat="43.5363" lon="5.69526">
        <ele>593.75</ele>
        <time>2014-03-30T09:51:07Z</time>
      </trkpt>
      <trkpt lat="43.5363" lon="5.69521">
        <ele>593.75</ele>
        <time>2014-03-30T09:51:11Z</time>
      </trkpt>
      <trkpt lat="43.53628" lon="5.69503">
        <ele>595.19</ele>
        <time>2014-03-30T09:51:25Z</time>
      </trkpt>
      <trkpt lat="43.5363" lon="5.69487">
        <ele>595.19</ele>
        <time>2014-03-30T09:51:39Z</time>
      </trkpt>
      <trkpt lat="43.53629" lon="5.69483">
        <ele>594.23</ele>
        <time>2014-03-30T09:51:42Z</time>
      </trkpt>
      <trkpt lat="43.53628" lon="5.69478">
        <ele>595.19</ele>
        <time>2014-03-30T09:51:45Z</time>
      </trkpt>
      <trkpt lat="43.53628" lon="5.69469">
        <ele>594.23</ele>
        <time>2014-03-30T09:51:51Z</time>
      </trkpt>
      <trkpt lat="43.53625" lon="5.69454">
        <ele>592.31</ele>
        <time>2014-03-30T09:52:05Z</time>
      </trkpt>
      <trkpt lat="43.53626" lon="5.69436">
        <ele>592.79</ele>
        <time>2014-03-30T09:52:19Z</time>
      </trkpt>
      <trkpt lat="43.5362" lon="5.69411">
        <ele>592.31</ele>
        <time>2014-03-30T09:52:33Z</time>
      </trkpt>
      <trkpt lat="43.53615" lon="5.69392">
        <ele>593.27</ele>
        <time>2014-03-30T09:52:47Z</time>
      </trkpt>
      <trkpt lat="43.53607" lon="5.69374">
        <ele>593.27</ele>
        <time>2014-03-30T09:53:04Z</time>
      </trkpt>
      <trkpt lat="43.53608" lon="5.6937">
        <ele>593.27</ele>
        <time>2014-03-30T09:53:07Z</time>
      </trkpt>
      <trkpt lat="43.53606" lon="5.69362">
        <ele>594.23</ele>
        <time>2014-03-30T09:53:13Z</time>
      </trkpt>
      <trkpt lat="43.53603" lon="5.69345">
        <ele>594.71</ele>
        <time>2014-03-30T09:53:26Z</time>
      </trkpt>
      <trkpt lat="43.53595" lon="5.6933">
        <ele>595.67</ele>
        <time>2014-03-30T09:53:41Z</time>
      </trkpt>
      <trkpt lat="43.53587" lon="5.69314">
        <ele>595.67</ele>
        <time>2014-03-30T09:53:55Z</time>
      </trkpt>
      <trkpt lat="43.53585" lon="5.69308">
        <ele>596.15</ele>
        <time>2014-03-30T09:53:59Z</time>
      </trkpt>
      <trkpt lat="43.53583" lon="5.69292">
        <ele>595.19</ele>
        <time>2014-03-30T09:54:13Z</time>
      </trkpt>
      <trkpt lat="43.5358" lon="5.69291">
        <ele>594.71</ele>
        <time>2014-03-30T09:54:16Z</time>
      </trkpt>
      <trkpt lat="43.53571" lon="5.69269">
        <ele>594.23</ele>
        <time>2014-03-30T09:54:34Z</time>
      </trkpt>
      <trkpt lat="43.53565" lon="5.69254">
        <ele>594.23</ele>
        <time>2014-03-30T09:54:45Z</time>
      </trkpt>
      <trkpt lat="43.53562" lon="5.69239">
        <ele>592.79</ele>
        <time>2014-03-30T09:54:58Z</time>
      </trkpt>
      <trkpt lat="43.53561" lon="5.69238">
        <ele>592.79</ele>
        <time>2014-03-30T09:55:00Z</time>
      </trkpt>
      <trkpt lat="43.53556" lon="5.69228">
        <ele>591.83</ele>
        <time>2014-03-30T09:55:08Z</time>
      </trkpt>
      <trkpt lat="43.53552" lon="5.69217">
        <ele>591.35</ele>
        <time>2014-03-30T09:55:24Z</time>
      </trkpt>
      <trkpt lat="43.53552" lon="5.69217">
        <ele>590.87</ele>
        <time>2014-03-30T09:55:43Z</time>
      </trkpt>
      <trkpt lat="43.53552" lon="5.69216">
        <ele>590.87</ele>
        <time>2014-03-30T09:56:04Z</time>
      </trkpt>
      <trkpt lat="43.53552" lon="5.69216">
        <ele>591.83</ele>
        <time>2014-03-30T09:56:26Z</time>
      </trkpt>
      <trkpt lat="43.53552" lon="5.69216">
        <ele>590.39</ele>
        <time>2014-03-30T09:56:39Z</time>
      </trkpt>
      <trkpt lat="43.53552" lon="5.69217">
        <ele>592.31</ele>
        <time>2014-03-30T09:57:01Z</time>
      </trkpt>
      <trkpt lat="43.53552" lon="5.69217">
        <ele>590.87</ele>
        <time>2014-03-30T09:57:04Z</time>
      </trkpt>
      <trkpt lat="43.5355" lon="5.69209">
        <ele>588.95</ele>
        <time>2014-03-30T09:57:19Z</time>
      </trkpt>
      <trkpt lat="43.53546" lon="5.69193">
        <ele>586.54</ele>
        <time>2014-03-30T09:57:32Z</time>
      </trkpt>
      <trkpt lat="43.53544" lon="5.69176">
        <ele>583.66</ele>
        <time>2014-03-30T09:57:45Z</time>
      </trkpt>
      <trkpt lat="43.53542" lon="5.69157">
        <ele>581.25</ele>
        <time>2014-03-30T09:57:57Z</time>
      </trkpt>
      <trkpt lat="43.53543" lon="5.69149">
        <ele>579.81</ele>
        <time>2014-03-30T09:58:03Z</time>
      </trkpt>
      <trkpt lat="43.53543" lon="5.69137">
        <ele>577.89</ele>
        <time>2014-03-30T09:58:13Z</time>
      </trkpt>
      <trkpt lat="43.53541" lon="5.69132">
        <ele>578.85</ele>
        <time>2014-03-30T09:58:17Z</time>
      </trkpt>
      <trkpt lat="43.53539" lon="5.69129">
        <ele>578.37</ele>
        <time>2014-03-30T09:58:19Z</time>
      </trkpt>
      <trkpt lat="43.53532" lon="5.69112">
        <ele>576.45</ele>
        <time>2014-03-30T09:58:33Z</time>
      </trkpt>
      <trkpt lat="43.53531" lon="5.6911">
        <ele>576.45</ele>
        <time>2014-03-30T09:58:35Z</time>
      </trkpt>
      <trkpt lat="43.53524" lon="5.69089">
        <ele>576.45</ele>
        <time>2014-03-30T09:58:50Z</time>
      </trkpt>
      <trkpt lat="43.53523" lon="5.69086">
        <ele>577.41</ele>
        <time>2014-03-30T09:58:52Z</time>
      </trkpt>
      <trkpt lat="43.53519" lon="5.69066">
        <ele>578.37</ele>
        <time>2014-03-30T09:59:07Z</time>
      </trkpt>
      <trkpt lat="43.53515" lon="5.69057">
        <ele>578.85</ele>
        <time>2014-03-30T09:59:15Z</time>
      </trkpt>
      <trkpt lat="43.53513" lon="5.6905">
        <ele>579.33</ele>
        <time>2014-03-30T09:59:20Z</time>
      </trkpt>
      <trkpt lat="43.53512" lon="5.69033">
        <ele>580.77</ele>
        <time>2014-03-30T09:59:33Z</time>
      </trkpt>
      <trkpt lat="43.53512" lon="5.69016">
        <ele>582.7</ele>
        <time>2014-03-30T09:59:47Z</time>
      </trkpt>
      <trkpt lat="43.5351" lon="5.68999">
        <ele>586.06</ele>
        <time>2014-03-30T10:00:00Z</time>
      </trkpt>
      <trkpt lat="43.53507" lon="5.68982">
        <ele>587.98</ele>
        <time>2014-03-30T10:00:13Z</time>
      </trkpt>
      <trkpt lat="43.53506" lon="5.68979">
        <ele>588.95</ele>
        <time>2014-03-30T10:00:15Z</time>
      </trkpt>
      <trkpt lat="43.53506" lon="5.68974">
        <ele>588.95</ele>
        <time>2014-03-30T10:00:19Z</time>
      </trkpt>
      <trkpt lat="43.53505" lon="5.68971">
        <ele>589.91</ele>
        <time>2014-03-30T10:00:21Z</time>
      </trkpt>
      <trkpt lat="43.53504" lon="5.68951">
        <ele>588.46</ele>
        <time>2014-03-30T10:00:36Z</time>
      </trkpt>
      <trkpt lat="43.53502" lon="5.68937">
        <ele>588.95</ele>
        <time>2014-03-30T10:00:47Z</time>
      </trkpt>
      <trkpt lat="43.53501" lon="5.68926">
        <ele>592.31</ele>
        <time>2014-03-30T10:00:59Z</time>
      </trkpt>
      <trkpt lat="43.53501" lon="5.68925">
        <ele>591.83</ele>
        <time>2014-03-30T10:01:18Z</time>
      </trkpt>
      <trkpt lat="43.535" lon="5.68919">
        <ele>593.27</ele>
        <time>2014-03-30T10:01:33Z</time>
      </trkpt>
      <trkpt lat="43.53496" lon="5.68906">
        <ele>595.19</ele>
        <time>2014-03-30T10:01:44Z</time>
      </trkpt>
      <trkpt lat="43.53493" lon="5.6889">
        <ele>595.67</ele>
        <time>2014-03-30T10:01:56Z</time>
      </trkpt>
      <trkpt lat="43.53491" lon="5.68885">
        <ele>596.64</ele>
        <time>2014-03-30T10:02:00Z</time>
      </trkpt>
      <trkpt lat="43.5349" lon="5.68878">
        <ele>596.64</ele>
        <time>2014-03-30T10:02:04Z</time>
      </trkpt>
      <trkpt lat="43.53486" lon="5.68868">
        <ele>597.12</ele>
        <time>2014-03-30T10:02:12Z</time>
      </trkpt>
      <trkpt lat="43.5348" lon="5.68859">
        <ele>598.56</ele>
        <time>2014-03-30T10:02:20Z</time>
      </trkpt>
      <trkpt lat="43.5348" lon="5.68858">
        <ele>598.56</ele>
        <time>2014-03-30T10:02:21Z</time>
      </trkpt>
      <trkpt lat="43.53477" lon="5.68843">
        <ele>599.52</ele>
        <time>2014-03-30T10:02:34Z</time>
      </trkpt>
      <trkpt lat="43.53481" lon="5.68825">
        <ele>601.44</ele>
        <time>2014-03-30T10:02:48Z</time>
      </trkpt>
      <trkpt lat="43.53484" lon="5.68819">
        <ele>600.96</ele>
        <time>2014-03-30T10:02:53Z</time>
      </trkpt>
      <trkpt lat="43.53485" lon="5.68816">
        <ele>600.48</ele>
        <time>2014-03-30T10:02:55Z</time>
      </trkpt>
      <trkpt lat="43.53485" lon="5.68791">
        <ele>600</ele>
        <time>2014-03-30T10:03:10Z</time>
      </trkpt>
      <trkpt lat="43.53484" lon="5.68789">
        <ele>599.52</ele>
        <time>2014-03-30T10:03:12Z</time>
      </trkpt>
      <trkpt lat="43.53477" lon="5.68778">
        <ele>598.08</ele>
        <time>2014-03-30T10:03:22Z</time>
      </trkpt>
      <trkpt lat="43.53471" lon="5.68756">
        <ele>597.12</ele>
        <time>2014-03-30T10:03:38Z</time>
      </trkpt>
      <trkpt lat="43.53468" lon="5.68746">
        <ele>595.67</ele>
        <time>2014-03-30T10:03:44Z</time>
      </trkpt>
      <trkpt lat="43.53466" lon="5.68726">
        <ele>594.23</ele>
        <time>2014-03-30T10:03:58Z</time>
      </trkpt>
      <trkpt lat="43.53461" lon="5.68713">
        <ele>593.27</ele>
        <time>2014-03-30T10:04:11Z</time>
      </trkpt>
      <trkpt lat="43.5346" lon="5.68707">
        <ele>592.79</ele>
        <time>2014-03-30T10:04:15Z</time>
      </trkpt>
      <trkpt lat="43.53457" lon="5.68688">
        <ele>592.79</ele>
        <time>2014-03-30T10:04:30Z</time>
      </trkpt>
      <trkpt lat="43.53454" lon="5.6867">
        <ele>592.79</ele>
        <time>2014-03-30T10:04:43Z</time>
      </trkpt>
      <trkpt lat="43.53453" lon="5.68656">
        <ele>594.23</ele>
        <time>2014-03-30T10:04:54Z</time>
      </trkpt>
      <trkpt lat="43.53448" lon="5.68632">
        <ele>594.23</ele>
        <time>2014-03-30T10:05:09Z</time>
      </trkpt>
      <trkpt lat="43.53448" lon="5.68612">
        <ele>594.71</ele>
        <time>2014-03-30T10:05:23Z</time>
      </trkpt>
      <trkpt lat="43.53452" lon="5.68594">
        <ele>593.75</ele>
        <time>2014-03-30T10:05:37Z</time>
      </trkpt>
      <trkpt lat="43.53452" lon="5.68591">
        <ele>593.75</ele>
        <time>2014-03-30T10:05:39Z</time>
      </trkpt>
      <trkpt lat="43.53453" lon="5.68564">
        <ele>595.67</ele>
        <time>2014-03-30T10:05:55Z</time>
      </trkpt>
      <trkpt lat="43.53449" lon="5.68541">
        <ele>595.67</ele>
        <time>2014-03-30T10:06:09Z</time>
      </trkpt>
      <trkpt lat="43.53449" lon="5.68523">
        <ele>597.12</ele>
        <time>2014-03-30T10:06:22Z</time>
      </trkpt>
      <trkpt lat="43.53451" lon="5.68514">
        <ele>598.56</ele>
        <time>2014-03-30T10:06:30Z</time>
      </trkpt>
      <trkpt lat="43.5345" lon="5.68504">
        <ele>599.52</ele>
        <time>2014-03-30T10:06:39Z</time>
      </trkpt>
      <trkpt lat="43.53451" lon="5.68488">
        <ele>601.92</ele>
        <time>2014-03-30T10:06:53Z</time>
      </trkpt>
      <trkpt lat="43.5345" lon="5.68485">
        <ele>603.36</ele>
        <time>2014-03-30T10:06:56Z</time>
      </trkpt>
      <trkpt lat="43.53448" lon="5.68468">
        <ele>604.81</ele>
        <time>2014-03-30T10:07:10Z</time>
      </trkpt>
      <trkpt lat="43.53442" lon="5.68461">
        <ele>605.77</ele>
        <time>2014-03-30T10:07:17Z</time>
      </trkpt>
      <trkpt lat="43.53435" lon="5.68446">
        <ele>605.29</ele>
        <time>2014-03-30T10:07:30Z</time>
      </trkpt>
      <trkpt lat="43.53432" lon="5.68435">
        <ele>604.81</ele>
        <time>2014-03-30T10:07:38Z</time>
      </trkpt>
      <trkpt lat="43.5343" lon="5.68431">
        <ele>603.36</ele>
        <time>2014-03-30T10:07:43Z</time>
      </trkpt>
      <trkpt lat="43.5343" lon="5.68428">
        <ele>602.4</ele>
        <time>2014-03-30T10:08:04Z</time>
      </trkpt>
      <trkpt lat="43.5343" lon="5.68429">
        <ele>605.29</ele>
        <time>2014-03-30T10:08:14Z</time>
      </trkpt>
      <trkpt lat="43.5343" lon="5.68429">
        <ele>601.92</ele>
        <time>2014-03-30T10:08:18Z</time>
      </trkpt>
      <trkpt lat="43.5343" lon="5.68429">
        <ele>602.4</ele>
        <time>2014-03-30T10:08:19Z</time>
      </trkpt>
      <trkpt lat="43.5343" lon="5.6843">
        <ele>604.81</ele>
        <time>2014-03-30T10:08:37Z</time>
      </trkpt>
      <trkpt lat="43.5343" lon="5.6843">
        <ele>603.85</ele>
        <time>2014-03-30T10:08:50Z</time>
      </trkpt>
      <trkpt lat="43.5343" lon="5.6843">
        <ele>603.85</ele>
        <time>2014-03-30T10:09:15Z</time>
      </trkpt>
      <trkpt lat="43.5343" lon="5.6843">
        <ele>604.33</ele>
        <time>2014-03-30T10:09:43Z</time>
      </trkpt>
      <trkpt lat="43.5343" lon="5.6843">
        <ele>602.88</ele>
        <time>2014-03-30T10:09:53Z</time>
      </trkpt>
      <trkpt lat="43.53429" lon="5.68431">
        <ele>604.81</ele>
        <time>2014-03-30T10:10:14Z</time>
      </trkpt>
      <trkpt lat="43.53429" lon="5.68431">
        <ele>600.48</ele>
        <time>2014-03-30T10:10:29Z</time>
      </trkpt>
      <trkpt lat="43.53428" lon="5.68431">
        <ele>600.96</ele>
        <time>2014-03-30T10:10:30Z</time>
      </trkpt>
      <trkpt lat="43.53428" lon="5.68431">
        <ele>603.85</ele>
        <time>2014-03-30T10:10:37Z</time>
      </trkpt>
      <trkpt lat="43.53428" lon="5.68431">
        <ele>604.33</ele>
        <time>2014-03-30T10:10:43Z</time>
      </trkpt>
      <trkpt lat="43.53428" lon="5.6843">
        <ele>603.85</ele>
        <time>2014-03-30T10:11:03Z</time>
      </trkpt>
      <trkpt lat="43.53429" lon="5.6843">
        <ele>602.88</ele>
        <time>2014-03-30T10:11:15Z</time>
      </trkpt>
      <trkpt lat="43.5343" lon="5.68429">
        <ele>603.85</ele>
        <time>2014-03-30T10:11:39Z</time>
      </trkpt>
      <trkpt lat="43.5343" lon="5.68429">
        <ele>602.4</ele>
        <time>2014-03-30T10:11:45Z</time>
      </trkpt>
      <trkpt lat="43.5343" lon="5.68429">
        <ele>605.77</ele>
        <time>2014-03-30T10:11:58Z</time>
      </trkpt>
      <trkpt lat="43.53428" lon="5.6843">
        <ele>603.85</ele>
        <time>2014-03-30T10:12:15Z</time>
      </trkpt>
      <trkpt lat="43.53425" lon="5.68427">
        <ele>603.85</ele>
        <time>2014-03-30T10:12:32Z</time>
      </trkpt>
      <trkpt lat="43.53424" lon="5.68426">
        <ele>605.29</ele>
        <time>2014-03-30T10:12:45Z</time>
      </trkpt>
      <trkpt lat="43.53426" lon="5.68428">
        <ele>603.85</ele>
        <time>2014-03-30T10:12:52Z</time>
      </trkpt>
      <trkpt lat="43.53424" lon="5.68414">
        <ele>606.25</ele>
        <time>2014-03-30T10:13:07Z</time>
      </trkpt>
      <trkpt lat="43.53421" lon="5.68406">
        <ele>607.21</ele>
        <time>2014-03-30T10:13:12Z</time>
      </trkpt>
      <trkpt lat="43.53417" lon="5.68386">
        <ele>607.69</ele>
        <time>2014-03-30T10:13:27Z</time>
      </trkpt>
      <trkpt lat="43.53423" lon="5.68369">
        <ele>609.61</ele>
        <time>2014-03-30T10:13:41Z</time>
      </trkpt>
      <trkpt lat="43.53422" lon="5.68368">
        <ele>609.61</ele>
        <time>2014-03-30T10:13:42Z</time>
      </trkpt>
      <trkpt lat="43.5342" lon="5.68363">
        <ele>609.61</ele>
        <time>2014-03-30T10:13:45Z</time>
      </trkpt>
      <trkpt lat="43.53422" lon="5.68347">
        <ele>610.09</ele>
        <time>2014-03-30T10:13:55Z</time>
      </trkpt>
      <trkpt lat="43.53424" lon="5.68342">
        <ele>609.61</ele>
        <time>2014-03-30T10:13:59Z</time>
      </trkpt>
      <trkpt lat="43.53427" lon="5.68323">
        <ele>609.13</ele>
        <time>2014-03-30T10:14:13Z</time>
      </trkpt>
      <trkpt lat="43.5343" lon="5.68304">
        <ele>607.69</ele>
        <time>2014-03-30T10:14:26Z</time>
      </trkpt>
      <trkpt lat="43.53435" lon="5.68282">
        <ele>607.21</ele>
        <time>2014-03-30T10:14:41Z</time>
      </trkpt>
      <trkpt lat="43.53435" lon="5.68279">
        <ele>607.21</ele>
        <time>2014-03-30T10:14:43Z</time>
      </trkpt>
      <trkpt lat="43.53434" lon="5.68271">
        <ele>607.21</ele>
        <time>2014-03-30T10:14:48Z</time>
      </trkpt>
      <trkpt lat="43.53435" lon="5.68261">
        <ele>606.73</ele>
        <time>2014-03-30T10:14:55Z</time>
      </trkpt>
      <trkpt lat="43.53434" lon="5.68245">
        <ele>606.25</ele>
        <time>2014-03-30T10:15:04Z</time>
      </trkpt>
      <trkpt lat="43.53435" lon="5.68239">
        <ele>605.77</ele>
        <time>2014-03-30T10:15:07Z</time>
      </trkpt>
      <trkpt lat="43.53436" lon="5.68218">
        <ele>605.29</ele>
        <time>2014-03-30T10:15:23Z</time>
      </trkpt>
      <trkpt lat="43.53438" lon="5.68207">
        <ele>605.29</ele>
        <time>2014-03-30T10:15:32Z</time>
      </trkpt>
      <trkpt lat="43.53438" lon="5.68203">
        <ele>605.29</ele>
        <time>2014-03-30T10:15:34Z</time>
      </trkpt>
      <trkpt lat="43.53438" lon="5.68193">
        <ele>605.29</ele>
        <time>2014-03-30T10:15:40Z</time>
      </trkpt>
      <trkpt lat="43.53441" lon="5.68182">
        <ele>606.25</ele>
        <time>2014-03-30T10:15:51Z</time>
      </trkpt>
      <trkpt lat="43.53441" lon="5.68172">
        <ele>606.25</ele>
        <time>2014-03-30T10:16:02Z</time>
      </trkpt>
      <trkpt lat="43.53441" lon="5.68171">
        <ele>606.25</ele>
        <time>2014-03-30T10:16:03Z</time>
      </trkpt>
      <trkpt lat="43.5344" lon="5.68166">
        <ele>605.77</ele>
        <time>2014-03-30T10:16:07Z</time>
      </trkpt>
      <trkpt lat="43.53439" lon="5.68149">
        <ele>607.69</ele>
        <time>2014-03-30T10:16:20Z</time>
      </trkpt>
      <trkpt lat="43.53438" lon="5.68146">
        <ele>607.69</ele>
        <time>2014-03-30T10:16:22Z</time>
      </trkpt>
      <trkpt lat="43.53438" lon="5.68131">
        <ele>608.17</ele>
        <time>2014-03-30T10:16:34Z</time>
      </trkpt>
      <trkpt lat="43.53436" lon="5.68119">
        <ele>609.61</ele>
        <time>2014-03-30T10:16:43Z</time>
      </trkpt>
      <trkpt lat="43.53435" lon="5.68102">
        <ele>611.54</ele>
        <time>2014-03-30T10:16:56Z</time>
      </trkpt>
      <trkpt lat="43.53437" lon="5.68091">
        <ele>613.46</ele>
        <time>2014-03-30T10:17:04Z</time>
      </trkpt>
      <trkpt lat="43.53438" lon="5.68078">
        <ele>614.9</ele>
        <time>2014-03-30T10:17:18Z</time>
      </trkpt>
      <trkpt lat="43.53438" lon="5.68077">
        <ele>614.9</ele>
        <time>2014-03-30T10:17:19Z</time>
      </trkpt>
      <trkpt lat="43.53438" lon="5.68071">
        <ele>616.34</ele>
        <time>2014-03-30T10:17:22Z</time>
      </trkpt>
      <trkpt lat="43.5344" lon="5.68062">
        <ele>618.75</ele>
        <time>2014-03-30T10:17:32Z</time>
      </trkpt>
      <trkpt lat="43.53439" lon="5.6805">
        <ele>620.67</ele>
        <time>2014-03-30T10:17:43Z</time>
      </trkpt>
      <trkpt lat="43.53441" lon="5.68034">
        <ele>623.55</ele>
        <time>2014-03-30T10:17:57Z</time>
      </trkpt>
      <trkpt lat="43.53438" lon="5.6802">
        <ele>625.96</ele>
        <time>2014-03-30T10:18:10Z</time>
      </trkpt>
      <trkpt lat="43.53435" lon="5.68001">
        <ele>627.88</ele>
        <time>2014-03-30T10:18:25Z</time>
      </trkpt>
      <trkpt lat="43.53436" lon="5.6799">
        <ele>631.24</ele>
        <time>2014-03-30T10:18:34Z</time>
      </trkpt>
      <trkpt lat="43.53441" lon="5.67976">
        <ele>631.72</ele>
        <time>2014-03-30T10:18:47Z</time>
      </trkpt>
      <trkpt lat="43.53447" lon="5.67962">
        <ele>633.65</ele>
        <time>2014-03-30T10:19:00Z</time>
      </trkpt>
      <trkpt lat="43.53451" lon="5.67948">
        <ele>636.53</ele>
        <time>2014-03-30T10:19:14Z</time>
      </trkpt>
      <trkpt lat="43.53454" lon="5.67931">
        <ele>637.97</ele>
        <time>2014-03-30T10:19:29Z</time>
      </trkpt>
      <trkpt lat="43.53454" lon="5.67916">
        <ele>639.89</ele>
        <time>2014-03-30T10:19:42Z</time>
      </trkpt>
      <trkpt lat="43.5346" lon="5.67904">
        <ele>641.34</ele>
        <time>2014-03-30T10:19:57Z</time>
      </trkpt>
      <trkpt lat="43.5346" lon="5.67902">
        <ele>641.34</ele>
        <time>2014-03-30T10:19:58Z</time>
      </trkpt>
      <trkpt lat="43.53463" lon="5.67893">
        <ele>643.74</ele>
        <time>2014-03-30T10:20:08Z</time>
      </trkpt>
      <trkpt lat="43.53466" lon="5.67884">
        <ele>645.66</ele>
        <time>2014-03-30T10:20:17Z</time>
      </trkpt>
      <trkpt lat="43.53469" lon="5.6787">
        <ele>646.14</ele>
        <time>2014-03-30T10:20:28Z</time>
      </trkpt>
      <trkpt lat="43.53476" lon="5.67858">
        <ele>647.59</ele>
        <time>2014-03-30T10:20:42Z</time>
      </trkpt>
      <trkpt lat="43.53477" lon="5.67852">
        <ele>647.1</ele>
        <time>2014-03-30T10:20:46Z</time>
      </trkpt>
      <trkpt lat="43.53482" lon="5.67841">
        <ele>648.55</ele>
        <time>2014-03-30T10:20:59Z</time>
      </trkpt>
      <trkpt lat="43.53488" lon="5.67828">
        <ele>650.47</ele>
        <time>2014-03-30T10:21:12Z</time>
      </trkpt>
      <trkpt lat="43.53492" lon="5.6782">
        <ele>651.43</ele>
        <time>2014-03-30T10:21:19Z</time>
      </trkpt>
      <trkpt lat="43.53493" lon="5.67808">
        <ele>651.91</ele>
        <time>2014-03-30T10:21:33Z</time>
      </trkpt>
      <trkpt lat="43.53494" lon="5.67808">
        <ele>651.91</ele>
        <time>2014-03-30T10:21:53Z</time>
      </trkpt>
      <trkpt lat="43.53494" lon="5.67808">
        <ele>652.39</ele>
        <time>2014-03-30T10:22:17Z</time>
      </trkpt>
      <trkpt lat="43.53495" lon="5.67805">
        <ele>651.91</ele>
        <time>2014-03-30T10:22:36Z</time>
      </trkpt>
      <trkpt lat="43.53501" lon="5.678">
        <ele>651.91</ele>
        <time>2014-03-30T10:22:43Z</time>
      </trkpt>
      <trkpt lat="43.53503" lon="5.67799">
        <ele>651.91</ele>
        <time>2014-03-30T10:22:45Z</time>
      </trkpt>
      <trkpt lat="43.53509" lon="5.67786">
        <ele>653.35</ele>
        <time>2014-03-30T10:22:55Z</time>
      </trkpt>
      <trkpt lat="43.53511" lon="5.6776">
        <ele>654.8</ele>
        <time>2014-03-30T10:23:10Z</time>
      </trkpt>
      <trkpt lat="43.53511" lon="5.67759">
        <ele>655.28</ele>
        <time>2014-03-30T10:23:11Z</time>
      </trkpt>
      <trkpt lat="43.53513" lon="5.67754">
        <ele>654.8</ele>
        <time>2014-03-30T10:23:15Z</time>
      </trkpt>
      <trkpt lat="43.53514" lon="5.67749">
        <ele>655.76</ele>
        <time>2014-03-30T10:23:19Z</time>
      </trkpt>
      <trkpt lat="43.53516" lon="5.67739">
        <ele>656.72</ele>
        <time>2014-03-30T10:23:25Z</time>
      </trkpt>
      <trkpt lat="43.53516" lon="5.67719">
        <ele>657.2</ele>
        <time>2014-03-30T10:23:38Z</time>
      </trkpt>
      <trkpt lat="43.53517" lon="5.67715">
        <ele>657.68</ele>
        <time>2014-03-30T10:23:41Z</time>
      </trkpt>
      <trkpt lat="43.53521" lon="5.67697">
        <ele>659.12</ele>
        <time>2014-03-30T10:23:54Z</time>
      </trkpt>
      <trkpt lat="43.5352" lon="5.67691">
        <ele>659.6</ele>
        <time>2014-03-30T10:23:58Z</time>
      </trkpt>
      <trkpt lat="43.53514" lon="5.67682">
        <ele>657.68</ele>
        <time>2014-03-30T10:24:06Z</time>
      </trkpt>
      <trkpt lat="43.53513" lon="5.67681">
        <ele>657.68</ele>
        <time>2014-03-30T10:24:07Z</time>
      </trkpt>
      <trkpt lat="43.53511" lon="5.67674">
        <ele>657.2</ele>
        <time>2014-03-30T10:24:20Z</time>
      </trkpt>
      <trkpt lat="43.53511" lon="5.67674">
        <ele>655.76</ele>
        <time>2014-03-30T10:24:43Z</time>
      </trkpt>
      <trkpt lat="43.53511" lon="5.67675">
        <ele>654.8</ele>
        <time>2014-03-30T10:24:55Z</time>
      </trkpt>
      <trkpt lat="43.53511" lon="5.67675">
        <ele>657.68</ele>
        <time>2014-03-30T10:24:59Z</time>
      </trkpt>
      <trkpt lat="43.53508" lon="5.67677">
        <ele>656.24</ele>
        <time>2014-03-30T10:25:17Z</time>
      </trkpt>
      <trkpt lat="43.53508" lon="5.67677">
        <ele>654.8</ele>
        <time>2014-03-30T10:25:19Z</time>
      </trkpt>
      <trkpt lat="43.53509" lon="5.67677">
        <ele>651.91</ele>
        <time>2014-03-30T10:25:43Z</time>
      </trkpt>
      <trkpt lat="43.53509" lon="5.67677">
        <ele>654.8</ele>
        <time>2014-03-30T10:25:53Z</time>
      </trkpt>
      <trkpt lat="43.53509" lon="5.67678">
        <ele>656.24</ele>
        <time>2014-03-30T10:26:09Z</time>
      </trkpt>
      <trkpt lat="43.5351" lon="5.67681">
        <ele>658.16</ele>
        <time>2014-03-30T10:26:25Z</time>
      </trkpt>
      <trkpt lat="43.53519" lon="5.6768">
        <ele>656.24</ele>
        <time>2014-03-30T10:26:37Z</time>
      </trkpt>
      <trkpt lat="43.5352" lon="5.67677">
        <ele>655.76</ele>
        <time>2014-03-30T10:26:48Z</time>
      </trkpt>
      <trkpt lat="43.5352" lon="5.67678">
        <ele>654.8</ele>
        <time>2014-03-30T10:27:04Z</time>
      </trkpt>
      <trkpt lat="43.5352" lon="5.67678">
        <ele>654.31</ele>
        <time>2014-03-30T10:27:27Z</time>
      </trkpt>
      <trkpt lat="43.53521" lon="5.67678">
        <ele>654.8</ele>
        <time>2014-03-30T10:27:49Z</time>
      </trkpt>
      <trkpt lat="43.5352" lon="5.67678">
        <ele>655.76</ele>
        <time>2014-03-30T10:28:08Z</time>
      </trkpt>
      <trkpt lat="43.53521" lon="5.67678">
        <ele>656.24</ele>
        <time>2014-03-30T10:28:32Z</time>
      </trkpt>
      <trkpt lat="43.53522" lon="5.67678">
        <ele>655.76</ele>
        <time>2014-03-30T10:28:49Z</time>
      </trkpt>
      <trkpt lat="43.53522" lon="5.67677">
        <ele>655.76</ele>
        <time>2014-03-30T10:29:11Z</time>
      </trkpt>
      <trkpt lat="43.53522" lon="5.67677">
        <ele>656.24</ele>
        <time>2014-03-30T10:29:35Z</time>
      </trkpt>
      <trkpt lat="43.53522" lon="5.67677">
        <ele>656.24</ele>
        <time>2014-03-30T10:29:56Z</time>
      </trkpt>
      <trkpt lat="43.53522" lon="5.67677">
        <ele>656.72</ele>
        <time>2014-03-30T10:30:22Z</time>
      </trkpt>
      <trkpt lat="43.53522" lon="5.67677">
        <ele>655.28</ele>
        <time>2014-03-30T10:30:47Z</time>
      </trkpt>
      <trkpt lat="43.53523" lon="5.67677">
        <ele>655.76</ele>
        <time>2014-03-30T10:31:14Z</time>
      </trkpt>
      <trkpt lat="43.53523" lon="5.67675">
        <ele>655.76</ele>
        <time>2014-03-30T10:31:35Z</time>
      </trkpt>
      <trkpt lat="43.53521" lon="5.67676">
        <ele>656.24</ele>
        <time>2014-03-30T10:32:01Z</time>
      </trkpt>
      <trkpt lat="43.53521" lon="5.67676">
        <ele>656.24</ele>
        <time>2014-03-30T10:32:24Z</time>
      </trkpt>
      <trkpt lat="43.53521" lon="5.67676">
        <ele>657.2</ele>
        <time>2014-03-30T10:32:53Z</time>
      </trkpt>
      <trkpt lat="43.53521" lon="5.67677">
        <ele>655.76</ele>
        <time>2014-03-30T10:33:14Z</time>
      </trkpt>
      <trkpt lat="43.53521" lon="5.67673">
        <ele>656.24</ele>
        <time>2014-03-30T10:33:35Z</time>
      </trkpt>
      <trkpt lat="43.53521" lon="5.67676">
        <ele>657.2</ele>
        <time>2014-03-30T10:34:03Z</time>
      </trkpt>
      <trkpt lat="43.53521" lon="5.6768">
        <ele>657.2</ele>
        <time>2014-03-30T10:34:23Z</time>
      </trkpt>
      <trkpt lat="43.5352" lon="5.67678">
        <ele>655.76</ele>
        <time>2014-03-30T10:34:49Z</time>
      </trkpt>
      <trkpt lat="43.53521" lon="5.67675">
        <ele>655.76</ele>
        <time>2014-03-30T10:35:15Z</time>
      </trkpt>
      <trkpt lat="43.5352" lon="5.67676">
        <ele>656.24</ele>
        <time>2014-03-30T10:35:38Z</time>
      </trkpt>
      <trkpt lat="43.53521" lon="5.67677">
        <ele>657.68</ele>
        <time>2014-03-30T10:36:03Z</time>
      </trkpt>
      <trkpt lat="43.53521" lon="5.67677">
        <ele>657.2</ele>
        <time>2014-03-30T10:36:32Z</time>
      </trkpt>
      <trkpt lat="43.5352" lon="5.67678">
        <ele>656.24</ele>
        <time>2014-03-30T10:36:59Z</time>
      </trkpt>
      <trkpt lat="43.5352" lon="5.67678">
        <ele>656.24</ele>
        <time>2014-03-30T10:37:25Z</time>
      </trkpt>
      <trkpt lat="43.5352" lon="5.67679">
        <ele>656.24</ele>
        <time>2014-03-30T10:37:53Z</time>
      </trkpt>
      <trkpt lat="43.5352" lon="5.67679">
        <ele>656.72</ele>
        <time>2014-03-30T10:38:17Z</time>
      </trkpt>
      <trkpt lat="43.5352" lon="5.67678">
        <ele>656.24</ele>
        <time>2014-03-30T10:38:44Z</time>
      </trkpt>
      <trkpt lat="43.5352" lon="5.67676">
        <ele>656.24</ele>
        <time>2014-03-30T10:39:11Z</time>
      </trkpt>
      <trkpt lat="43.5352" lon="5.67675">
        <ele>656.72</ele>
        <time>2014-03-30T10:39:42Z</time>
      </trkpt>
      <trkpt lat="43.5352" lon="5.67675">
        <ele>657.2</ele>
        <time>2014-03-30T10:40:05Z</time>
      </trkpt>
      <trkpt lat="43.5352" lon="5.67675">
        <ele>657.2</ele>
        <time>2014-03-30T10:40:37Z</time>
      </trkpt>
      <trkpt lat="43.5352" lon="5.67675">
        <ele>657.68</ele>
        <time>2014-03-30T10:41:07Z</time>
      </trkpt>
      <trkpt lat="43.5352" lon="5.67675">
        <ele>657.2</ele>
        <time>2014-03-30T10:41:39Z</time>
      </trkpt>
      <trkpt lat="43.5352" lon="5.67675">
        <ele>657.2</ele>
        <time>2014-03-30T10:42:07Z</time>
      </trkpt>
      <trkpt lat="43.5352" lon="5.67675">
        <ele>657.68</ele>
        <time>2014-03-30T10:42:38Z</time>
      </trkpt>
      <trkpt lat="43.53521" lon="5.67675">
        <ele>658.16</ele>
        <time>2014-03-30T10:43:01Z</time>
      </trkpt>
      <trkpt lat="43.5352" lon="5.67675">
        <ele>656.72</ele>
        <time>2014-03-30T10:43:23Z</time>
      </trkpt>
      <trkpt lat="43.5352" lon="5.67675">
        <ele>657.2</ele>
        <time>2014-03-30T10:43:50Z</time>
      </trkpt>
      <trkpt lat="43.5352" lon="5.67675">
        <ele>657.2</ele>
        <time>2014-03-30T10:44:18Z</time>
      </trkpt>
      <trkpt lat="43.5352" lon="5.67675">
        <ele>657.2</ele>
        <time>2014-03-30T10:44:47Z</time>
      </trkpt>
      <trkpt lat="43.53521" lon="5.67676">
        <ele>658.64</ele>
        <time>2014-03-30T10:45:10Z</time>
      </trkpt>
      <trkpt lat="43.53521" lon="5.67676">
        <ele>657.68</ele>
        <time>2014-03-30T10:45:35Z</time>
      </trkpt>
      <trkpt lat="43.53522" lon="5.67677">
        <ele>657.68</ele>
        <time>2014-03-30T10:45:59Z</time>
      </trkpt>
      <trkpt lat="43.53522" lon="5.67677">
        <ele>658.16</ele>
        <time>2014-03-30T10:46:24Z</time>
      </trkpt>
      <trkpt lat="43.53522" lon="5.67677">
        <ele>658.16</ele>
        <time>2014-03-30T10:46:48Z</time>
      </trkpt>
      <trkpt lat="43.53522" lon="5.67677">
        <ele>658.16</ele>
        <time>2014-03-30T10:47:19Z</time>
      </trkpt>
      <trkpt lat="43.53522" lon="5.67677">
        <ele>658.16</ele>
        <time>2014-03-30T10:47:47Z</time>
      </trkpt>
      <trkpt lat="43.53522" lon="5.67678">
        <ele>658.16</ele>
        <time>2014-03-30T10:48:13Z</time>
      </trkpt>
      <trkpt lat="43.53522" lon="5.67678">
        <ele>657.68</ele>
        <time>2014-03-30T10:48:37Z</time>
      </trkpt>
      <trkpt lat="43.53522" lon="5.67677">
        <ele>657.68</ele>
        <time>2014-03-30T10:49:05Z</time>
      </trkpt>
      <trkpt lat="43.53522" lon="5.67677">
        <ele>657.68</ele>
        <time>2014-03-30T10:49:34Z</time>
      </trkpt>
      <trkpt lat="43.53522" lon="5.67678">
        <ele>658.16</ele>
        <time>2014-03-30T10:50:06Z</time>
      </trkpt>
      <trkpt lat="43.53522" lon="5.67678">
        <ele>658.16</ele>
        <time>2014-03-30T10:50:43Z</time>
      </trkpt>
      <trkpt lat="43.53522" lon="5.67678">
        <ele>659.12</ele>
        <time>2014-03-30T10:51:12Z</time>
      </trkpt>
      <trkpt lat="43.53522" lon="5.67678">
        <ele>658.16</ele>
        <time>2014-03-30T10:51:45Z</time>
      </trkpt>
      <trkpt lat="43.53522" lon="5.67678">
        <ele>657.2</ele>
        <time>2014-03-30T10:52:18Z</time>
      </trkpt>
      <trkpt lat="43.53522" lon="5.67678">
        <ele>657.2</ele>
        <time>2014-03-30T10:52:42Z</time>
      </trkpt>
      <trkpt lat="43.53522" lon="5.67678">
        <ele>657.68</ele>
        <time>2014-03-30T10:53:17Z</time>
      </trkpt>
      <trkpt lat="43.53522" lon="5.67677">
        <ele>657.68</ele>
        <time>2014-03-30T10:53:47Z</time>
      </trkpt>
      <trkpt lat="43.53523" lon="5.67676">
        <ele>657.68</ele>
        <time>2014-03-30T10:54:02Z</time>
      </trkpt>
      <trkpt lat="43.53522" lon="5.67676">
        <ele>657.2</ele>
        <time>2014-03-30T10:54:29Z</time>
      </trkpt>
      <trkpt lat="43.53521" lon="5.67675">
        <ele>657.68</ele>
        <time>2014-03-30T10:55:03Z</time>
      </trkpt>
      <trkpt lat="43.53521" lon="5.67675">
        <ele>658.64</ele>
        <time>2014-03-30T10:55:34Z</time>
      </trkpt>
      <trkpt lat="43.53521" lon="5.67675">
        <ele>658.16</ele>
        <time>2014-03-30T10:56:05Z</time>
      </trkpt>
      <trkpt lat="43.53521" lon="5.67675">
        <ele>658.16</ele>
        <time>2014-03-30T10:56:29Z</time>
      </trkpt>
      <trkpt lat="43.53521" lon="5.67676">
        <ele>658.64</ele>
        <time>2014-03-30T10:56:50Z</time>
      </trkpt>
      <trkpt lat="43.53519" lon="5.67675">
        <ele>657.68</ele>
        <time>2014-03-30T10:57:07Z</time>
      </trkpt>
      <trkpt lat="43.53518" lon="5.67675">
        <ele>658.16</ele>
        <time>2014-03-30T10:57:22Z</time>
      </trkpt>
      <trkpt lat="43.53519" lon="5.67676">
        <ele>658.64</ele>
        <time>2014-03-30T10:57:35Z</time>
      </trkpt>
      <trkpt lat="43.53519" lon="5.67676">
        <ele>658.16</ele>
        <time>2014-03-30T10:57:48Z</time>
      </trkpt>
      <trkpt lat="43.5352" lon="5.67677">
        <ele>659.6</ele>
        <time>2014-03-30T10:57:56Z</time>
      </trkpt>
      <trkpt lat="43.5352" lon="5.6768">
        <ele>660.56</ele>
        <time>2014-03-30T10:58:02Z</time>
      </trkpt>
      <trkpt lat="43.53517" lon="5.67682">
        <ele>660.08</ele>
        <time>2014-03-30T10:58:13Z</time>
      </trkpt>
      <trkpt lat="43.53518" lon="5.67682">
        <ele>661.52</ele>
        <time>2014-03-30T10:58:24Z</time>
      </trkpt>
      <trkpt lat="43.53522" lon="5.67679">
        <ele>660.08</ele>
        <time>2014-03-30T10:58:38Z</time>
      </trkpt>
      <trkpt lat="43.53522" lon="5.67678">
        <ele>657.68</ele>
        <time>2014-03-30T10:58:51Z</time>
      </trkpt>
      <trkpt lat="43.53523" lon="5.67679">
        <ele>658.16</ele>
        <time>2014-03-30T10:59:10Z</time>
      </trkpt>
      <trkpt lat="43.53523" lon="5.67678">
        <ele>658.64</ele>
        <time>2014-03-30T10:59:38Z</time>
      </trkpt>
      <trkpt lat="43.53522" lon="5.67677">
        <ele>657.2</ele>
        <time>2014-03-30T11:00:07Z</time>
      </trkpt>
      <trkpt lat="43.53522" lon="5.67677">
        <ele>657.68</ele>
        <time>2014-03-30T11:00:36Z</time>
      </trkpt>
      <trkpt lat="43.53522" lon="5.67677">
        <ele>657.2</ele>
        <time>2014-03-30T11:01:00Z</time>
      </trkpt>
      <trkpt lat="43.53521" lon="5.67676">
        <ele>658.64</ele>
        <time>2014-03-30T11:01:28Z</time>
      </trkpt>
      <trkpt lat="43.53521" lon="5.67676">
        <ele>658.16</ele>
        <time>2014-03-30T11:01:30Z</time>
      </trkpt>
      <trkpt lat="43.53522" lon="5.67676">
        <ele>657.68</ele>
        <time>2014-03-30T11:01:55Z</time>
      </trkpt>
      <trkpt lat="43.53521" lon="5.67675">
        <ele>657.2</ele>
        <time>2014-03-30T11:02:26Z</time>
      </trkpt>
      <trkpt lat="43.53521" lon="5.67674">
        <ele>657.68</ele>
        <time>2014-03-30T11:02:50Z</time>
      </trkpt>
      <trkpt lat="43.53521" lon="5.67674">
        <ele>657.2</ele>
        <time>2014-03-30T11:03:13Z</time>
      </trkpt>
      <trkpt lat="43.53521" lon="5.67674">
        <ele>657.2</ele>
        <time>2014-03-30T11:03:38Z</time>
      </trkpt>
      <trkpt lat="43.53521" lon="5.67674">
        <ele>657.68</ele>
        <time>2014-03-30T11:04:06Z</time>
      </trkpt>
      <trkpt lat="43.53521" lon="5.67675">
        <ele>657.2</ele>
        <time>2014-03-30T11:04:30Z</time>
      </trkpt>
      <trkpt lat="43.53522" lon="5.67676">
        <ele>658.16</ele>
        <time>2014-03-30T11:04:56Z</time>
      </trkpt>
      <trkpt lat="43.53521" lon="5.67676">
        <ele>657.2</ele>
        <time>2014-03-30T11:05:26Z</time>
      </trkpt>
      <trkpt lat="43.53521" lon="5.67676">
        <ele>657.68</ele>
        <time>2014-03-30T11:05:54Z</time>
      </trkpt>
      <trkpt lat="43.53521" lon="5.67676">
        <ele>657.68</ele>
        <time>2014-03-30T11:06:24Z</time>
      </trkpt>
      <trkpt lat="43.53521" lon="5.67675">
        <ele>658.16</ele>
        <time>2014-03-30T11:06:46Z</time>
      </trkpt>
      <trkpt lat="43.53521" lon="5.67675">
        <ele>657.68</ele>
        <time>2014-03-30T11:07:13Z</time>
      </trkpt>
      <trkpt lat="43.53521" lon="5.67676">
        <ele>657.68</ele>
        <time>2014-03-30T11:07:42Z</time>
      </trkpt>
      <trkpt lat="43.53521" lon="5.67675">
        <ele>658.64</ele>
        <time>2014-03-30T11:08:03Z</time>
      </trkpt>
      <trkpt lat="43.53521" lon="5.67675">
        <ele>658.64</ele>
        <time>2014-03-30T11:08:31Z</time>
      </trkpt>
      <trkpt lat="43.53521" lon="5.67675">
        <ele>659.6</ele>
        <time>2014-03-30T11:08:52Z</time>
      </trkpt>
      <trkpt lat="43.53521" lon="5.67676">
        <ele>659.6</ele>
        <time>2014-03-30T11:09:14Z</time>
      </trkpt>
      <trkpt lat="43.53521" lon="5.67677">
        <ele>659.6</ele>
        <time>2014-03-30T11:09:40Z</time>
      </trkpt>
      <trkpt lat="43.53521" lon="5.67678">
        <ele>659.6</ele>
        <time>2014-03-30T11:10:01Z</time>
      </trkpt>
      <trkpt lat="43.53521" lon="5.67678">
        <ele>659.12</ele>
        <time>2014-03-30T11:10:27Z</time>
      </trkpt>
      <trkpt lat="43.5352" lon="5.67677">
        <ele>658.64</ele>
        <time>2014-03-30T11:11:00Z</time>
      </trkpt>
      <trkpt lat="43.53519" lon="5.67678">
        <ele>658.64</ele>
        <time>2014-03-30T11:11:31Z</time>
      </trkpt>
      <trkpt lat="43.53519" lon="5.67682">
        <ele>660.08</ele>
        <time>2014-03-30T11:11:47Z</time>
      </trkpt>
      <trkpt lat="43.53519" lon="5.67687">
        <ele>661.04</ele>
        <time>2014-03-30T11:12:02Z</time>
      </trkpt>
      <trkpt lat="43.53519" lon="5.67688">
        <ele>661.52</ele>
        <time>2014-03-30T11:12:20Z</time>
      </trkpt>
      <trkpt lat="43.53518" lon="5.67687">
        <ele>661.04</ele>
        <time>2014-03-30T11:12:47Z</time>
      </trkpt>
      <trkpt lat="43.53514" lon="5.67686">
        <ele>659.6</ele>
        <time>2014-03-30T11:13:05Z</time>
      </trkpt>
      <trkpt lat="43.53514" lon="5.67686">
        <ele>660.08</ele>
        <time>2014-03-30T11:13:32Z</time>
      </trkpt>
      <trkpt lat="43.53514" lon="5.67685">
        <ele>660.08</ele>
        <time>2014-03-30T11:13:59Z</time>
      </trkpt>
      <trkpt lat="43.53517" lon="5.67688">
        <ele>661.04</ele>
        <time>2014-03-30T11:14:16Z</time>
      </trkpt>
      <trkpt lat="43.53519" lon="5.67692">
        <ele>662.01</ele>
        <time>2014-03-30T11:14:29Z</time>
      </trkpt>
      <trkpt lat="43.5352" lon="5.67693">
        <ele>662.01</ele>
        <time>2014-03-30T11:14:47Z</time>
      </trkpt>
      <trkpt lat="43.53521" lon="5.67696">
        <ele>662.01</ele>
        <time>2014-03-30T11:14:51Z</time>
      </trkpt>
      <trkpt lat="43.53522" lon="5.67701">
        <ele>661.52</ele>
        <time>2014-03-30T11:14:54Z</time>
      </trkpt>
      <trkpt lat="43.53519" lon="5.67717">
        <ele>661.04</ele>
        <time>2014-03-30T11:15:10Z</time>
      </trkpt>
      <trkpt lat="43.53518" lon="5.67736">
        <ele>660.08</ele>
        <time>2014-03-30T11:15:26Z</time>
      </trkpt>
      <trkpt lat="43.53513" lon="5.67755">
        <ele>658.16</ele>
        <time>2014-03-30T11:15:41Z</time>
      </trkpt>
      <trkpt lat="43.53512" lon="5.67773">
        <ele>656.24</ele>
        <time>2014-03-30T11:15:58Z</time>
      </trkpt>
      <trkpt lat="43.53506" lon="5.67795">
        <ele>655.28</ele>
        <time>2014-03-30T11:16:15Z</time>
      </trkpt>
      <trkpt lat="43.53496" lon="5.67807">
        <ele>655.28</ele>
        <time>2014-03-30T11:16:29Z</time>
      </trkpt>
      <trkpt lat="43.53494" lon="5.67816">
        <ele>654.31</ele>
        <time>2014-03-30T11:16:44Z</time>
      </trkpt>
      <trkpt lat="43.53493" lon="5.67818">
        <ele>654.8</ele>
        <time>2014-03-30T11:16:45Z</time>
      </trkpt>
      <trkpt lat="43.53488" lon="5.67831">
        <ele>652.39</ele>
        <time>2014-03-30T11:16:56Z</time>
      </trkpt>
      <trkpt lat="43.53483" lon="5.67845">
        <ele>650.95</ele>
        <time>2014-03-30T11:17:07Z</time>
      </trkpt>
      <trkpt lat="43.53478" lon="5.67856">
        <ele>650.47</ele>
        <time>2014-03-30T11:17:22Z</time>
      </trkpt>
      <trkpt lat="43.53474" lon="5.67864">
        <ele>649.99</ele>
        <time>2014-03-30T11:17:38Z</time>
      </trkpt>
      <trkpt lat="43.53474" lon="5.67865">
        <ele>649.99</ele>
        <time>2014-03-30T11:17:39Z</time>
      </trkpt>
      <trkpt lat="43.53471" lon="5.67874">
        <ele>648.07</ele>
        <time>2014-03-30T11:17:48Z</time>
      </trkpt>
      <trkpt lat="43.53468" lon="5.67882">
        <ele>648.55</ele>
        <time>2014-03-30T11:17:54Z</time>
      </trkpt>
      <trkpt lat="43.53467" lon="5.67884">
        <ele>647.59</ele>
        <time>2014-03-30T11:17:56Z</time>
      </trkpt>
      <trkpt lat="43.53464" lon="5.67895">
        <ele>645.66</ele>
        <time>2014-03-30T11:18:08Z</time>
      </trkpt>
      <trkpt lat="43.53461" lon="5.67902">
        <ele>644.7</ele>
        <time>2014-03-30T11:18:12Z</time>
      </trkpt>
      <trkpt lat="43.53458" lon="5.67911">
        <ele>642.3</ele>
        <time>2014-03-30T11:18:18Z</time>
      </trkpt>
      <trkpt lat="43.53455" lon="5.67931">
        <ele>641.34</ele>
        <time>2014-03-30T11:18:32Z</time>
      </trkpt>
      <trkpt lat="43.53453" lon="5.67947">
        <ele>638.45</ele>
        <time>2014-03-30T11:18:47Z</time>
      </trkpt>
      <trkpt lat="43.53448" lon="5.67963">
        <ele>636.53</ele>
        <time>2014-03-30T11:19:02Z</time>
      </trkpt>
      <trkpt lat="43.5344" lon="5.67972">
        <ele>633.65</ele>
        <time>2014-03-30T11:19:15Z</time>
      </trkpt>
      <trkpt lat="43.53438" lon="5.67992">
        <ele>629.8</ele>
        <time>2014-03-30T11:19:31Z</time>
      </trkpt>
      <trkpt lat="43.53438" lon="5.67993">
        <ele>631.24</ele>
        <time>2014-03-30T11:19:32Z</time>
      </trkpt>
      <trkpt lat="43.5344" lon="5.68011">
        <ele>629.32</ele>
        <time>2014-03-30T11:19:46Z</time>
      </trkpt>
      <trkpt lat="43.53443" lon="5.68025">
        <ele>626.44</ele>
        <time>2014-03-30T11:19:59Z</time>
      </trkpt>
      <trkpt lat="43.53443" lon="5.68037">
        <ele>624.03</ele>
        <time>2014-03-30T11:20:09Z</time>
      </trkpt>
      <trkpt lat="43.5344" lon="5.68051">
        <ele>621.63</ele>
        <time>2014-03-30T11:20:25Z</time>
      </trkpt>
      <trkpt lat="43.53439" lon="5.68068">
        <ele>619.23</ele>
        <time>2014-03-30T11:20:41Z</time>
      </trkpt>
      <trkpt lat="43.53441" lon="5.68085">
        <ele>615.86</ele>
        <time>2014-03-30T11:20:57Z</time>
      </trkpt>
      <trkpt lat="43.53438" lon="5.68107">
        <ele>613.46</ele>
        <time>2014-03-30T11:21:17Z</time>
      </trkpt>
      <trkpt lat="43.53439" lon="5.68127">
        <ele>612.02</ele>
        <time>2014-03-30T11:21:35Z</time>
      </trkpt>
      <trkpt lat="43.53442" lon="5.68143">
        <ele>610.57</ele>
        <time>2014-03-30T11:21:52Z</time>
      </trkpt>
      <trkpt lat="43.53444" lon="5.68164">
        <ele>609.13</ele>
        <time>2014-03-30T11:22:06Z</time>
      </trkpt>
      <trkpt lat="43.53449" lon="5.68184">
        <ele>608.17</ele>
        <time>2014-03-30T11:22:21Z</time>
      </trkpt>
      <trkpt lat="43.53457" lon="5.68188">
        <ele>608.65</ele>
        <time>2014-03-30T11:22:36Z</time>
      </trkpt>
      <trkpt lat="43.53471" lon="5.68188">
        <ele>606.73</ele>
        <time>2014-03-30T11:22:54Z</time>
      </trkpt>
      <trkpt lat="43.5348" lon="5.68182">
        <ele>605.77</ele>
        <time>2014-03-30T11:23:12Z</time>
      </trkpt>
      <trkpt lat="43.53485" lon="5.68172">
        <ele>605.29</ele>
        <time>2014-03-30T11:23:26Z</time>
      </trkpt>
      <trkpt lat="43.53497" lon="5.68164">
        <ele>604.33</ele>
        <time>2014-03-30T11:23:44Z</time>
      </trkpt>
      <trkpt lat="43.53514" lon="5.68168">
        <ele>601.44</ele>
        <time>2014-03-30T11:24:03Z</time>
      </trkpt>
      <trkpt lat="43.53527" lon="5.68164">
        <ele>600</ele>
        <time>2014-03-30T11:24:19Z</time>
      </trkpt>
      <trkpt lat="43.53538" lon="5.68162">
        <ele>597.12</ele>
        <time>2014-03-30T11:24:35Z</time>
      </trkpt>
      <trkpt lat="43.53542" lon="5.68164">
        <ele>597.12</ele>
        <time>2014-03-30T11:24:43Z</time>
      </trkpt>
      <trkpt lat="43.53555" lon="5.6816">
        <ele>595.67</ele>
        <time>2014-03-30T11:25:00Z</time>
      </trkpt>
      <trkpt lat="43.53569" lon="5.6815">
        <ele>594.71</ele>
        <time>2014-03-30T11:25:16Z</time>
      </trkpt>
      <trkpt lat="43.5358" lon="5.6814">
        <ele>592.79</ele>
        <time>2014-03-30T11:25:32Z</time>
      </trkpt>
      <trkpt lat="43.53593" lon="5.68128">
        <ele>590.39</ele>
        <time>2014-03-30T11:25:50Z</time>
      </trkpt>
      <trkpt lat="43.53603" lon="5.68117">
        <ele>588.95</ele>
        <time>2014-03-30T11:26:05Z</time>
      </trkpt>
      <trkpt lat="43.5361" lon="5.68107">
        <ele>587.98</ele>
        <time>2014-03-30T11:26:26Z</time>
      </trkpt>
      <trkpt lat="43.53617" lon="5.68092">
        <ele>585.58</ele>
        <time>2014-03-30T11:26:44Z</time>
      </trkpt>
      <trkpt lat="43.53632" lon="5.68085">
        <ele>585.1</ele>
        <time>2014-03-30T11:26:53Z</time>
      </trkpt>
      <trkpt lat="43.53645" lon="5.68075">
        <ele>584.14</ele>
        <time>2014-03-30T11:27:01Z</time>
      </trkpt>
      <trkpt lat="43.53649" lon="5.68071">
        <ele>584.62</ele>
        <time>2014-03-30T11:27:06Z</time>
      </trkpt>
      <trkpt lat="43.53661" lon="5.68061">
        <ele>582.7</ele>
        <time>2014-03-30T11:27:19Z</time>
      </trkpt>
      <trkpt lat="43.53669" lon="5.68068">
        <ele>581.25</ele>
        <time>2014-03-30T11:27:34Z</time>
      </trkpt>
      <trkpt lat="43.5367" lon="5.68082">
        <ele>581.25</ele>
        <time>2014-03-30T11:27:45Z</time>
      </trkpt>
      <trkpt lat="43.53674" lon="5.68089">
        <ele>581.25</ele>
        <time>2014-03-30T11:27:50Z</time>
      </trkpt>
      <trkpt lat="43.53688" lon="5.68099">
        <ele>582.22</ele>
        <time>2014-03-30T11:28:06Z</time>
      </trkpt>
      <trkpt lat="43.53691" lon="5.68124">
        <ele>583.18</ele>
        <time>2014-03-30T11:28:24Z</time>
      </trkpt>
      <trkpt lat="43.53692" lon="5.68141">
        <ele>582.7</ele>
        <time>2014-03-30T11:28:35Z</time>
      </trkpt>
      <trkpt lat="43.53694" lon="5.68163">
        <ele>581.73</ele>
        <time>2014-03-30T11:28:51Z</time>
      </trkpt>
      <trkpt lat="43.53696" lon="5.6818">
        <ele>580.29</ele>
        <time>2014-03-30T11:29:05Z</time>
      </trkpt>
      <trkpt lat="43.53695" lon="5.68202">
        <ele>577.41</ele>
        <time>2014-03-30T11:29:20Z</time>
      </trkpt>
      <trkpt lat="43.53694" lon="5.68211">
        <ele>576.93</ele>
        <time>2014-03-30T11:29:28Z</time>
      </trkpt>
      <trkpt lat="43.53691" lon="5.68227">
        <ele>573.08</ele>
        <time>2014-03-30T11:29:41Z</time>
      </trkpt>
      <trkpt lat="43.5369" lon="5.68231">
        <ele>573.08</ele>
        <time>2014-03-30T11:29:43Z</time>
      </trkpt>
      <trkpt lat="43.53687" lon="5.68245">
        <ele>571.16</ele>
        <time>2014-03-30T11:29:56Z</time>
      </trkpt>
      <trkpt lat="43.53687" lon="5.68269">
        <ele>568.28</ele>
        <time>2014-03-30T11:30:12Z</time>
      </trkpt>
      <trkpt lat="43.53682" lon="5.6829">
        <ele>566.35</ele>
        <time>2014-03-30T11:30:27Z</time>
      </trkpt>
      <trkpt lat="43.53675" lon="5.68298">
        <ele>566.35</ele>
        <time>2014-03-30T11:30:35Z</time>
      </trkpt>
      <trkpt lat="43.53669" lon="5.6832">
        <ele>564.91</ele>
        <time>2014-03-30T11:30:53Z</time>
      </trkpt>
      <trkpt lat="43.53663" lon="5.68343">
        <ele>562.99</ele>
        <time>2014-03-30T11:31:10Z</time>
      </trkpt>
      <trkpt lat="43.53666" lon="5.68364">
        <ele>562.51</ele>
        <time>2014-03-30T11:31:25Z</time>
      </trkpt>
      <trkpt lat="43.5367" lon="5.68388">
        <ele>560.59</ele>
        <time>2014-03-30T11:31:41Z</time>
      </trkpt>
      <trkpt lat="43.5367" lon="5.6841">
        <ele>560.11</ele>
        <time>2014-03-30T11:31:56Z</time>
      </trkpt>
      <trkpt lat="43.53662" lon="5.68438">
        <ele>558.18</ele>
        <time>2014-03-30T11:32:16Z</time>
      </trkpt>
      <trkpt lat="43.53661" lon="5.6844">
        <ele>557.7</ele>
        <time>2014-03-30T11:32:17Z</time>
      </trkpt>
      <trkpt lat="43.53654" lon="5.68462">
        <ele>556.26</ele>
        <time>2014-03-30T11:32:33Z</time>
      </trkpt>
      <trkpt lat="43.53652" lon="5.68487">
        <ele>556.26</ele>
        <time>2014-03-30T11:32:48Z</time>
      </trkpt>
      <trkpt lat="43.53653" lon="5.68507">
        <ele>555.78</ele>
        <time>2014-03-30T11:33:01Z</time>
      </trkpt>
      <trkpt lat="43.53654" lon="5.68536">
        <ele>553.86</ele>
        <time>2014-03-30T11:33:19Z</time>
      </trkpt>
      <trkpt lat="43.53657" lon="5.68564">
        <ele>552.41</ele>
        <time>2014-03-30T11:33:36Z</time>
      </trkpt>
      <trkpt lat="43.53658" lon="5.68592">
        <ele>550.97</ele>
        <time>2014-03-30T11:33:55Z</time>
      </trkpt>
      <trkpt lat="43.53662" lon="5.68623">
        <ele>550.97</ele>
        <time>2014-03-30T11:34:13Z</time>
      </trkpt>
      <trkpt lat="43.53666" lon="5.68652">
        <ele>548.57</ele>
        <time>2014-03-30T11:34:33Z</time>
      </trkpt>
      <trkpt lat="43.53668" lon="5.68676">
        <ele>548.57</ele>
        <time>2014-03-30T11:34:48Z</time>
      </trkpt>
      <trkpt lat="43.53679" lon="5.68698">
        <ele>547.61</ele>
        <time>2014-03-30T11:35:05Z</time>
      </trkpt>
      <trkpt lat="43.53682" lon="5.68724">
        <ele>547.13</ele>
        <time>2014-03-30T11:35:21Z</time>
      </trkpt>
      <trkpt lat="43.53686" lon="5.68748">
        <ele>547.13</ele>
        <time>2014-03-30T11:35:36Z</time>
      </trkpt>
      <trkpt lat="43.53691" lon="5.68771">
        <ele>545.69</ele>
        <time>2014-03-30T11:35:52Z</time>
      </trkpt>
      <trkpt lat="43.53695" lon="5.68798">
        <ele>544.72</ele>
        <time>2014-03-30T11:36:08Z</time>
      </trkpt>
      <trkpt lat="43.53697" lon="5.68824">
        <ele>543.76</ele>
        <time>2014-03-30T11:36:27Z</time>
      </trkpt>
      <trkpt lat="43.53705" lon="5.68842">
        <ele>543.28</ele>
        <time>2014-03-30T11:36:41Z</time>
      </trkpt>
      <trkpt lat="43.53708" lon="5.68862">
        <ele>542.8</ele>
        <time>2014-03-30T11:36:54Z</time>
      </trkpt>
      <trkpt lat="43.53713" lon="5.68886">
        <ele>542.32</ele>
        <time>2014-03-30T11:37:09Z</time>
      </trkpt>
      <trkpt lat="43.5372" lon="5.6891">
        <ele>541.36</ele>
        <time>2014-03-30T11:37:27Z</time>
      </trkpt>
      <trkpt lat="43.53726" lon="5.68934">
        <ele>539.92</ele>
        <time>2014-03-30T11:37:42Z</time>
      </trkpt>
      <trkpt lat="43.53735" lon="5.68969">
        <ele>539.44</ele>
        <time>2014-03-30T11:38:05Z</time>
      </trkpt>
      <trkpt lat="43.53735" lon="5.68994">
        <ele>538.96</ele>
        <time>2014-03-30T11:38:20Z</time>
      </trkpt>
      <trkpt lat="43.53735" lon="5.68995">
        <ele>538.96</ele>
        <time>2014-03-30T11:38:21Z</time>
      </trkpt>
      <trkpt lat="43.53735" lon="5.69023">
        <ele>538.48</ele>
        <time>2014-03-30T11:38:37Z</time>
      </trkpt>
      <trkpt lat="43.53736" lon="5.69029">
        <ele>537.51</ele>
        <time>2014-03-30T11:38:41Z</time>
      </trkpt>
      <trkpt lat="43.53738" lon="5.69035">
        <ele>536.55</ele>
        <time>2014-03-30T11:38:45Z</time>
      </trkpt>
      <trkpt lat="43.53745" lon="5.69059">
        <ele>536.07</ele>
        <time>2014-03-30T11:39:02Z</time>
      </trkpt>
      <trkpt lat="43.53755" lon="5.69086">
        <ele>535.59</ele>
        <time>2014-03-30T11:39:20Z</time>
      </trkpt>
      <trkpt lat="43.53766" lon="5.69108">
        <ele>535.59</ele>
        <time>2014-03-30T11:39:37Z</time>
      </trkpt>
      <trkpt lat="43.5378" lon="5.69132">
        <ele>535.11</ele>
        <time>2014-03-30T11:39:56Z</time>
      </trkpt>
      <trkpt lat="43.53795" lon="5.69158">
        <ele>534.15</ele>
        <time>2014-03-30T11:40:15Z</time>
      </trkpt>
      <trkpt lat="43.53807" lon="5.69178">
        <ele>534.15</ele>
        <time>2014-03-30T11:40:32Z</time>
      </trkpt>
      <trkpt lat="43.53818" lon="5.69199">
        <ele>533.67</ele>
        <time>2014-03-30T11:40:49Z</time>
      </trkpt>
      <trkpt lat="43.5383" lon="5.69226">
        <ele>532.71</ele>
        <time>2014-03-30T11:41:07Z</time>
      </trkpt>
      <trkpt lat="43.53841" lon="5.69252">
        <ele>532.23</ele>
        <time>2014-03-30T11:41:25Z</time>
      </trkpt>
      <trkpt lat="43.53852" lon="5.69275">
        <ele>532.71</ele>
        <time>2014-03-30T11:41:42Z</time>
      </trkpt>
      <trkpt lat="43.53864" lon="5.693">
        <ele>531.27</ele>
        <time>2014-03-30T11:41:59Z</time>
      </trkpt>
      <trkpt lat="43.53871" lon="5.69315">
        <ele>530.79</ele>
        <time>2014-03-30T11:42:11Z</time>
      </trkpt>
      <trkpt lat="43.53885" lon="5.69338">
        <ele>529.34</ele>
        <time>2014-03-30T11:42:28Z</time>
      </trkpt>
      <trkpt lat="43.53894" lon="5.69362">
        <ele>529.82</ele>
        <time>2014-03-30T11:42:47Z</time>
      </trkpt>
      <trkpt lat="43.53899" lon="5.69387">
        <ele>529.34</ele>
        <time>2014-03-30T11:43:02Z</time>
      </trkpt>
      <trkpt lat="43.5391" lon="5.69413">
        <ele>529.34</ele>
        <time>2014-03-30T11:43:21Z</time>
      </trkpt>
      <trkpt lat="43.53913" lon="5.69437">
        <ele>527.9</ele>
        <time>2014-03-30T11:43:36Z</time>
      </trkpt>
      <trkpt lat="43.53914" lon="5.69457">
        <ele>527.42</ele>
        <time>2014-03-30T11:43:48Z</time>
      </trkpt>
      <trkpt lat="43.53923" lon="5.69486">
        <ele>526.94</ele>
        <time>2014-03-30T11:44:07Z</time>
      </trkpt>
      <trkpt lat="43.53936" lon="5.69509">
        <ele>527.42</ele>
        <time>2014-03-30T11:44:24Z</time>
      </trkpt>
      <trkpt lat="43.53938" lon="5.69512">
        <ele>525.98</ele>
        <time>2014-03-30T11:44:26Z</time>
      </trkpt>
      <trkpt lat="43.53941" lon="5.69516">
        <ele>527.42</ele>
        <time>2014-03-30T11:44:29Z</time>
      </trkpt>
      <trkpt lat="43.53954" lon="5.69537">
        <ele>525.02</ele>
        <time>2014-03-30T11:44:46Z</time>
      </trkpt>
      <trkpt lat="43.53965" lon="5.6956">
        <ele>525.02</ele>
        <time>2014-03-30T11:45:05Z</time>
      </trkpt>
      <trkpt lat="43.53966" lon="5.69569">
        <ele>524.54</ele>
        <time>2014-03-30T11:45:12Z</time>
      </trkpt>
      <trkpt lat="43.53968" lon="5.69576">
        <ele>523.58</ele>
        <time>2014-03-30T11:45:15Z</time>
      </trkpt>
      <trkpt lat="43.53968" lon="5.69597">
        <ele>523.09</ele>
        <time>2014-03-30T11:45:26Z</time>
      </trkpt>
      <trkpt lat="43.53973" lon="5.69623">
        <ele>524.06</ele>
        <time>2014-03-30T11:45:43Z</time>
      </trkpt>
      <trkpt lat="43.53976" lon="5.69649">
        <ele>522.61</ele>
        <time>2014-03-30T11:46:01Z</time>
      </trkpt>
      <trkpt lat="43.53973" lon="5.69677">
        <ele>522.61</ele>
        <time>2014-03-30T11:46:19Z</time>
      </trkpt>
      <trkpt lat="43.53973" lon="5.69681">
        <ele>522.61</ele>
        <time>2014-03-30T11:46:21Z</time>
      </trkpt>
      <trkpt lat="43.53973" lon="5.69689">
        <ele>522.61</ele>
        <time>2014-03-30T11:46:25Z</time>
      </trkpt>
      <trkpt lat="43.53973" lon="5.69693">
        <ele>522.13</ele>
        <time>2014-03-30T11:46:27Z</time>
      </trkpt>
      <trkpt lat="43.53966" lon="5.69713">
        <ele>521.65</ele>
        <time>2014-03-30T11:46:41Z</time>
      </trkpt>
      <trkpt lat="43.53958" lon="5.69742">
        <ele>519.73</ele>
        <time>2014-03-30T11:46:59Z</time>
      </trkpt>
      <trkpt lat="43.53958" lon="5.69754">
        <ele>519.25</ele>
        <time>2014-03-30T11:47:07Z</time>
      </trkpt>
      <trkpt lat="43.5396" lon="5.69762">
        <ele>518.29</ele>
        <time>2014-03-30T11:47:13Z</time>
      </trkpt>
      <trkpt lat="43.53961" lon="5.69769">
        <ele>519.25</ele>
        <time>2014-03-30T11:47:17Z</time>
      </trkpt>
      <trkpt lat="43.53968" lon="5.69795">
        <ele>518.29</ele>
        <time>2014-03-30T11:47:33Z</time>
      </trkpt>
      <trkpt lat="43.53972" lon="5.69812">
        <ele>517.81</ele>
        <time>2014-03-30T11:47:45Z</time>
      </trkpt>
      <trkpt lat="43.5398" lon="5.69837">
        <ele>517.33</ele>
        <time>2014-03-30T11:48:01Z</time>
      </trkpt>
      <trkpt lat="43.53993" lon="5.69866">
        <ele>515.88</ele>
        <time>2014-03-30T11:48:20Z</time>
      </trkpt>
      <trkpt lat="43.53999" lon="5.69892">
        <ele>513.96</ele>
        <time>2014-03-30T11:48:38Z</time>
      </trkpt>
      <trkpt lat="43.54003" lon="5.69918">
        <ele>513.48</ele>
        <time>2014-03-30T11:48:53Z</time>
      </trkpt>
      <trkpt lat="43.54008" lon="5.69943">
        <ele>513</ele>
        <time>2014-03-30T11:49:08Z</time>
      </trkpt>
      <trkpt lat="43.54009" lon="5.69956">
        <ele>513</ele>
        <time>2014-03-30T11:49:17Z</time>
      </trkpt>
      <trkpt lat="43.54008" lon="5.69981">
        <ele>511.56</ele>
        <time>2014-03-30T11:49:32Z</time>
      </trkpt>
      <trkpt lat="43.54015" lon="5.70006">
        <ele>511.08</ele>
        <time>2014-03-30T11:49:49Z</time>
      </trkpt>
      <trkpt lat="43.54025" lon="5.70026">
        <ele>510.6</ele>
        <time>2014-03-30T11:50:03Z</time>
      </trkpt>
      <trkpt lat="43.54034" lon="5.70042">
        <ele>509.64</ele>
        <time>2014-03-30T11:50:16Z</time>
      </trkpt>
      <trkpt lat="43.54043" lon="5.70064">
        <ele>509.16</ele>
        <time>2014-03-30T11:50:32Z</time>
      </trkpt>
      <trkpt lat="43.54047" lon="5.70076">
        <ele>508.67</ele>
        <time>2014-03-30T11:50:40Z</time>
      </trkpt>
      <trkpt lat="43.54053" lon="5.70109">
        <ele>507.71</ele>
        <time>2014-03-30T11:51:00Z</time>
      </trkpt>
      <trkpt lat="43.54064" lon="5.7013">
        <ele>507.23</ele>
        <time>2014-03-30T11:51:17Z</time>
      </trkpt>
      <trkpt lat="43.54077" lon="5.70154">
        <ele>505.79</ele>
        <time>2014-03-30T11:51:35Z</time>
      </trkpt>
      <trkpt lat="43.54084" lon="5.70177">
        <ele>505.31</ele>
        <time>2014-03-30T11:51:51Z</time>
      </trkpt>
      <trkpt lat="43.54096" lon="5.70199">
        <ele>504.83</ele>
        <time>2014-03-30T11:52:09Z</time>
      </trkpt>
      <trkpt lat="43.54102" lon="5.70217">
        <ele>501.46</ele>
        <time>2014-03-30T11:52:21Z</time>
      </trkpt>
      <trkpt lat="43.54104" lon="5.70222">
        <ele>503.39</ele>
        <time>2014-03-30T11:52:24Z</time>
      </trkpt>
      <trkpt lat="43.54116" lon="5.70237">
        <ele>503.87</ele>
        <time>2014-03-30T11:52:38Z</time>
      </trkpt>
      <trkpt lat="43.54122" lon="5.7024">
        <ele>504.35</ele>
        <time>2014-03-30T11:52:43Z</time>
      </trkpt>
      <trkpt lat="43.54142" lon="5.70239">
        <ele>503.87</ele>
        <time>2014-03-30T11:53:00Z</time>
      </trkpt>
      <trkpt lat="43.54157" lon="5.70239">
        <ele>503.39</ele>
        <time>2014-03-30T11:53:14Z</time>
      </trkpt>
      <trkpt lat="43.54179" lon="5.7024">
        <ele>503.39</ele>
        <time>2014-03-30T11:53:32Z</time>
      </trkpt>
      <trkpt lat="43.54196" lon="5.70239">
        <ele>502.43</ele>
        <time>2014-03-30T11:53:45Z</time>
      </trkpt>
      <trkpt lat="43.54211" lon="5.70244">
        <ele>502.43</ele>
        <time>2014-03-30T11:53:59Z</time>
      </trkpt>
      <trkpt lat="43.54225" lon="5.70249">
        <ele>502.43</ele>
        <time>2014-03-30T11:54:12Z</time>
      </trkpt>
      <trkpt lat="43.54246" lon="5.70259">
        <ele>501.46</ele>
        <time>2014-03-30T11:54:28Z</time>
      </trkpt>
      <trkpt lat="43.54248" lon="5.7026">
        <ele>501.46</ele>
        <time>2014-03-30T11:54:30Z</time>
      </trkpt>
      <trkpt lat="43.54249" lon="5.70261">
        <ele>501.46</ele>
        <time>2014-03-30T11:54:32Z</time>
      </trkpt>
      <trkpt lat="43.54262" lon="5.70275">
        <ele>501.95</ele>
        <time>2014-03-30T11:54:47Z</time>
      </trkpt>
      <trkpt lat="43.54278" lon="5.70292">
        <ele>500.5</ele>
        <time>2014-03-30T11:55:02Z</time>
      </trkpt>
      <trkpt lat="43.54289" lon="5.70302">
        <ele>501.46</ele>
        <time>2014-03-30T11:55:14Z</time>
      </trkpt>
      <trkpt lat="43.54302" lon="5.70312">
        <ele>500.5</ele>
        <time>2014-03-30T11:55:28Z</time>
      </trkpt>
      <trkpt lat="43.54314" lon="5.70322">
        <ele>500.98</ele>
        <time>2014-03-30T11:55:40Z</time>
      </trkpt>
      <trkpt lat="43.5433" lon="5.70341">
        <ele>499.06</ele>
        <time>2014-03-30T11:55:58Z</time>
      </trkpt>
      <trkpt lat="43.54334" lon="5.70348">
        <ele>496.66</ele>
        <time>2014-03-30T11:56:03Z</time>
      </trkpt>
      <trkpt lat="43.54335" lon="5.70352">
        <ele>498.1</ele>
        <time>2014-03-30T11:56:06Z</time>
      </trkpt>
      <trkpt lat="43.54336" lon="5.70355">
        <ele>498.58</ele>
        <time>2014-03-30T11:56:08Z</time>
      </trkpt>
      <trkpt lat="43.54346" lon="5.70373">
        <ele>499.06</ele>
        <time>2014-03-30T11:56:23Z</time>
      </trkpt>
      <trkpt lat="43.54358" lon="5.7039">
        <ele>498.58</ele>
        <time>2014-03-30T11:56:38Z</time>
      </trkpt>
      <trkpt lat="43.54374" lon="5.70406">
        <ele>498.58</ele>
        <time>2014-03-30T11:56:56Z</time>
      </trkpt>
      <trkpt lat="43.54388" lon="5.70419">
        <ele>498.58</ele>
        <time>2014-03-30T11:57:10Z</time>
      </trkpt>
      <trkpt lat="43.544" lon="5.70433">
        <ele>498.1</ele>
        <time>2014-03-30T11:57:25Z</time>
      </trkpt>
      <trkpt lat="43.54422" lon="5.7045">
        <ele>498.1</ele>
        <time>2014-03-30T11:57:44Z</time>
      </trkpt>
      <trkpt lat="43.5444" lon="5.70462">
        <ele>498.58</ele>
        <time>2014-03-30T11:58:00Z</time>
      </trkpt>
      <trkpt lat="43.5446" lon="5.70474">
        <ele>498.1</ele>
        <time>2014-03-30T11:58:17Z</time>
      </trkpt>
      <trkpt lat="43.54464" lon="5.70479">
        <ele>498.1</ele>
        <time>2014-03-30T11:58:23Z</time>
      </trkpt>
      <trkpt lat="43.54481" lon="5.70493">
        <ele>498.58</ele>
        <time>2014-03-30T11:58:39Z</time>
      </trkpt>
      <trkpt lat="43.54491" lon="5.70498">
        <ele>498.1</ele>
        <time>2014-03-30T11:58:50Z</time>
      </trkpt>
      <trkpt lat="43.54508" lon="5.70506">
        <ele>498.1</ele>
        <time>2014-03-30T11:59:05Z</time>
      </trkpt>
      <trkpt lat="43.54523" lon="5.70507">
        <ele>497.62</ele>
        <time>2014-03-30T11:59:16Z</time>
      </trkpt>
      <trkpt lat="43.5453" lon="5.70513">
        <ele>497.14</ele>
        <time>2014-03-30T11:59:24Z</time>
      </trkpt>
      <trkpt lat="43.54542" lon="5.70518">
        <ele>497.62</ele>
        <time>2014-03-30T11:59:34Z</time>
      </trkpt>
      <trkpt lat="43.54559" lon="5.70511">
        <ele>498.1</ele>
        <time>2014-03-30T11:59:51Z</time>
      </trkpt>
      <trkpt lat="43.5456" lon="5.70512">
        <ele>498.1</ele>
        <time>2014-03-30T11:59:52Z</time>
      </trkpt>
      <trkpt lat="43.54577" lon="5.70514">
        <ele>497.62</ele>
        <time>2014-03-30T12:00:04Z</time>
      </trkpt>
      <trkpt lat="43.5459" lon="5.70513">
        <ele>497.62</ele>
        <time>2014-03-30T12:00:15Z</time>
      </trkpt>
      <trkpt lat="43.54603" lon="5.70514">
        <ele>497.62</ele>
        <time>2014-03-30T12:00:27Z</time>
      </trkpt>
      <trkpt lat="43.54604" lon="5.70515">
        <ele>497.62</ele>
        <time>2014-03-30T12:00:28Z</time>
      </trkpt>
      <trkpt lat="43.54618" lon="5.70522">
        <ele>498.1</ele>
        <time>2014-03-30T12:00:41Z</time>
      </trkpt>
      <trkpt lat="43.54619" lon="5.70522">
        <ele>498.1</ele>
        <time>2014-03-30T12:00:44Z</time>
      </trkpt>
      <trkpt lat="43.54622" lon="5.70521">
        <ele>497.62</ele>
        <time>2014-03-30T12:01:01Z</time>
      </trkpt>
      <trkpt lat="43.54623" lon="5.70521">
        <ele>497.62</ele>
        <time>2014-03-30T12:01:02Z</time>
      </trkpt>
      <trkpt lat="43.54626" lon="5.70524">
        <ele>499.06</ele>
        <time>2014-03-30T12:01:05Z</time>
      </trkpt>
      <trkpt lat="43.54634" lon="5.70528">
        <ele>498.58</ele>
        <time>2014-03-30T12:01:23Z</time>
      </trkpt>
      <trkpt lat="43.54632" lon="5.70534">
        <ele>497.62</ele>
        <time>2014-03-30T12:01:26Z</time>
      </trkpt>
      <trkpt lat="43.54632" lon="5.70554">
        <ele>496.18</ele>
        <time>2014-03-30T12:01:43Z</time>
      </trkpt>
      <trkpt lat="43.54631" lon="5.70557">
        <ele>496.18</ele>
        <time>2014-03-30T12:01:53Z</time>
      </trkpt>
      <trkpt lat="43.5462" lon="5.70558">
        <ele>495.7</ele>
        <time>2014-03-30T12:02:06Z</time>
      </trkpt>
      <trkpt lat="43.54607" lon="5.70579">
        <ele>495.7</ele>
        <time>2014-03-30T12:02:21Z</time>
      </trkpt>
      <trkpt lat="43.54607" lon="5.70581">
        <ele>496.66</ele>
        <time>2014-03-30T12:02:22Z</time>
      </trkpt>
      <trkpt lat="43.54604" lon="5.70586">
        <ele>495.22</ele>
        <time>2014-03-30T12:02:25Z</time>
      </trkpt>
      <trkpt lat="43.54585" lon="5.70601">
        <ele>491.85</ele>
        <time>2014-03-30T12:02:41Z</time>
      </trkpt>
      <trkpt lat="43.54577" lon="5.70604">
        <ele>491.37</ele>
        <time>2014-03-30T12:02:48Z</time>
      </trkpt>
      <trkpt lat="43.54558" lon="5.70608">
        <ele>492.33</ele>
        <time>2014-03-30T12:03:03Z</time>
      </trkpt>
      <trkpt lat="43.54546" lon="5.70615">
        <ele>491.85</ele>
        <time>2014-03-30T12:03:17Z</time>
      </trkpt>
      <trkpt lat="43.54547" lon="5.70618">
        <ele>492.33</ele>
        <time>2014-03-30T12:03:29Z</time>
      </trkpt>
      <trkpt lat="43.54547" lon="5.70621">
        <ele>491.85</ele>
        <time>2014-03-30T12:03:32Z</time>
      </trkpt>
      <trkpt lat="43.54547" lon="5.70622">
        <ele>491.85</ele>
        <time>2014-03-30T12:03:45Z</time>
      </trkpt>
      <trkpt lat="43.54546" lon="5.70616">
        <ele>491.85</ele>
        <time>2014-03-30T12:04:00Z</time>
      </trkpt>
      <trkpt lat="43.54545" lon="5.70617">
        <ele>491.37</ele>
        <time>2014-03-30T12:04:16Z</time>
      </trkpt>
      <trkpt lat="43.54545" lon="5.70616">
        <ele>491.37</ele>
        <time>2014-03-30T12:04:34Z</time>
      </trkpt>
      <trkpt lat="43.54545" lon="5.70614">
        <ele>490.89</ele>
        <time>2014-03-30T12:05:08Z</time>
      </trkpt>
      <trkpt lat="43.54545" lon="5.70613">
        <ele>491.85</ele>
        <time>2014-03-30T12:05:38Z</time>
      </trkpt>
      <trkpt lat="43.54545" lon="5.70613">
        <ele>491.85</ele>
        <time>2014-03-30T12:06:10Z</time>
      </trkpt>
      <trkpt lat="43.54545" lon="5.70612">
        <ele>492.33</ele>
        <time>2014-03-30T12:06:21Z</time>
      </trkpt>
      <trkpt lat="43.54544" lon="5.70612">
        <ele>491.85</ele>
        <time>2014-03-30T12:06:50Z</time>
      </trkpt>
      <trkpt lat="43.54544" lon="5.70612">
        <ele>491.37</ele>
        <time>2014-03-30T12:07:19Z</time>
      </trkpt>
      <trkpt lat="43.54544" lon="5.70612">
        <ele>491.85</ele>
        <time>2014-03-30T12:07:40Z</time>
      </trkpt>
      <trkpt lat="43.54544" lon="5.70613">
        <ele>491.37</ele>
        <time>2014-03-30T12:08:15Z</time>
      </trkpt>
      <trkpt lat="43.54544" lon="5.70613">
        <ele>492.33</ele>
        <time>2014-03-30T12:08:40Z</time>
      </trkpt>
      <trkpt lat="43.54544" lon="5.70614">
        <ele>492.33</ele>
        <time>2014-03-30T12:09:11Z</time>
      </trkpt>
      <trkpt lat="43.54544" lon="5.70613">
        <ele>492.81</ele>
        <time>2014-03-30T12:09:42Z</time>
      </trkpt>
      <trkpt lat="43.54544" lon="5.70613">
        <ele>492.33</ele>
        <time>2014-03-30T12:10:17Z</time>
      </trkpt>
      <trkpt lat="43.54544" lon="5.70613">
        <ele>491.85</ele>
        <time>2014-03-30T12:10:55Z</time>
      </trkpt>
      <trkpt lat="43.54544" lon="5.70613">
        <ele>492.33</ele>
        <time>2014-03-30T12:11:36Z</time>
      </trkpt>
      <trkpt lat="43.54544" lon="5.70613">
        <ele>492.33</ele>
        <time>2014-03-30T12:12:14Z</time>
      </trkpt>
      <trkpt lat="43.54544" lon="5.70613">
        <ele>492.33</ele>
        <time>2014-03-30T12:12:46Z</time>
      </trkpt>
      <trkpt lat="43.54544" lon="5.70613">
        <ele>492.81</ele>
        <time>2014-03-30T12:13:22Z</time>
      </trkpt>
      <trkpt lat="43.54544" lon="5.70613">
        <ele>492.81</ele>
        <time>2014-03-30T12:13:56Z</time>
      </trkpt>
      <trkpt lat="43.54544" lon="5.70613">
        <ele>492.33</ele>
        <time>2014-03-30T12:14:32Z</time>
      </trkpt>
      <trkpt lat="43.54544" lon="5.70613">
        <ele>492.33</ele>
        <time>2014-03-30T12:15:12Z</time>
      </trkpt>
      <trkpt lat="43.54543" lon="5.70613">
        <ele>492.81</ele>
        <time>2014-03-30T12:15:52Z</time>
      </trkpt>
      <trkpt lat="43.54543" lon="5.70613">
        <ele>492.81</ele>
        <time>2014-03-30T12:16:29Z</time>
      </trkpt>
      <trkpt lat="43.54543" lon="5.70613">
        <ele>492.33</ele>
        <time>2014-03-30T12:17:06Z</time>
      </trkpt>
      <trkpt lat="43.54543" lon="5.70612">
        <ele>492.81</ele>
        <time>2014-03-30T12:17:37Z</time>
      </trkpt>
      <trkpt lat="43.54543" lon="5.70612">
        <ele>491.85</ele>
        <time>2014-03-30T12:18:08Z</time>
      </trkpt>
      <trkpt lat="43.54543" lon="5.70612">
        <ele>492.33</ele>
        <time>2014-03-30T12:18:42Z</time>
      </trkpt>
      <trkpt lat="43.54542" lon="5.70612">
        <ele>492.33</ele>
        <time>2014-03-30T12:19:14Z</time>
      </trkpt>
      <trkpt lat="43.54542" lon="5.70612">
        <ele>492.33</ele>
        <time>2014-03-30T12:19:48Z</time>
      </trkpt>
      <trkpt lat="43.54542" lon="5.70612">
        <ele>492.33</ele>
        <time>2014-03-30T12:20:24Z</time>
      </trkpt>
      <trkpt lat="43.54542" lon="5.70612">
        <ele>492.33</ele>
        <time>2014-03-30T12:20:58Z</time>
      </trkpt>
      <trkpt lat="43.54542" lon="5.70611">
        <ele>492.33</ele>
        <time>2014-03-30T12:21:32Z</time>
      </trkpt>
      <trkpt lat="43.54542" lon="5.70612">
        <ele>492.33</ele>
        <time>2014-03-30T12:22:03Z</time>
      </trkpt>
      <trkpt lat="43.54542" lon="5.70612">
        <ele>492.33</ele>
        <time>2014-03-30T12:22:36Z</time>
      </trkpt>
      <trkpt lat="43.54542" lon="5.70612">
        <ele>491.85</ele>
        <time>2014-03-30T12:23:05Z</time>
      </trkpt>
      <trkpt lat="43.54542" lon="5.70611">
        <ele>492.33</ele>
        <time>2014-03-30T12:23:35Z</time>
      </trkpt>
      <trkpt lat="43.54542" lon="5.70612">
        <ele>492.33</ele>
        <time>2014-03-30T12:24:05Z</time>
      </trkpt>
      <trkpt lat="43.54542" lon="5.70612">
        <ele>492.33</ele>
        <time>2014-03-30T12:24:37Z</time>
      </trkpt>
      <trkpt lat="43.54542" lon="5.70612">
        <ele>491.85</ele>
        <time>2014-03-30T12:25:05Z</time>
      </trkpt>
      <trkpt lat="43.54542" lon="5.70612">
        <ele>491.85</ele>
        <time>2014-03-30T12:25:38Z</time>
      </trkpt>
      <trkpt lat="43.54542" lon="5.70612">
        <ele>492.81</ele>
        <time>2014-03-30T12:25:59Z</time>
      </trkpt>
      <trkpt lat="43.54542" lon="5.70612">
        <ele>492.33</ele>
        <time>2014-03-30T12:26:28Z</time>
      </trkpt>
      <trkpt lat="43.54542" lon="5.70612">
        <ele>492.33</ele>
        <time>2014-03-30T12:27:03Z</time>
      </trkpt>
      <trkpt lat="43.54542" lon="5.70611">
        <ele>492.81</ele>
        <time>2014-03-30T12:27:35Z</time>
      </trkpt>
      <trkpt lat="43.54542" lon="5.70611">
        <ele>492.81</ele>
        <time>2014-03-30T12:28:03Z</time>
      </trkpt>
      <trkpt lat="43.54542" lon="5.70611">
        <ele>492.33</ele>
        <time>2014-03-30T12:28:36Z</time>
      </trkpt>
      <trkpt lat="43.54542" lon="5.70611">
        <ele>492.81</ele>
        <time>2014-03-30T12:29:09Z</time>
      </trkpt>
      <trkpt lat="43.54542" lon="5.70611">
        <ele>492.33</ele>
        <time>2014-03-30T12:29:39Z</time>
      </trkpt>
      <trkpt lat="43.54542" lon="5.70611">
        <ele>492.81</ele>
        <time>2014-03-30T12:30:02Z</time>
      </trkpt>
      <trkpt lat="43.54542" lon="5.70611">
        <ele>491.85</ele>
        <time>2014-03-30T12:30:33Z</time>
      </trkpt>
      <trkpt lat="43.54542" lon="5.70611">
        <ele>492.33</ele>
        <time>2014-03-30T12:31:05Z</time>
      </trkpt>
      <trkpt lat="43.54542" lon="5.70611">
        <ele>491.85</ele>
        <time>2014-03-30T12:31:38Z</time>
      </trkpt>
      <trkpt lat="43.54541" lon="5.70611">
        <ele>491.85</ele>
        <time>2014-03-30T12:32:05Z</time>
      </trkpt>
      <trkpt lat="43.54541" lon="5.70611">
        <ele>492.33</ele>
        <time>2014-03-30T12:32:38Z</time>
      </trkpt>
      <trkpt lat="43.54541" lon="5.7061">
        <ele>492.33</ele>
        <time>2014-03-30T12:33:13Z</time>
      </trkpt>
      <trkpt lat="43.54541" lon="5.70611">
        <ele>492.81</ele>
        <time>2014-03-30T12:33:46Z</time>
      </trkpt>
      <trkpt lat="43.54541" lon="5.70611">
        <ele>492.33</ele>
        <time>2014-03-30T12:34:19Z</time>
      </trkpt>
      <trkpt lat="43.54541" lon="5.70611">
        <ele>492.81</ele>
        <time>2014-03-30T12:34:54Z</time>
      </trkpt>
      <trkpt lat="43.54541" lon="5.70611">
        <ele>492.81</ele>
        <time>2014-03-30T12:35:31Z</time>
      </trkpt>
      <trkpt lat="43.54541" lon="5.70611">
        <ele>492.81</ele>
        <time>2014-03-30T12:36:08Z</time>
      </trkpt>
      <trkpt lat="43.5454" lon="5.70612">
        <ele>492.33</ele>
        <time>2014-03-30T12:36:45Z</time>
      </trkpt>
      <trkpt lat="43.54541" lon="5.70612">
        <ele>492.33</ele>
        <time>2014-03-30T12:37:18Z</time>
      </trkpt>
      <trkpt lat="43.5454" lon="5.70612">
        <ele>492.33</ele>
        <time>2014-03-30T12:37:51Z</time>
      </trkpt>
      <trkpt lat="43.5454" lon="5.70612">
        <ele>492.81</ele>
        <time>2014-03-30T12:38:28Z</time>
      </trkpt>
      <trkpt lat="43.5454" lon="5.70611">
        <ele>491.85</ele>
        <time>2014-03-30T12:38:57Z</time>
      </trkpt>
      <trkpt lat="43.5454" lon="5.70612">
        <ele>492.33</ele>
        <time>2014-03-30T12:39:32Z</time>
      </trkpt>
      <trkpt lat="43.54541" lon="5.70612">
        <ele>491.85</ele>
        <time>2014-03-30T12:39:54Z</time>
      </trkpt>
      <trkpt lat="43.54541" lon="5.70612">
        <ele>492.33</ele>
        <time>2014-03-30T12:40:24Z</time>
      </trkpt>
      <trkpt lat="43.54541" lon="5.70612">
        <ele>493.29</ele>
        <time>2014-03-30T12:40:50Z</time>
      </trkpt>
      <trkpt lat="43.54541" lon="5.70612">
        <ele>493.29</ele>
        <time>2014-03-30T12:40:51Z</time>
      </trkpt>
      <trkpt lat="43.54541" lon="5.70612">
        <ele>491.85</ele>
        <time>2014-03-30T12:41:21Z</time>
      </trkpt>
      <trkpt lat="43.5454" lon="5.70611">
        <ele>492.81</ele>
        <time>2014-03-30T12:41:42Z</time>
      </trkpt>
      <trkpt lat="43.54541" lon="5.7061">
        <ele>492.33</ele>
        <time>2014-03-30T12:42:05Z</time>
      </trkpt>
      <trkpt lat="43.54542" lon="5.70612">
        <ele>492.33</ele>
        <time>2014-03-30T12:42:21Z</time>
      </trkpt>
      <trkpt lat="43.54543" lon="5.7061">
        <ele>492.33</ele>
        <time>2014-03-30T12:42:46Z</time>
      </trkpt>
      <trkpt lat="43.54542" lon="5.70614">
        <ele>492.33</ele>
        <time>2014-03-30T12:43:11Z</time>
      </trkpt>
      <trkpt lat="43.54542" lon="5.70615">
        <ele>492.33</ele>
        <time>2014-03-30T12:43:34Z</time>
      </trkpt>
      <trkpt lat="43.54541" lon="5.70614">
        <ele>491.37</ele>
        <time>2014-03-30T12:44:08Z</time>
      </trkpt>
      <trkpt lat="43.54541" lon="5.70614">
        <ele>492.81</ele>
        <time>2014-03-30T12:44:11Z</time>
      </trkpt>
      <trkpt lat="43.54541" lon="5.70614">
        <ele>492.33</ele>
        <time>2014-03-30T12:44:37Z</time>
      </trkpt>
      <trkpt lat="43.54541" lon="5.70614">
        <ele>492.33</ele>
        <time>2014-03-30T12:45:04Z</time>
      </trkpt>
      <trkpt lat="43.5454" lon="5.70614">
        <ele>492.33</ele>
        <time>2014-03-30T12:45:32Z</time>
      </trkpt>
      <trkpt lat="43.54541" lon="5.70613">
        <ele>492.33</ele>
        <time>2014-03-30T12:46:03Z</time>
      </trkpt>
      <trkpt lat="43.54541" lon="5.70613">
        <ele>492.33</ele>
        <time>2014-03-30T12:46:28Z</time>
      </trkpt>
      <trkpt lat="43.54541" lon="5.70613">
        <ele>492.33</ele>
        <time>2014-03-30T12:47:05Z</time>
      </trkpt>
      <trkpt lat="43.54541" lon="5.70613">
        <ele>493.29</ele>
        <time>2014-03-30T12:47:35Z</time>
      </trkpt>
      <trkpt lat="43.54541" lon="5.70611">
        <ele>493.29</ele>
        <time>2014-03-30T12:47:53Z</time>
      </trkpt>
      <trkpt lat="43.54541" lon="5.70612">
        <ele>491.85</ele>
        <time>2014-03-30T12:48:09Z</time>
      </trkpt>
      <trkpt lat="43.54542" lon="5.70612">
        <ele>493.29</ele>
        <time>2014-03-30T12:48:29Z</time>
      </trkpt>
      <trkpt lat="43.54542" lon="5.70613">
        <ele>493.29</ele>
        <time>2014-03-30T12:48:57Z</time>
      </trkpt>
      <trkpt lat="43.54542" lon="5.70614">
        <ele>493.29</ele>
        <time>2014-03-30T12:49:16Z</time>
      </trkpt>
      <trkpt lat="43.54542" lon="5.70614">
        <ele>493.29</ele>
        <time>2014-03-30T12:49:41Z</time>
      </trkpt>
      <trkpt lat="43.54543" lon="5.70615">
        <ele>493.77</ele>
        <time>2014-03-30T12:50:03Z</time>
      </trkpt>
      <trkpt lat="43.54544" lon="5.70614">
        <ele>494.26</ele>
        <time>2014-03-30T12:50:29Z</time>
      </trkpt>
      <trkpt lat="43.54543" lon="5.70615">
        <ele>494.26</ele>
        <time>2014-03-30T12:50:56Z</time>
      </trkpt>
      <trkpt lat="43.54543" lon="5.70616">
        <ele>494.26</ele>
        <time>2014-03-30T12:51:26Z</time>
      </trkpt>
      <trkpt lat="43.54543" lon="5.70616">
        <ele>493.77</ele>
        <time>2014-03-30T12:51:49Z</time>
      </trkpt>
      <trkpt lat="43.54546" lon="5.7062">
        <ele>494.74</ele>
        <time>2014-03-30T12:52:07Z</time>
      </trkpt>
      <trkpt lat="43.54551" lon="5.70623">
        <ele>493.77</ele>
        <time>2014-03-30T12:52:11Z</time>
      </trkpt>
      <trkpt lat="43.54554" lon="5.70626">
        <ele>493.77</ele>
        <time>2014-03-30T12:52:15Z</time>
      </trkpt>
      <trkpt lat="43.54561" lon="5.70634">
        <ele>493.77</ele>
        <time>2014-03-30T12:52:23Z</time>
      </trkpt>
      <trkpt lat="43.54571" lon="5.70654">
        <ele>492.33</ele>
        <time>2014-03-30T12:52:40Z</time>
      </trkpt>
      <trkpt lat="43.54576" lon="5.70672">
        <ele>492.81</ele>
        <time>2014-03-30T12:52:57Z</time>
      </trkpt>
      <trkpt lat="43.54589" lon="5.70688">
        <ele>492.33</ele>
        <time>2014-03-30T12:53:15Z</time>
      </trkpt>
      <trkpt lat="43.5459" lon="5.70706">
        <ele>492.81</ele>
        <time>2014-03-30T12:53:27Z</time>
      </trkpt>
      <trkpt lat="43.5459" lon="5.70728">
        <ele>492.33</ele>
        <time>2014-03-30T12:53:43Z</time>
      </trkpt>
      <trkpt lat="43.54581" lon="5.70757">
        <ele>491.37</ele>
        <time>2014-03-30T12:54:04Z</time>
      </trkpt>
      <trkpt lat="43.54572" lon="5.7078">
        <ele>490.41</ele>
        <time>2014-03-30T12:54:22Z</time>
      </trkpt>
      <trkpt lat="43.54561" lon="5.70806">
        <ele>488.97</ele>
        <time>2014-03-30T12:54:41Z</time>
      </trkpt>
      <trkpt lat="43.54559" lon="5.70811">
        <ele>488.49</ele>
        <time>2014-03-30T12:54:47Z</time>
      </trkpt>
      <trkpt lat="43.54551" lon="5.70825">
        <ele>488.49</ele>
        <time>2014-03-30T12:54:57Z</time>
      </trkpt>
      <trkpt lat="43.5454" lon="5.70843">
        <ele>487.53</ele>
        <time>2014-03-30T12:55:09Z</time>
      </trkpt>
      <trkpt lat="43.54535" lon="5.70867">
        <ele>486.56</ele>
        <time>2014-03-30T12:55:23Z</time>
      </trkpt>
      <trkpt lat="43.54532" lon="5.70872">
        <ele>486.56</ele>
        <time>2014-03-30T12:55:27Z</time>
      </trkpt>
      <trkpt lat="43.54521" lon="5.70892">
        <ele>486.08</ele>
        <time>2014-03-30T12:55:43Z</time>
      </trkpt>
      <trkpt lat="43.54512" lon="5.70909">
        <ele>485.12</ele>
        <time>2014-03-30T12:55:57Z</time>
      </trkpt>
      <trkpt lat="43.54506" lon="5.70928">
        <ele>485.12</ele>
        <time>2014-03-30T12:56:11Z</time>
      </trkpt>
      <trkpt lat="43.54503" lon="5.70944">
        <ele>485.12</ele>
        <time>2014-03-30T12:56:20Z</time>
      </trkpt>
      <trkpt lat="43.54501" lon="5.7095">
        <ele>485.12</ele>
        <time>2014-03-30T12:56:24Z</time>
      </trkpt>
      <trkpt lat="43.54489" lon="5.70965">
        <ele>485.12</ele>
        <time>2014-03-30T12:56:43Z</time>
      </trkpt>
      <trkpt lat="43.54482" lon="5.70978">
        <ele>485.12</ele>
        <time>2014-03-30T12:57:01Z</time>
      </trkpt>
      <trkpt lat="43.54469" lon="5.70993">
        <ele>486.08</ele>
        <time>2014-03-30T12:57:17Z</time>
      </trkpt>
      <trkpt lat="43.54464" lon="5.70998">
        <ele>486.56</ele>
        <time>2014-03-30T12:57:21Z</time>
      </trkpt>
      <trkpt lat="43.54455" lon="5.71011">
        <ele>486.08</ele>
        <time>2014-03-30T12:57:30Z</time>
      </trkpt>
      <trkpt lat="43.54449" lon="5.71019">
        <ele>486.08</ele>
        <time>2014-03-30T12:57:44Z</time>
      </trkpt>
      <trkpt lat="43.54448" lon="5.71019">
        <ele>486.08</ele>
        <time>2014-03-30T12:58:05Z</time>
      </trkpt>
      <trkpt lat="43.54453" lon="5.71017">
        <ele>486.56</ele>
        <time>2014-03-30T12:58:24Z</time>
      </trkpt>
      <trkpt lat="43.54446" lon="5.71038">
        <ele>485.6</ele>
        <time>2014-03-30T12:58:40Z</time>
      </trkpt>
      <trkpt lat="43.54439" lon="5.7106">
        <ele>485.6</ele>
        <time>2014-03-30T12:58:57Z</time>
      </trkpt>
      <trkpt lat="43.54428" lon="5.71073">
        <ele>485.6</ele>
        <time>2014-03-30T12:59:13Z</time>
      </trkpt>
      <trkpt lat="43.54417" lon="5.71088">
        <ele>485.6</ele>
        <time>2014-03-30T12:59:29Z</time>
      </trkpt>
      <trkpt lat="43.54409" lon="5.71103">
        <ele>485.12</ele>
        <time>2014-03-30T12:59:38Z</time>
      </trkpt>
      <trkpt lat="43.544" lon="5.71118">
        <ele>485.12</ele>
        <time>2014-03-30T12:59:51Z</time>
      </trkpt>
      <trkpt lat="43.54389" lon="5.71136">
        <ele>484.16</ele>
        <time>2014-03-30T13:00:06Z</time>
      </trkpt>
      <trkpt lat="43.5438" lon="5.71164">
        <ele>484.64</ele>
        <time>2014-03-30T13:00:26Z</time>
      </trkpt>
      <trkpt lat="43.54378" lon="5.71169">
        <ele>484.64</ele>
        <time>2014-03-30T13:00:30Z</time>
      </trkpt>
      <trkpt lat="43.54376" lon="5.71174">
        <ele>484.16</ele>
        <time>2014-03-30T13:00:33Z</time>
      </trkpt>
      <trkpt lat="43.54364" lon="5.71197">
        <ele>484.16</ele>
        <time>2014-03-30T13:00:51Z</time>
      </trkpt>
      <trkpt lat="43.54363" lon="5.712">
        <ele>484.16</ele>
        <time>2014-03-30T13:00:53Z</time>
      </trkpt>
      <trkpt lat="43.54354" lon="5.71224">
        <ele>484.16</ele>
        <time>2014-03-30T13:01:09Z</time>
      </trkpt>
      <trkpt lat="43.54354" lon="5.71229">
        <ele>483.68</ele>
        <time>2014-03-30T13:01:13Z</time>
      </trkpt>
      <trkpt lat="43.54355" lon="5.71236">
        <ele>483.68</ele>
        <time>2014-03-30T13:01:17Z</time>
      </trkpt>
      <trkpt lat="43.54361" lon="5.7126">
        <ele>482.24</ele>
        <time>2014-03-30T13:01:33Z</time>
      </trkpt>
      <trkpt lat="43.54366" lon="5.71282">
        <ele>482.24</ele>
        <time>2014-03-30T13:01:47Z</time>
      </trkpt>
      <trkpt lat="43.54371" lon="5.71303">
        <ele>481.76</ele>
        <time>2014-03-30T13:02:00Z</time>
      </trkpt>
      <trkpt lat="43.54376" lon="5.71329">
        <ele>481.28</ele>
        <time>2014-03-30T13:02:17Z</time>
      </trkpt>
      <trkpt lat="43.54383" lon="5.7135">
        <ele>480.32</ele>
        <time>2014-03-30T13:02:31Z</time>
      </trkpt>
      <trkpt lat="43.54391" lon="5.71375">
        <ele>480.32</ele>
        <time>2014-03-30T13:02:46Z</time>
      </trkpt>
      <trkpt lat="43.54395" lon="5.71391">
        <ele>479.84</ele>
        <time>2014-03-30T13:02:56Z</time>
      </trkpt>
      <trkpt lat="43.544" lon="5.71403">
        <ele>479.84</ele>
        <time>2014-03-30T13:03:04Z</time>
      </trkpt>
      <trkpt lat="43.54399" lon="5.71424">
        <ele>478.87</ele>
        <time>2014-03-30T13:03:18Z</time>
      </trkpt>
      <trkpt lat="43.54391" lon="5.71437">
        <ele>478.39</ele>
        <time>2014-03-30T13:03:35Z</time>
      </trkpt>
      <trkpt lat="43.54381" lon="5.7145">
        <ele>478.39</ele>
        <time>2014-03-30T13:03:53Z</time>
      </trkpt>
      <trkpt lat="43.54365" lon="5.71441">
        <ele>478.39</ele>
        <time>2014-03-30T13:04:11Z</time>
      </trkpt>
      <trkpt lat="43.54348" lon="5.71439">
        <ele>479.35</ele>
        <time>2014-03-30T13:04:25Z</time>
      </trkpt>
      <trkpt lat="43.54329" lon="5.71447">
        <ele>479.35</ele>
        <time>2014-03-30T13:04:42Z</time>
      </trkpt>
      <trkpt lat="43.54315" lon="5.71463">
        <ele>480.32</ele>
        <time>2014-03-30T13:04:54Z</time>
      </trkpt>
      <trkpt lat="43.54295" lon="5.71478">
        <ele>480.8</ele>
        <time>2014-03-30T13:05:12Z</time>
      </trkpt>
      <trkpt lat="43.54274" lon="5.71491">
        <ele>481.28</ele>
        <time>2014-03-30T13:05:31Z</time>
      </trkpt>
      <trkpt lat="43.54259" lon="5.71509">
        <ele>481.76</ele>
        <time>2014-03-30T13:05:48Z</time>
      </trkpt>
      <trkpt lat="43.54246" lon="5.71521">
        <ele>482.72</ele>
        <time>2014-03-30T13:06:05Z</time>
      </trkpt>
      <trkpt lat="43.54237" lon="5.71532">
        <ele>482.72</ele>
        <time>2014-03-30T13:06:19Z</time>
      </trkpt>
      <trkpt lat="43.54224" lon="5.71545">
        <ele>483.2</ele>
        <time>2014-03-30T13:06:35Z</time>
      </trkpt>
      <trkpt lat="43.54205" lon="5.71566">
        <ele>484.64</ele>
        <time>2014-03-30T13:06:53Z</time>
      </trkpt>
      <trkpt lat="43.54184" lon="5.71582">
        <ele>484.64</ele>
        <time>2014-03-30T13:07:13Z</time>
      </trkpt>
      <trkpt lat="43.5417" lon="5.716">
        <ele>486.08</ele>
        <time>2014-03-30T13:07:29Z</time>
      </trkpt>
      <trkpt lat="43.54157" lon="5.71609">
        <ele>485.6</ele>
        <time>2014-03-30T13:07:46Z</time>
      </trkpt>
      <trkpt lat="43.54148" lon="5.7162">
        <ele>486.08</ele>
        <time>2014-03-30T13:07:56Z</time>
      </trkpt>
      <trkpt lat="43.54137" lon="5.71637">
        <ele>487.05</ele>
        <time>2014-03-30T13:08:11Z</time>
      </trkpt>
      <trkpt lat="43.54123" lon="5.71651">
        <ele>487.53</ele>
        <time>2014-03-30T13:08:28Z</time>
      </trkpt>
      <trkpt lat="43.54115" lon="5.71662">
        <ele>488.49</ele>
        <time>2014-03-30T13:08:39Z</time>
      </trkpt>
      <trkpt lat="43.5411" lon="5.71668">
        <ele>489.45</ele>
        <time>2014-03-30T13:08:43Z</time>
      </trkpt>
      <trkpt lat="43.54098" lon="5.71686">
        <ele>489.45</ele>
        <time>2014-03-30T13:08:59Z</time>
      </trkpt>
      <trkpt lat="43.54089" lon="5.71709">
        <ele>490.41</ele>
        <time>2014-03-30T13:09:17Z</time>
      </trkpt>
      <trkpt lat="43.5409" lon="5.7173">
        <ele>491.85</ele>
        <time>2014-03-30T13:09:30Z</time>
      </trkpt>
      <trkpt lat="43.54089" lon="5.71744">
        <ele>492.81</ele>
        <time>2014-03-30T13:09:43Z</time>
      </trkpt>
      <trkpt lat="43.54091" lon="5.71765">
        <ele>494.74</ele>
        <time>2014-03-30T13:09:59Z</time>
      </trkpt>
      <trkpt lat="43.5409" lon="5.71786">
        <ele>496.66</ele>
        <time>2014-03-30T13:10:14Z</time>
      </trkpt>
      <trkpt lat="43.54084" lon="5.71798">
        <ele>497.14</ele>
        <time>2014-03-30T13:10:23Z</time>
      </trkpt>
      <trkpt lat="43.5408" lon="5.7182">
        <ele>498.1</ele>
        <time>2014-03-30T13:10:41Z</time>
      </trkpt>
      <trkpt lat="43.54073" lon="5.71833">
        <ele>500.5</ele>
        <time>2014-03-30T13:10:54Z</time>
      </trkpt>
      <trkpt lat="43.54075" lon="5.71853">
        <ele>501.46</ele>
        <time>2014-03-30T13:11:10Z</time>
      </trkpt>
      <trkpt lat="43.54073" lon="5.71873">
        <ele>504.83</ele>
        <time>2014-03-30T13:11:28Z</time>
      </trkpt>
      <trkpt lat="43.54069" lon="5.71897">
        <ele>506.75</ele>
        <time>2014-03-30T13:11:46Z</time>
      </trkpt>
      <trkpt lat="43.54064" lon="5.71918">
        <ele>509.16</ele>
        <time>2014-03-30T13:12:01Z</time>
      </trkpt>
      <trkpt lat="43.54068" lon="5.71932">
        <ele>509.64</ele>
        <time>2014-03-30T13:12:14Z</time>
      </trkpt>
      <trkpt lat="43.5407" lon="5.71943">
        <ele>511.08</ele>
        <time>2014-03-30T13:12:27Z</time>
      </trkpt>
      <trkpt lat="43.54072" lon="5.71953">
        <ele>511.08</ele>
        <time>2014-03-30T13:12:42Z</time>
      </trkpt>
      <trkpt lat="43.54073" lon="5.71959">
        <ele>510.6</ele>
        <time>2014-03-30T13:12:46Z</time>
      </trkpt>
      <trkpt lat="43.54077" lon="5.71978">
        <ele>510.12</ele>
        <time>2014-03-30T13:13:02Z</time>
      </trkpt>
      <trkpt lat="43.54077" lon="5.71979">
        <ele>510.12</ele>
        <time>2014-03-30T13:13:03Z</time>
      </trkpt>
      <trkpt lat="43.54078" lon="5.71982">
        <ele>509.64</ele>
        <time>2014-03-30T13:13:05Z</time>
      </trkpt>
      <trkpt lat="43.54085" lon="5.72004">
        <ele>507.71</ele>
        <time>2014-03-30T13:13:21Z</time>
      </trkpt>
      <trkpt lat="43.54085" lon="5.72005">
        <ele>507.23</ele>
        <time>2014-03-30T13:13:22Z</time>
      </trkpt>
      <trkpt lat="43.5408" lon="5.72026">
        <ele>504.83</ele>
        <time>2014-03-30T13:13:38Z</time>
      </trkpt>
      <trkpt lat="43.5408" lon="5.72027">
        <ele>504.83</ele>
        <time>2014-03-30T13:13:39Z</time>
      </trkpt>
      <trkpt lat="43.54077" lon="5.72034">
        <ele>503.87</ele>
        <time>2014-03-30T13:13:44Z</time>
      </trkpt>
      <trkpt lat="43.5407" lon="5.72051">
        <ele>500.98</ele>
        <time>2014-03-30T13:14:02Z</time>
      </trkpt>
      <trkpt lat="43.54062" lon="5.72071">
        <ele>499.54</ele>
        <time>2014-03-30T13:14:16Z</time>
      </trkpt>
      <trkpt lat="43.54061" lon="5.72088">
        <ele>498.58</ele>
        <time>2014-03-30T13:14:31Z</time>
      </trkpt>
      <trkpt lat="43.54057" lon="5.72111">
        <ele>497.14</ele>
        <time>2014-03-30T13:14:47Z</time>
      </trkpt>
      <trkpt lat="43.54049" lon="5.72128">
        <ele>494.74</ele>
        <time>2014-03-30T13:15:05Z</time>
      </trkpt>
      <trkpt lat="43.54044" lon="5.72148">
        <ele>493.29</ele>
        <time>2014-03-30T13:15:17Z</time>
      </trkpt>
      <trkpt lat="43.54039" lon="5.7217">
        <ele>492.33</ele>
        <time>2014-03-30T13:15:32Z</time>
      </trkpt>
      <trkpt lat="43.54033" lon="5.72188">
        <ele>490.41</ele>
        <time>2014-03-30T13:15:45Z</time>
      </trkpt>
      <trkpt lat="43.5403" lon="5.72208">
        <ele>489.93</ele>
        <time>2014-03-30T13:16:00Z</time>
      </trkpt>
      <trkpt lat="43.54027" lon="5.72222">
        <ele>488.49</ele>
        <time>2014-03-30T13:16:11Z</time>
      </trkpt>
      <trkpt lat="43.54021" lon="5.72239">
        <ele>487.53</ele>
        <time>2014-03-30T13:16:24Z</time>
      </trkpt>
      <trkpt lat="43.54012" lon="5.72259">
        <ele>486.08</ele>
        <time>2014-03-30T13:16:39Z</time>
      </trkpt>
      <trkpt lat="43.54002" lon="5.72273">
        <ele>485.12</ele>
        <time>2014-03-30T13:16:54Z</time>
      </trkpt>
      <trkpt lat="43.53987" lon="5.72293">
        <ele>483.2</ele>
        <time>2014-03-30T13:17:12Z</time>
      </trkpt>
      <trkpt lat="43.53973" lon="5.72315">
        <ele>483.2</ele>
        <time>2014-03-30T13:17:29Z</time>
      </trkpt>
      <trkpt lat="43.53964" lon="5.72336">
        <ele>482.72</ele>
        <time>2014-03-30T13:17:44Z</time>
      </trkpt>
      <trkpt lat="43.53954" lon="5.72355">
        <ele>481.28</ele>
        <time>2014-03-30T13:18:02Z</time>
      </trkpt>
      <trkpt lat="43.53952" lon="5.72363">
        <ele>480.8</ele>
        <time>2014-03-30T13:18:09Z</time>
      </trkpt>
      <trkpt lat="43.5394" lon="5.72383">
        <ele>478.87</ele>
        <time>2014-03-30T13:18:26Z</time>
      </trkpt>
      <trkpt lat="43.53924" lon="5.72405">
        <ele>477.91</ele>
        <time>2014-03-30T13:18:46Z</time>
      </trkpt>
      <trkpt lat="43.5392" lon="5.72425">
        <ele>477.43</ele>
        <time>2014-03-30T13:19:00Z</time>
      </trkpt>
      <trkpt lat="43.5392" lon="5.72429">
        <ele>476.95</ele>
        <time>2014-03-30T13:19:02Z</time>
      </trkpt>
      <trkpt lat="43.53918" lon="5.72452">
        <ele>475.99</ele>
        <time>2014-03-30T13:19:16Z</time>
      </trkpt>
      <trkpt lat="43.53917" lon="5.7246">
        <ele>475.51</ele>
        <time>2014-03-30T13:19:21Z</time>
      </trkpt>
      <trkpt lat="43.53917" lon="5.72482">
        <ele>475.51</ele>
        <time>2014-03-30T13:19:36Z</time>
      </trkpt>
      <trkpt lat="43.53905" lon="5.72502">
        <ele>474.55</ele>
        <time>2014-03-30T13:19:54Z</time>
      </trkpt>
      <trkpt lat="43.53894" lon="5.72514">
        <ele>473.59</ele>
        <time>2014-03-30T13:20:06Z</time>
      </trkpt>
      <trkpt lat="43.53887" lon="5.72538">
        <ele>472.63</ele>
        <time>2014-03-30T13:20:23Z</time>
      </trkpt>
      <trkpt lat="43.53873" lon="5.72562">
        <ele>471.18</ele>
        <time>2014-03-30T13:20:41Z</time>
      </trkpt>
      <trkpt lat="43.53866" lon="5.72582">
        <ele>471.18</ele>
        <time>2014-03-30T13:20:56Z</time>
      </trkpt>
      <trkpt lat="43.53845" lon="5.72599">
        <ele>471.18</ele>
        <time>2014-03-30T13:21:14Z</time>
      </trkpt>
      <trkpt lat="43.53832" lon="5.72617">
        <ele>470.7</ele>
        <time>2014-03-30T13:21:31Z</time>
      </trkpt>
      <trkpt lat="43.53826" lon="5.72619">
        <ele>470.7</ele>
        <time>2014-03-30T13:21:48Z</time>
      </trkpt>
      <trkpt lat="43.53825" lon="5.72618">
        <ele>470.7</ele>
        <time>2014-03-30T13:22:07Z</time>
      </trkpt>
      <trkpt lat="43.53825" lon="5.72615">
        <ele>471.18</ele>
        <time>2014-03-30T13:22:31Z</time>
      </trkpt>
      <trkpt lat="43.53824" lon="5.72615">
        <ele>470.7</ele>
        <time>2014-03-30T13:22:52Z</time>
      </trkpt>
      <trkpt lat="43.53825" lon="5.72616">
        <ele>471.18</ele>
        <time>2014-03-30T13:23:21Z</time>
      </trkpt>
      <trkpt lat="43.53824" lon="5.72616">
        <ele>471.66</ele>
        <time>2014-03-30T13:23:39Z</time>
      </trkpt>
      <trkpt lat="43.53823" lon="5.72615">
        <ele>471.66</ele>
        <time>2014-03-30T13:23:41Z</time>
      </trkpt>
      <trkpt lat="43.53814" lon="5.72608">
        <ele>472.63</ele>
        <time>2014-03-30T13:23:50Z</time>
      </trkpt>
      <trkpt lat="43.53794" lon="5.72606">
        <ele>473.11</ele>
        <time>2014-03-30T13:24:06Z</time>
      </trkpt>
      <trkpt lat="43.53768" lon="5.72611">
        <ele>473.11</ele>
        <time>2014-03-30T13:24:26Z</time>
      </trkpt>
      <trkpt lat="43.53748" lon="5.72606">
        <ele>474.07</ele>
        <time>2014-03-30T13:24:44Z</time>
      </trkpt>
      <trkpt lat="43.53726" lon="5.72601">
        <ele>473.59</ele>
        <time>2014-03-30T13:25:03Z</time>
      </trkpt>
      <trkpt lat="43.53703" lon="5.7259">
        <ele>474.07</ele>
        <time>2014-03-30T13:25:22Z</time>
      </trkpt>
      <trkpt lat="43.53682" lon="5.72576">
        <ele>473.11</ele>
        <time>2014-03-30T13:25:42Z</time>
      </trkpt>
      <trkpt lat="43.5366" lon="5.72563">
        <ele>473.59</ele>
        <time>2014-03-30T13:26:01Z</time>
      </trkpt>
      <trkpt lat="43.53641" lon="5.72551">
        <ele>473.11</ele>
        <time>2014-03-30T13:26:18Z</time>
      </trkpt>
      <trkpt lat="43.53621" lon="5.7254">
        <ele>473.59</ele>
        <time>2014-03-30T13:26:37Z</time>
      </trkpt>
      <trkpt lat="43.53598" lon="5.72526">
        <ele>474.07</ele>
        <time>2014-03-30T13:26:59Z</time>
      </trkpt>
      <trkpt lat="43.53578" lon="5.72519">
        <ele>474.55</ele>
        <time>2014-03-30T13:27:16Z</time>
      </trkpt>
      <trkpt lat="43.53556" lon="5.72512">
        <ele>474.07</ele>
        <time>2014-03-30T13:27:35Z</time>
      </trkpt>
      <trkpt lat="43.53533" lon="5.72511">
        <ele>473.11</ele>
        <time>2014-03-30T13:27:52Z</time>
      </trkpt>
      <trkpt lat="43.53512" lon="5.72514">
        <ele>472.63</ele>
        <time>2014-03-30T13:28:10Z</time>
      </trkpt>
      <trkpt lat="43.53495" lon="5.72519">
        <ele>472.63</ele>
        <time>2014-03-30T13:28:24Z</time>
      </trkpt>
      <trkpt lat="43.53476" lon="5.72521">
        <ele>471.66</ele>
        <time>2014-03-30T13:28:39Z</time>
      </trkpt>
      <trkpt lat="43.53454" lon="5.72521">
        <ele>470.22</ele>
        <time>2014-03-30T13:28:57Z</time>
      </trkpt>
      <trkpt lat="43.53434" lon="5.72516">
        <ele>469.74</ele>
        <time>2014-03-30T13:29:14Z</time>
      </trkpt>
      <trkpt lat="43.53414" lon="5.72508">
        <ele>469.74</ele>
        <time>2014-03-30T13:29:31Z</time>
      </trkpt>
      <trkpt lat="43.53395" lon="5.72499">
        <ele>469.74</ele>
        <time>2014-03-30T13:29:47Z</time>
      </trkpt>
      <trkpt lat="43.53378" lon="5.72494">
        <ele>469.26</ele>
        <time>2014-03-30T13:30:02Z</time>
      </trkpt>
      <trkpt lat="43.53367" lon="5.72497">
        <ele>469.26</ele>
        <time>2014-03-30T13:30:11Z</time>
      </trkpt>
      <trkpt lat="43.53354" lon="5.72505">
        <ele>469.74</ele>
        <time>2014-03-30T13:30:24Z</time>
      </trkpt>
      <trkpt lat="43.5334" lon="5.72512">
        <ele>470.7</ele>
        <time>2014-03-30T13:30:39Z</time>
      </trkpt>
      <trkpt lat="43.53322" lon="5.72526">
        <ele>470.22</ele>
        <time>2014-03-30T13:30:56Z</time>
      </trkpt>
      <trkpt lat="43.53308" lon="5.72545">
        <ele>470.7</ele>
        <time>2014-03-30T13:31:13Z</time>
      </trkpt>
      <trkpt lat="43.53299" lon="5.72558">
        <ele>469.74</ele>
        <time>2014-03-30T13:31:23Z</time>
      </trkpt>
      <trkpt lat="43.53288" lon="5.72579">
        <ele>469.26</ele>
        <time>2014-03-30T13:31:38Z</time>
      </trkpt>
      <trkpt lat="43.53274" lon="5.72599">
        <ele>468.78</ele>
        <time>2014-03-30T13:31:55Z</time>
      </trkpt>
      <trkpt lat="43.53265" lon="5.72609">
        <ele>469.26</ele>
        <time>2014-03-30T13:32:04Z</time>
      </trkpt>
      <trkpt lat="43.53247" lon="5.72625">
        <ele>468.78</ele>
        <time>2014-03-30T13:32:23Z</time>
      </trkpt>
      <trkpt lat="43.53243" lon="5.72629">
        <ele>469.26</ele>
        <time>2014-03-30T13:32:27Z</time>
      </trkpt>
      <trkpt lat="43.53221" lon="5.72646">
        <ele>468.3</ele>
        <time>2014-03-30T13:32:47Z</time>
      </trkpt>
      <trkpt lat="43.53214" lon="5.72652">
        <ele>468.78</ele>
        <time>2014-03-30T13:32:54Z</time>
      </trkpt>
      <trkpt lat="43.532" lon="5.7267">
        <ele>468.3</ele>
        <time>2014-03-30T13:33:10Z</time>
      </trkpt>
      <trkpt lat="43.53195" lon="5.72683">
        <ele>468.78</ele>
        <time>2014-03-30T13:33:20Z</time>
      </trkpt>
      <trkpt lat="43.53191" lon="5.72689">
        <ele>468.78</ele>
        <time>2014-03-30T13:33:24Z</time>
      </trkpt>
      <trkpt lat="43.53171" lon="5.72704">
        <ele>469.26</ele>
        <time>2014-03-30T13:33:42Z</time>
      </trkpt>
      <trkpt lat="43.53152" lon="5.72714">
        <ele>469.26</ele>
        <time>2014-03-30T13:34:00Z</time>
      </trkpt>
      <trkpt lat="43.53148" lon="5.72717">
        <ele>468.78</ele>
        <time>2014-03-30T13:34:04Z</time>
      </trkpt>
      <trkpt lat="43.53131" lon="5.72729">
        <ele>468.3</ele>
        <time>2014-03-30T13:34:18Z</time>
      </trkpt>
      <trkpt lat="43.53125" lon="5.72734">
        <ele>469.74</ele>
        <time>2014-03-30T13:34:25Z</time>
      </trkpt>
      <trkpt lat="43.53104" lon="5.72753">
        <ele>469.74</ele>
        <time>2014-03-30T13:34:44Z</time>
      </trkpt>
      <trkpt lat="43.53089" lon="5.72772">
        <ele>469.74</ele>
        <time>2014-03-30T13:35:00Z</time>
      </trkpt>
      <trkpt lat="43.53075" lon="5.72791">
        <ele>469.74</ele>
        <time>2014-03-30T13:35:16Z</time>
      </trkpt>
      <trkpt lat="43.53059" lon="5.72811">
        <ele>469.26</ele>
        <time>2014-03-30T13:35:33Z</time>
      </trkpt>
      <trkpt lat="43.53042" lon="5.7283">
        <ele>469.26</ele>
        <time>2014-03-30T13:35:51Z</time>
      </trkpt>
      <trkpt lat="43.53029" lon="5.72855">
        <ele>468.78</ele>
        <time>2014-03-30T13:36:08Z</time>
      </trkpt>
      <trkpt lat="43.53024" lon="5.7287">
        <ele>468.78</ele>
        <time>2014-03-30T13:36:19Z</time>
      </trkpt>
      <trkpt lat="43.53023" lon="5.72874">
        <ele>468.78</ele>
        <time>2014-03-30T13:36:21Z</time>
      </trkpt>
      <trkpt lat="43.53008" lon="5.72898">
        <ele>468.3</ele>
        <time>2014-03-30T13:36:38Z</time>
      </trkpt>
      <trkpt lat="43.52986" lon="5.72913">
        <ele>468.3</ele>
        <time>2014-03-30T13:36:58Z</time>
      </trkpt>
      <trkpt lat="43.52965" lon="5.72922">
        <ele>465.9</ele>
        <time>2014-03-30T13:37:17Z</time>
      </trkpt>
      <trkpt lat="43.52942" lon="5.72933">
        <ele>465.42</ele>
        <time>2014-03-30T13:37:36Z</time>
      </trkpt>
      <trkpt lat="43.52931" lon="5.72938">
        <ele>464.93</ele>
        <time>2014-03-30T13:37:46Z</time>
      </trkpt>
      <trkpt lat="43.52909" lon="5.72947">
        <ele>462.53</ele>
        <time>2014-03-30T13:38:05Z</time>
      </trkpt>
      <trkpt lat="43.52892" lon="5.72955">
        <ele>461.09</ele>
        <time>2014-03-30T13:38:20Z</time>
      </trkpt>
      <trkpt lat="43.5287" lon="5.72963">
        <ele>459.65</ele>
        <time>2014-03-30T13:38:38Z</time>
      </trkpt>
      <trkpt lat="43.5285" lon="5.72962">
        <ele>457.24</ele>
        <time>2014-03-30T13:38:56Z</time>
      </trkpt>
      <trkpt lat="43.52832" lon="5.72955">
        <ele>455.8</ele>
        <time>2014-03-30T13:39:12Z</time>
      </trkpt>
      <trkpt lat="43.52808" lon="5.72943">
        <ele>454.36</ele>
        <time>2014-03-30T13:39:33Z</time>
      </trkpt>
      <trkpt lat="43.52784" lon="5.72933">
        <ele>452.44</ele>
        <time>2014-03-30T13:39:53Z</time>
      </trkpt>
      <trkpt lat="43.52764" lon="5.72927">
        <ele>450.52</ele>
        <time>2014-03-30T13:40:11Z</time>
      </trkpt>
      <trkpt lat="43.52743" lon="5.72926">
        <ele>447.15</ele>
        <time>2014-03-30T13:40:29Z</time>
      </trkpt>
      <trkpt lat="43.52726" lon="5.72934">
        <ele>445.71</ele>
        <time>2014-03-30T13:40:45Z</time>
      </trkpt>
      <trkpt lat="43.5271" lon="5.72947">
        <ele>442.34</ele>
        <time>2014-03-30T13:41:03Z</time>
      </trkpt>
      <trkpt lat="43.52695" lon="5.72964">
        <ele>439.94</ele>
        <time>2014-03-30T13:41:19Z</time>
      </trkpt>
      <trkpt lat="43.5268" lon="5.72971">
        <ele>438.02</ele>
        <time>2014-03-30T13:41:33Z</time>
      </trkpt>
      <trkpt lat="43.52661" lon="5.72965">
        <ele>436.58</ele>
        <time>2014-03-30T13:41:51Z</time>
      </trkpt>
      <trkpt lat="43.52641" lon="5.7296">
        <ele>434.65</ele>
        <time>2014-03-30T13:42:09Z</time>
      </trkpt>
      <trkpt lat="43.52622" lon="5.72956">
        <ele>432.25</ele>
        <time>2014-03-30T13:42:26Z</time>
      </trkpt>
      <trkpt lat="43.52604" lon="5.72952">
        <ele>430.33</ele>
        <time>2014-03-30T13:42:42Z</time>
      </trkpt>
      <trkpt lat="43.52585" lon="5.72946">
        <ele>427.44</ele>
        <time>2014-03-30T13:43:01Z</time>
      </trkpt>
      <trkpt lat="43.52574" lon="5.72944">
        <ele>426</ele>
        <time>2014-03-30T13:43:15Z</time>
      </trkpt>
      <trkpt lat="43.52557" lon="5.72943">
        <ele>424.08</ele>
        <time>2014-03-30T13:43:30Z</time>
      </trkpt>
      <trkpt lat="43.52539" lon="5.72936">
        <ele>421.19</ele>
        <time>2014-03-30T13:43:46Z</time>
      </trkpt>
      <trkpt lat="43.52531" lon="5.72931">
        <ele>419.27</ele>
        <time>2014-03-30T13:43:53Z</time>
      </trkpt>
      <trkpt lat="43.52524" lon="5.72916">
        <ele>419.27</ele>
        <time>2014-03-30T13:44:09Z</time>
      </trkpt>
      <trkpt lat="43.52525" lon="5.72916">
        <ele>419.27</ele>
        <time>2014-03-30T13:44:31Z</time>
      </trkpt>
      <trkpt lat="43.52526" lon="5.72915">
        <ele>419.27</ele>
        <time>2014-03-30T13:44:48Z</time>
      </trkpt>
      <trkpt lat="43.52528" lon="5.72912">
        <ele>418.79</ele>
        <time>2014-03-30T13:44:54Z</time>
      </trkpt>
      <trkpt lat="43.52527" lon="5.72912">
        <ele>418.31</ele>
        <time>2014-03-30T13:45:10Z</time>
      </trkpt>
      <trkpt lat="43.52527" lon="5.72913">
        <ele>418.31</ele>
        <time>2014-03-30T13:45:38Z</time>
      </trkpt>
      <trkpt lat="43.52527" lon="5.72913">
        <ele>417.83</ele>
        <time>2014-03-30T13:46:08Z</time>
      </trkpt>
      <trkpt lat="43.52528" lon="5.72913">
        <ele>417.35</ele>
        <time>2014-03-30T13:46:41Z</time>
      </trkpt>
      <trkpt lat="43.52528" lon="5.72913">
        <ele>417.35</ele>
        <time>2014-03-30T13:47:16Z</time>
      </trkpt>
      <trkpt lat="43.52528" lon="5.72913">
        <ele>417.83</ele>
        <time>2014-03-30T13:47:46Z</time>
      </trkpt>
      <trkpt lat="43.52527" lon="5.72914">
        <ele>417.83</ele>
        <time>2014-03-30T13:48:19Z</time>
      </trkpt>
      <trkpt lat="43.52527" lon="5.72914">
        <ele>417.83</ele>
        <time>2014-03-30T13:48:54Z</time>
      </trkpt>
      <trkpt lat="43.52527" lon="5.72914">
        <ele>417.83</ele>
        <time>2014-03-30T13:49:24Z</time>
      </trkpt>
      <trkpt lat="43.52527" lon="5.72914">
        <ele>417.35</ele>
        <time>2014-03-30T13:49:56Z</time>
      </trkpt>
      <trkpt lat="43.52527" lon="5.72913">
        <ele>417.83</ele>
        <time>2014-03-30T13:50:29Z</time>
      </trkpt>
      <trkpt lat="43.52527" lon="5.72913">
        <ele>419.27</ele>
        <time>2014-03-30T13:50:43Z</time>
      </trkpt>
      <trkpt lat="43.52526" lon="5.72914">
        <ele>419.27</ele>
        <time>2014-03-30T13:51:02Z</time>
      </trkpt>
      <trkpt lat="43.52526" lon="5.72915">
        <ele>418.79</ele>
        <time>2014-03-30T13:51:20Z</time>
      </trkpt>
      <trkpt lat="43.52526" lon="5.72915">
        <ele>419.27</ele>
        <time>2014-03-30T13:51:36Z</time>
      </trkpt>
      <trkpt lat="43.52527" lon="5.72915">
        <ele>419.27</ele>
        <time>2014-03-30T13:51:55Z</time>
      </trkpt>
      <trkpt lat="43.52527" lon="5.72916">
        <ele>418.31</ele>
        <time>2014-03-30T13:52:18Z</time>
      </trkpt>
      <trkpt lat="43.52527" lon="5.72916">
        <ele>416.87</ele>
        <time>2014-03-30T13:52:33Z</time>
      </trkpt>
      <trkpt lat="43.52527" lon="5.72915">
        <ele>418.31</ele>
        <time>2014-03-30T13:52:37Z</time>
      </trkpt>
      <trkpt lat="43.52526" lon="5.72916">
        <ele>418.79</ele>
        <time>2014-03-30T13:53:01Z</time>
      </trkpt>
      <trkpt lat="43.52526" lon="5.72916">
        <ele>419.27</ele>
        <time>2014-03-30T13:53:32Z</time>
      </trkpt>
      <trkpt lat="43.52526" lon="5.72917">
        <ele>419.27</ele>
        <time>2014-03-30T13:53:57Z</time>
      </trkpt>
      <trkpt lat="43.52526" lon="5.72917">
        <ele>418.79</ele>
        <time>2014-03-30T13:54:18Z</time>
      </trkpt>
      <trkpt lat="43.52526" lon="5.72917">
        <ele>417.83</ele>
        <time>2014-03-30T13:54:40Z</time>
      </trkpt>
      <trkpt lat="43.52526" lon="5.72917">
        <ele>417.83</ele>
        <time>2014-03-30T13:55:08Z</time>
      </trkpt>
      <trkpt lat="43.52526" lon="5.72917">
        <ele>418.31</ele>
        <time>2014-03-30T13:55:37Z</time>
      </trkpt>
      <trkpt lat="43.52519" lon="5.7292">
        <ele>418.31</ele>
        <time>2014-03-30T13:55:49Z</time>
      </trkpt>
      <trkpt lat="43.52516" lon="5.72922">
        <ele>418.31</ele>
        <time>2014-03-30T13:55:52Z</time>
      </trkpt>
      <trkpt lat="43.52509" lon="5.72921">
        <ele>416.87</ele>
        <time>2014-03-30T13:55:59Z</time>
      </trkpt>
      <trkpt lat="43.52491" lon="5.72921">
        <ele>414.95</ele>
        <time>2014-03-30T13:56:18Z</time>
      </trkpt>
      <trkpt lat="43.52477" lon="5.72919">
        <ele>412.06</ele>
        <time>2014-03-30T13:56:33Z</time>
      </trkpt>
      <trkpt lat="43.52463" lon="5.72917">
        <ele>409.18</ele>
        <time>2014-03-30T13:56:48Z</time>
      </trkpt>
      <trkpt lat="43.52455" lon="5.72915">
        <ele>407.74</ele>
        <time>2014-03-30T13:56:57Z</time>
      </trkpt>
      <trkpt lat="43.52442" lon="5.72909">
        <ele>405.33</ele>
        <time>2014-03-30T13:57:11Z</time>
      </trkpt>
      <trkpt lat="43.52425" lon="5.72901">
        <ele>403.89</ele>
        <time>2014-03-30T13:57:27Z</time>
      </trkpt>
      <trkpt lat="43.52408" lon="5.72897">
        <ele>402.93</ele>
        <time>2014-03-30T13:57:42Z</time>
      </trkpt>
      <trkpt lat="43.52386" lon="5.72898">
        <ele>402.45</ele>
        <time>2014-03-30T13:58:00Z</time>
      </trkpt>
      <trkpt lat="43.52373" lon="5.72896">
        <ele>401.97</ele>
        <time>2014-03-30T13:58:11Z</time>
      </trkpt>
      <trkpt lat="43.52356" lon="5.72898">
        <ele>402.45</ele>
        <time>2014-03-30T13:58:26Z</time>
      </trkpt>
      <trkpt lat="43.52342" lon="5.729">
        <ele>403.41</ele>
        <time>2014-03-30T13:58:41Z</time>
      </trkpt>
      <trkpt lat="43.52326" lon="5.72902">
        <ele>402.93</ele>
        <time>2014-03-30T13:58:56Z</time>
      </trkpt>
      <trkpt lat="43.52307" lon="5.72905">
        <ele>401.49</ele>
        <time>2014-03-30T13:59:12Z</time>
      </trkpt>
      <trkpt lat="43.5229" lon="5.72908">
        <ele>400.05</ele>
        <time>2014-03-30T13:59:27Z</time>
      </trkpt>
      <trkpt lat="43.52284" lon="5.72908">
        <ele>399.57</ele>
        <time>2014-03-30T13:59:33Z</time>
      </trkpt>
      <trkpt lat="43.52262" lon="5.7291">
        <ele>397.16</ele>
        <time>2014-03-30T13:59:52Z</time>
      </trkpt>
      <trkpt lat="43.52248" lon="5.72911">
        <ele>395.24</ele>
        <time>2014-03-30T14:00:06Z</time>
      </trkpt>
      <trkpt lat="43.52246" lon="5.72911">
        <ele>395.24</ele>
        <time>2014-03-30T14:00:08Z</time>
      </trkpt>
      <trkpt lat="43.52229" lon="5.72914">
        <ele>392.36</ele>
        <time>2014-03-30T14:00:24Z</time>
      </trkpt>
      <trkpt lat="43.52213" lon="5.72913">
        <ele>389.95</ele>
        <time>2014-03-30T14:00:40Z</time>
      </trkpt>
      <trkpt lat="43.52197" lon="5.7291">
        <ele>387.07</ele>
        <time>2014-03-30T14:00:59Z</time>
      </trkpt>
      <trkpt lat="43.52186" lon="5.7291">
        <ele>384.18</ele>
        <time>2014-03-30T14:01:10Z</time>
      </trkpt>
      <trkpt lat="43.52171" lon="5.72918">
        <ele>381.78</ele>
        <time>2014-03-30T14:01:24Z</time>
      </trkpt>
      <trkpt lat="43.52156" lon="5.72923">
        <ele>379.38</ele>
        <time>2014-03-30T14:01:38Z</time>
      </trkpt>
      <trkpt lat="43.52144" lon="5.72928">
        <ele>377.45</ele>
        <time>2014-03-30T14:01:52Z</time>
      </trkpt>
      <trkpt lat="43.5214" lon="5.7293">
        <ele>375.53</ele>
        <time>2014-03-30T14:01:55Z</time>
      </trkpt>
      <trkpt lat="43.52132" lon="5.72934">
        <ele>375.05</ele>
        <time>2014-03-30T14:02:03Z</time>
      </trkpt>
      <trkpt lat="43.52117" lon="5.72939">
        <ele>373.13</ele>
        <time>2014-03-30T14:02:19Z</time>
      </trkpt>
      <trkpt lat="43.52116" lon="5.72938">
        <ele>372.65</ele>
        <time>2014-03-30T14:02:20Z</time>
      </trkpt>
      <trkpt lat="43.52098" lon="5.72936">
        <ele>370.24</ele>
        <time>2014-03-30T14:02:38Z</time>
      </trkpt>
      <trkpt lat="43.52083" lon="5.72918">
        <ele>367.36</ele>
        <time>2014-03-30T14:02:56Z</time>
      </trkpt>
      <trkpt lat="43.52069" lon="5.72902">
        <ele>364.96</ele>
        <time>2014-03-30T14:03:12Z</time>
      </trkpt>
      <trkpt lat="43.52053" lon="5.72887">
        <ele>362.55</ele>
        <time>2014-03-30T14:03:31Z</time>
      </trkpt>
      <trkpt lat="43.52034" lon="5.72887">
        <ele>361.11</ele>
        <time>2014-03-30T14:03:49Z</time>
      </trkpt>
      <trkpt lat="43.52015" lon="5.72884">
        <ele>358.71</ele>
        <time>2014-03-30T14:04:09Z</time>
      </trkpt>
      <trkpt lat="43.52014" lon="5.72883">
        <ele>358.23</ele>
        <time>2014-03-30T14:04:11Z</time>
      </trkpt>
      <trkpt lat="43.52005" lon="5.72886">
        <ele>357.27</ele>
        <time>2014-03-30T14:04:22Z</time>
      </trkpt>
      <trkpt lat="43.52002" lon="5.72886">
        <ele>356.79</ele>
        <time>2014-03-30T14:04:25Z</time>
      </trkpt>
      <trkpt lat="43.51984" lon="5.7289">
        <ele>353.42</ele>
        <time>2014-03-30T14:04:42Z</time>
      </trkpt>
      <trkpt lat="43.51968" lon="5.72891">
        <ele>352.46</ele>
        <time>2014-03-30T14:05:00Z</time>
      </trkpt>
      <trkpt lat="43.51947" lon="5.72894">
        <ele>349.58</ele>
        <time>2014-03-30T14:05:17Z</time>
      </trkpt>
      <trkpt lat="43.5193" lon="5.72894">
        <ele>347.17</ele>
        <time>2014-03-30T14:05:32Z</time>
      </trkpt>
      <trkpt lat="43.51928" lon="5.72893">
        <ele>346.69</ele>
        <time>2014-03-30T14:05:34Z</time>
      </trkpt>
      <trkpt lat="43.51904" lon="5.72893">
        <ele>343.81</ele>
        <time>2014-03-30T14:05:53Z</time>
      </trkpt>
      <trkpt lat="43.51885" lon="5.72894">
        <ele>343.33</ele>
        <time>2014-03-30T14:06:08Z</time>
      </trkpt>
      <trkpt lat="43.51867" lon="5.72897">
        <ele>341.89</ele>
        <time>2014-03-30T14:06:23Z</time>
      </trkpt>
      <trkpt lat="43.51849" lon="5.72899">
        <ele>341.41</ele>
        <time>2014-03-30T14:06:38Z</time>
      </trkpt>
      <trkpt lat="43.51832" lon="5.729">
        <ele>341.89</ele>
        <time>2014-03-30T14:06:52Z</time>
      </trkpt>
      <trkpt lat="43.51827" lon="5.72899">
        <ele>340.44</ele>
        <time>2014-03-30T14:06:57Z</time>
      </trkpt>
      <trkpt lat="43.5182" lon="5.729">
        <ele>341.89</ele>
        <time>2014-03-30T14:07:04Z</time>
      </trkpt>
      <trkpt lat="43.51804" lon="5.72906">
        <ele>341.89</ele>
        <time>2014-03-30T14:07:20Z</time>
      </trkpt>
      <trkpt lat="43.51795" lon="5.72904">
        <ele>341.89</ele>
        <time>2014-03-30T14:07:36Z</time>
      </trkpt>
      <trkpt lat="43.51795" lon="5.72904">
        <ele>342.37</ele>
        <time>2014-03-30T14:07:43Z</time>
      </trkpt>
    </trkseg>
  </trk>
</gpx>